Provisional Data: Conodoguinet Creek near Schlusser, PA


Please select a monitoring station.
Please select start date.
Please select start date.

Toggle Unit: C/F Toggle Unit: C/F
Sample Time Temperature (C) Temperature (F) Specific Conductivity (mS/cm) pH   Turbidity (NTU+) DO (mg/L)
5/4/2021 12:00:00 AM 17.64 63.752 0.412 8.05 1919 7.53
5/4/2021 12:15:00 AM 17.64 63.752 0.413 8.06 1913 7.53
5/4/2021 12:30:00 AM 17.63 63.734 0.413 8.06 1915 7.57
5/4/2021 12:45:00 AM 17.64 63.752 0.413 8.06 1921 7.6
5/4/2021 1:00:00 AM 17.63 63.734 0.412 8.07 1920 7.62
5/4/2021 1:15:00 AM 17.62 63.716 0.413 8.08 1930 7.63
5/4/2021 1:30:00 AM 17.62 63.716 0.413 8.08 1940 7.67
5/4/2021 1:45:00 AM 17.61 63.698 0.413 8.1 1929 7.69
5/4/2021 2:00:00 AM 17.63 63.734 0.413 8.11 1916 7.67
5/4/2021 2:15:00 AM 17.61 63.698 0.413 8.1 1951 7.72
5/4/2021 2:30:00 AM 17.62 63.716 0.413 8.11 2005 7.69
5/4/2021 2:45:00 AM 17.62 63.716 0.413 8.11 2069 7.65
5/4/2021 3:00:00 AM 17.62 63.716 0.413 8.12 2070 7.7
5/4/2021 3:15:00 AM 17.62 63.716 0.412 8.13 1596 7.74
5/4/2021 3:30:00 AM 17.62 63.716 0.412 8.14 1769 7.35
5/4/2021 3:45:00 AM 17.62 63.716 0.412 8.13 1798 7.45
5/4/2021 4:00:00 AM 17.62 63.716 0.412 8.14 1778 7.45
5/4/2021 4:15:00 AM 17.61 63.698 0.412 8.13 1806 7.73
5/4/2021 4:30:00 AM 17.59 63.662 0.412 8.12 1823 7.67
5/4/2021 4:45:00 AM 17.59 63.662 0.413 8.11 1836 7.71
5/4/2021 5:00:00 AM 17.58 63.644 0.413 8.11 1828 7.71
5/4/2021 5:15:00 AM 17.57 63.626 0.412 8.11 1840 7.7
5/4/2021 5:30:00 AM 17.56 63.608 0.405 8.12 1832 7.67
5/4/2021 5:45:00 AM 17.55 63.59 0.411 8.12 1839 7.6
5/4/2021 6:00:00 AM 17.53 63.554 0.418 8.13 1856 7.7
5/4/2021 6:15:00 AM 17.52 63.536 0.417 8.12 1857 7.56
5/4/2021 6:30:00 AM 17.5 63.5 0.417 8.11 1858 7.63
5/4/2021 6:45:00 AM 17.5 63.5 0.416 8.12 1854 7.67
5/4/2021 7:00:00 AM 17.49 63.482 0.416 8.1 1867 7.52
5/4/2021 7:15:00 AM 17.48 63.464 0.416 8.1 1874 7.63
5/4/2021 7:30:00 AM 17.48 63.464 0.415 8.1 1848 7.65
5/4/2021 7:45:00 AM 17.5 63.5 0.415 8.1 1848 7.57
5/4/2021 8:00:00 AM 17.53 63.554 0.415 8.1 1835 7.69
5/4/2021 8:15:00 AM 17.55 63.59 0.415 8.1 1840 7.75
5/4/2021 8:30:00 AM 17.58 63.644 0.415 8.11 1825 7.89
5/4/2021 8:45:00 AM 17.63 63.734 0.414 8.12 1809 7.97
5/4/2021 9:00:00 AM 17.65 63.77 0.414 8.11 1792 8.06
5/4/2021 9:15:00 AM 17.73 63.914 0.414 8.13 1782 8.13
5/4/2021 9:30:00 AM 17.77 63.986 0.413 8.13 1782 8.27
5/4/2021 9:45:00 AM 17.83 64.094 0.414 8.13 1769 8.19
5/4/2021 10:00:00 AM 17.91 64.238 0.414 8.14 1764 8.34
5/4/2021 10:15:00 AM 17.97 64.346 0.414 8.14 1765 8.21
5/4/2021 10:30:00 AM 18.06 64.508 0.414 8.14 1755 8.35
5/4/2021 10:45:00 AM 18.15 64.67 0.414 8.14 1753 8.39
5/4/2021 11:00:00 AM 18.21 64.778 0.414 8.14 1776 8.29
5/4/2021 11:15:00 AM 18.29 64.922 0.414 8.14 1769 8.46
5/4/2021 11:30:00 AM 18.41 65.138 0.414 8.14 1784 8.44
5/4/2021 11:45:00 AM 18.45 65.21 0.414 8.14 1786 8.55
5/4/2021 12:00:00 PM 18.64 65.552 0.414 8.14 1814 8.36
5/4/2021 12:15:00 PM 18.83 65.894 0.414 8.14 1803 8.4
5/4/2021 12:30:00 PM 19.01 66.218 0.414 8.14 1794 8.38
5/4/2021 12:45:00 PM 19.19 66.542 0.413 8.15 1805 8.59
5/4/2021 1:00:00 PM 19.34 66.812 0.412 8.15 1803 8.71
5/4/2021 1:15:00 PM 19.53 67.154 0.412 8.15 1813 8.71
5/4/2021 1:30:00 PM 19.65 67.37 0.412 8.15 1830 8.73
5/4/2021 1:45:00 PM 19.75 67.55 0.413 8.15 1847 8.62
5/4/2021 2:00:00 PM 19.76 67.568 0.413 8.14 1852 8.65
5/4/2021 2:15:00 PM 19.8 67.64 0.411 8.15 1888 8.75
5/4/2021 2:30:00 PM 19.89 67.802 0.412 8.15 1911 8.71
5/4/2021 2:45:00 PM 19.88 67.784 0.411 8.14 1927 8.67
5/4/2021 3:00:00 PM 19.84 67.712 0.412 8.14 1931 8.66
5/4/2021 3:15:00 PM 19.89 67.802 0.412 8.15 1948 8.62
5/4/2021 3:30:00 PM 20.01 68.018 0.412 8.16 1968 8.75
5/4/2021 3:45:00 PM 20.08 68.144 0.413 8.16 1949 8.7
5/4/2021 4:00:00 PM 20.11 68.198 0.413 8.15 2004 8.67
5/4/2021 4:15:00 PM 20.16 68.288 0.413 8.17 1999 8.66
5/4/2021 4:30:00 PM 20.26 68.468 0.413 8.16 2017 8.59
5/4/2021 4:45:00 PM 20.27 68.486 0.414 8.16 2022 8.61
5/4/2021 5:00:00 PM 20.15 68.27 0.413 8.15 2077 8.53
5/4/2021 5:15:00 PM 20.1 68.18 0.414 8.15 2071 8.52
5/4/2021 5:30:00 PM 20.04 68.07201 0.415 8.14 2085 8.48
5/4/2021 5:45:00 PM 19.92 67.856 0.413 8.14 2136 8.43
5/4/2021 6:00:00 PM 19.82 67.676 0.413 8.14 2158 8.31
5/4/2021 6:15:00 PM 19.73 67.514 0.412 8.14 2161 8.23
5/4/2021 6:30:00 PM 19.69 67.442 0.411 8.14 2147 8.12
5/4/2021 6:45:00 PM 19.66 67.388 0.412 8.14 2162 8.06
5/4/2021 7:00:00 PM 19.66 67.388 0.411 8.13 2135 7.97
5/4/2021 7:15:00 PM 19.67 67.406 0.413 8.13 2156 7.93
5/4/2021 7:30:00 PM 19.71 67.478 0.411 8.14 2187 7.91
5/4/2021 7:45:00 PM 19.75 67.55 0.41 8.14 2153 7.88
5/4/2021 8:00:00 PM 19.8 67.64 0.41 8.15 2156 7.83
5/4/2021 8:15:00 PM 19.84 67.712 0.41 8.15 2168 7.81
5/4/2021 8:30:00 PM 19.89 67.802 0.416 8.15 2171 7.8
5/4/2021 8:45:00 PM 19.96 67.92799 0.412 8.17 2167 7.78
5/4/2021 9:00:00 PM 20.04 68.07201 0.412 8.18 2173 7.76
5/4/2021 9:15:00 PM 20.12 68.216 0.411 8.19 2145 7.77
5/4/2021 9:30:00 PM 20.19 68.342 0.398 8.19 2149 7.66
5/4/2021 9:45:00 PM 20.25 68.45 0.411 8.19 2151 7.72
5/4/2021 10:00:00 PM 20.3 68.54 0.411 8.2 2147 7.7
5/4/2021 10:15:00 PM 20.35 68.63 0.412 8.21 2179 7.55
5/4/2021 10:30:00 PM 20.39 68.702 0.412 8.21 2158 7.65
5/4/2021 10:45:00 PM 20.43 68.774 0.412 8.22 2141 7.7
5/4/2021 11:00:00 PM 20.45 68.81 0.411 8.22 2141 7.69
5/4/2021 11:15:00 PM 20.47 68.846 0.411 8.22 2147 7.76
5/4/2021 11:30:00 PM 20.48 68.864 0.41 8.22 2148 7.62
5/4/2021 11:45:00 PM 20.49 68.882 0.411 8.22 2152 7.63
5/5/2021 12:00:00 AM 20.49 68.882 0.408 8.22 2171 7.63
5/5/2021 12:15:00 AM 20.48 68.864 0.408 8.22 2169 7.64
5/5/2021 12:30:00 AM 20.47 68.846 0.406 8.22 2176 7.55
5/5/2021 12:45:00 AM 20.45 68.81 0.407 8.21 2169 7.5
5/5/2021 1:00:00 AM 20.42 68.756 0.406 8.2 1991 7.39
5/5/2021 1:15:00 AM 20.39 68.702 0.405 8.21 2020 7.55
5/5/2021 1:30:00 AM 20.37 68.666 0.405 8.2 2050 7.31
5/5/2021 1:45:00 AM 20.34 68.612 0.405 8.2 2076 7.35
5/5/2021 2:00:00 AM 20.31 68.558 0.404 8.19 2076 7.41
5/5/2021 2:15:00 AM 20.27 68.486 0.403 8.19 2009 7.34
5/5/2021 2:30:00 AM 20.24 68.432 0.403 8.18 1978 7.36
5/5/2021 2:45:00 AM 20.21 68.378 0.403 8.17 1978 7.27
5/5/2021 3:00:00 AM 20.18 68.324 0.402 8.17 1982 7.36
5/5/2021 3:15:00 AM 20.15 68.27 0.402 8.16 1979 7.36
5/5/2021 3:30:00 AM 20.11 68.198 0.402 8.14 1985 7.27
5/5/2021 3:45:00 AM 20.07 68.126 0.401 8.14 1989 7.31
5/5/2021 4:00:00 AM 20.04 68.07201 0.402 8.13 1999 7.24
5/5/2021 4:15:00 AM 20 68 0.4 8.13 1991 7.3
5/5/2021 4:30:00 AM 19.97 67.946 0.401 8.11 1993 7.22
5/5/2021 4:45:00 AM 19.93 67.874 0.401 8.1 2005 7.13
5/5/2021 5:00:00 AM 19.9 67.82 0.4 8.09 2008 7.1
5/5/2021 5:15:00 AM 19.85 67.73 0.4 8.09 2012 7.16
5/5/2021 5:30:00 AM 19.83 67.694 0.399 8.08 2005 7.17
5/5/2021 5:45:00 AM 19.8 67.64 0.4 8.08 2003 7.08
5/5/2021 6:00:00 AM 19.78 67.604 0.399 8.07 2008 7.11
5/5/2021 6:15:00 AM 19.75 67.55 0.398 8.07 2004 7.06
5/5/2021 6:30:00 AM 19.73 67.514 0.398 8.06 1990 7.02
5/5/2021 6:45:00 AM 19.7 67.46 0.398 8.05 1974 6.87
5/5/2021 7:00:00 AM 19.68 67.424 0.397 8.04 1985 6.98
5/5/2021 7:15:00 AM 19.65 67.37 0.396 8.04 1989 7.09
5/5/2021 7:30:00 AM 19.63 67.334 0.395 8.03 1975 7.01
5/5/2021 7:45:00 AM 19.61 67.298 0.395 8.03 1982 7.08
5/5/2021 8:00:00 AM 19.6 67.28 0.395 8.03 1981 6.99
5/5/2021 8:15:00 AM 19.59 67.262 0.394 8.02 1974 7
5/5/2021 8:30:00 AM 19.55 67.19 0.39 8.03 1964 7.02
5/5/2021 8:45:00 AM 19.5 67.1 0.391 8.02 1965 6.94
5/5/2021 9:00:00 AM 19.49 67.082 0.39 8.02 1973 7.11
5/5/2021 9:15:00 AM 19.38 66.884 0.377 8.03 1964 6.97
5/5/2021 9:30:00 AM 19.28 66.704 0.365 8.02 1940 7.03
5/5/2021 9:45:00 AM 19.23 66.614 0.362 8.01 1941 7.04
5/5/2021 10:00:00 AM 19.17 66.506 0.358 8 1946 6.76
5/5/2021 10:15:00 AM 19.1 66.38 0.354 7.99 1944 6.94
5/5/2021 10:30:00 AM 19.07 66.326 0.352 7.97 1943 6.82
5/5/2021 10:45:00 AM 19.08 66.344 0.356 7.97 1933 7.15
5/5/2021 11:00:00 AM 19.16 66.488 0.359 7.97 1922 7.16
5/5/2021 11:15:00 AM 19.23 66.614 0.362 7.97 1902 7.1
5/5/2021 11:30:00 AM 19.31 66.758 0.364 7.97 1867 7.29
5/5/2021 11:45:00 AM 19.39 66.902 0.368 7.99 1856 7.52
5/5/2021 12:00:00 PM 19.53 67.154 0.371 8 1841 7.52
5/5/2021 12:15:00 PM 19.66 67.388 0.374 8.02 1839 7.76
5/5/2021 12:30:00 PM 19.67 67.406 0.376 8.03 1766 7.78
5/5/2021 12:45:00 PM 19.68 67.424 0.377 8.03 1885 7.85
5/5/2021 1:00:00 PM 19.73 67.514 0.38 8.03 1879 7.74
5/5/2021 1:15:00 PM 19.77 67.586 0.381 8.04 1917 7.95
5/5/2021 1:30:00 PM 19.84 67.712 0.382 8.05 1907 7.71
5/5/2021 1:45:00 PM 19.92 67.856 0.384 8.05 1936 7.91
5/5/2021 2:00:00 PM 19.95 67.91 0.383 8.05 1945 7.98
5/5/2021 2:15:00 PM 20.09 68.162 0.383 8.06 1771 8.01
5/5/2021 2:30:00 PM 20.28 68.504 0.384 8.06 1809 8.09
5/5/2021 2:45:00 PM 20.25 68.45 0.385 8.07 1750 8.11
5/5/2021 3:00:00 PM 20.21 68.378 0.388 8.07 1765 8.13
5/5/2021 3:15:00 PM 20.18 68.324 0.386 8.07 1779 8.1
5/5/2021 3:30:00 PM 20.22 68.396 0.386 8.08 1791 8.12
5/5/2021 3:45:00 PM 20.23 68.414 0.388 8.08 1778 8.1
5/5/2021 4:00:00 PM 20.32 68.576 0.389 8.1 1850 8.16
5/5/2021 4:15:00 PM 20.3 68.54 0.387 8.08 1856 8.12
5/5/2021 4:30:00 PM 20.24 68.432 0.386 8.08 1868 8.06
5/5/2021 4:45:00 PM 20.18 68.324 0.387 8.07 1807 8
5/5/2021 5:00:00 PM 20.11 68.198 0.384 8.07 1844 7.94
5/5/2021 5:15:00 PM 19.99 67.982 0.383 8.05 1829 7.79
5/5/2021 5:30:00 PM 20 68 0.381 8.05 1910 7.79
5/5/2021 5:45:00 PM 19.93 67.874 0.377 8.04 1903 7.68
5/5/2021 6:00:00 PM 19.85 67.73 0.375 8.03 1985 7.66
5/5/2021 6:15:00 PM 19.78 67.604 0.371 8.03 1977 7.71
5/5/2021 6:30:00 PM 19.73 67.514 0.37 8.02 1881 7.64
5/5/2021 6:45:00 PM 19.67 67.406 0.366 8.02 1860 7.6
5/5/2021 7:00:00 PM 19.63 67.334 0.363 8.01 1897 7.65
5/5/2021 7:15:00 PM 19.59 67.262 0.36 8.01 1897 7.69
5/5/2021 7:30:00 PM 19.55 67.19 0.357 8 1883 7.49
5/5/2021 7:45:00 PM 19.5 67.1 0.356 8 1852 7.64
5/5/2021 8:00:00 PM 19.46 67.028 0.355 8 1823 7.65
5/5/2021 8:15:00 PM 19.44 66.992 0.354 8 1882 7.65
5/5/2021 8:30:00 PM 19.42 66.956 0.353 8 1846 7.63
5/5/2021 8:45:00 PM 19.38 66.884 0.353 7.99 1834 7.65
5/5/2021 9:00:00 PM 19.34 66.812 0.352 7.99 1912 7.61
5/5/2021 9:15:00 PM 19.29 66.722 0.351 7.99 1911 7.66
5/5/2021 9:30:00 PM 19.23 66.614 0.351 7.99 1907 7.4
5/5/2021 9:45:00 PM 19.2 66.56 0.349 8 1924 7.72
5/5/2021 10:00:00 PM 19.17 66.506 0.348 8 1897 7.71
5/5/2021 10:15:00 PM 19.11 66.398 0.347 8 1907 7.75
5/5/2021 10:30:00 PM 19.08 66.344 0.346 8 1161 7.78
5/5/2021 10:45:00 PM 19.02 66.236 0.345 8 1245 7.8
5/5/2021 11:00:00 PM 18.94 66.092 0.344 8 1338 7.85
5/5/2021 11:15:00 PM 18.86 65.948 0.342 8 1366 7.86
5/5/2021 11:30:00 PM 18.78 65.804 0.34 8 1401 7.89
5/5/2021 11:45:00 PM 18.71 65.67799 0.339 8 1427 7.9
5/6/2021 12:00:00 AM 18.64 65.552 0.336 7.99 1424 7.87
5/6/2021 12:15:00 AM 18.53 65.354 0.334 7.98 1443 7.85
5/6/2021 12:30:00 AM 18.43 65.174 0.331 7.97 1468 7.88
5/6/2021 12:45:00 AM 18.31 64.958 0.33 7.96 1486 7.89
5/6/2021 1:00:00 AM 18.21 64.778 0.329 7.95 1494 7.9
5/6/2021 1:15:00 AM 18.11 64.598 0.328 7.95 1481 7.89
5/6/2021 1:30:00 AM 18.01 64.418 0.327 7.94 1511 7.91
5/6/2021 1:45:00 AM 17.92 64.256 0.326 7.93 1519 7.89
5/6/2021 2:00:00 AM 17.83 64.094 0.326 7.93 1513 7.89
5/6/2021 2:15:00 AM 17.76 63.968 0.326 7.92 1518 7.88
5/6/2021 2:30:00 AM 17.69 63.842 0.326 7.92 1538 7.89
5/6/2021 2:45:00 AM 17.62 63.716 0.325 7.92 1569 7.9
5/6/2021 3:00:00 AM 17.56 63.608 0.325 7.91 1578 7.89
5/6/2021 3:15:00 AM 17.5 63.5 0.324 7.91 1643 7.89
5/6/2021 3:30:00 AM 17.43 63.374 0.324 7.9 1597 7.89
5/6/2021 3:45:00 AM 17.39 63.302 0.322 7.9 1504 7.89
5/6/2021 4:00:00 AM 17.34 63.212 0.321 7.9 1518 7.86
5/6/2021 4:15:00 AM 17.3 63.14 0.32 7.89 1568 7.9
5/6/2021 4:30:00 AM 17.25 63.05 0.318 7.89 1544 7.91
5/6/2021 4:45:00 AM 17.2 62.96 0.317 7.89 1573 7.9
5/6/2021 5:00:00 AM 17.14 62.852 0.316 7.89 1590 7.9
5/6/2021 5:15:00 AM 17.08 62.744 0.315 7.89 1594 7.91
5/6/2021 5:30:00 AM 17.02 62.636 0.313 7.89 1623 7.92
5/6/2021 5:45:00 AM 16.97 62.546 0.312 7.88 2036 7.92
5/6/2021 6:00:00 AM 16.91 62.438 0.31 7.88 2033 7.96
5/6/2021 6:15:00 AM 16.86 62.348 0.309 7.88 2082 7.94
5/6/2021 6:30:00 AM 16.81 62.258 0.308 7.88 2108 7.96
5/6/2021 6:45:00 AM 16.77 62.186 0.308 7.88 2089 7.96
5/6/2021 7:00:00 AM 16.72 62.096 0.307 7.88 2118 8.02
5/6/2021 7:15:00 AM 16.68 62.024 0.307 7.88 2142 7.89
5/6/2021 7:30:00 AM 16.62 61.916 0.306 7.88 2139 8.02
5/6/2021 7:45:00 AM 16.59 61.862 0.305 7.89 2138 8.02
5/6/2021 8:00:00 AM 16.56 61.808 0.304 7.89 2148 8.05
5/6/2021 8:15:00 AM 16.53 61.754 0.304 7.89 2156 8.09
5/6/2021 8:30:00 AM 16.51 61.718 0.303 7.89 2161 8.1
5/6/2021 8:45:00 AM 16.48 61.664 0.302 7.89 2163 8.12
5/6/2021 9:00:00 AM 16.45 61.61 0.301 7.89 2164 8.16
5/6/2021 9:15:00 AM 16.42 61.556 0.3 7.9 2156 8.19
5/6/2021 9:30:00 AM 16.39 61.502 0.299 7.9 2167 8.22
5/6/2021 9:45:00 AM 16.36 61.448 0.298 7.9 2165 8.23
5/6/2021 10:00:00 AM 16.33 61.394 0.298 7.9 2164 8.25
5/6/2021 10:15:00 AM 16.33 61.394 0.297 7.9 2154 8.3
5/6/2021 10:30:00 AM 16.33 61.394 0.296 7.9 2143 8.32
5/6/2021 10:45:00 AM 16.33 61.394 0.296 7.9 2124 8.34
5/6/2021 11:00:00 AM 16.34 61.412 0.296 7.9 2088 8.36
5/6/2021 11:15:00 AM 16.33 61.394 0.296 7.91 2090 8.38
5/6/2021 11:30:00 AM 16.35 61.43 0.297 7.91 2084 8.4
5/6/2021 11:45:00 AM 16.4 61.52 0.297 7.91 2080 8.44
5/6/2021 12:00:00 PM 16.45 61.61 0.298 7.92 2067 8.5
5/6/2021 12:15:00 PM 16.51 61.718 0.298 7.92 2089 8.53
5/6/2021 12:30:00 PM 16.58 61.844 0.299 7.93 2078 8.56
5/6/2021 12:45:00 PM 16.64 61.952 0.3 7.93 2085 8.6
5/6/2021 1:00:00 PM 16.73 62.114 0.3 7.94 2099 8.62
5/6/2021 1:15:00 PM 16.83 62.294 0.301 7.95 2097 8.66
5/6/2021 1:30:00 PM 16.92 62.456 0.297 7.95 2105 8.65
5/6/2021 1:45:00 PM 16.99 62.582 0.301 7.95 2102 8.68
5/6/2021 2:00:00 PM 17.08 62.744 0.301 7.96 2097 8.72
5/6/2021 2:15:00 PM 17.19 62.942 0.301 7.96 2115 8.72
5/6/2021 2:30:00 PM 17.3 63.14 0.3 7.97 2121 8.76
5/6/2021 2:45:00 PM 17.37 63.266 0.299 7.97 2117 8.76
5/6/2021 3:00:00 PM 17.44 63.392 0.299 7.98 2129 8.79
5/6/2021 3:15:00 PM 17.47 63.446 0.297 7.98 2140 8.78
5/6/2021 3:30:00 PM 17.45 63.41 0.297 7.98 2127 8.72
5/6/2021 3:45:00 PM 17.43 63.374 0.296 7.98 2121 8.73
5/6/2021 4:00:00 PM 17.41 63.338 0.294 7.98 2120 8.71
5/6/2021 4:15:00 PM 17.38 63.284 0.292 7.97 2137 8.67
5/6/2021 4:30:00 PM 17.35 63.23 0.29 7.97 2124 8.63
5/6/2021 4:45:00 PM 17.35 63.23 0.289 7.97 2115 8.59
5/6/2021 5:00:00 PM 17.37 63.266 0.287 7.96 2091 8.57
5/6/2021 5:15:00 PM 17.4 63.32 0.286 7.96 2111 8.53
5/6/2021 5:30:00 PM 17.4 63.32 0.284 7.96 2108 8.51
5/6/2021 5:45:00 PM 17.42 63.356 0.283 7.95 2125 8.5
5/6/2021 6:00:00 PM 17.43 63.374 0.282 7.95 2129 8.48
5/6/2021 6:15:00 PM 17.42 63.356 0.281 7.94 2099 8.46
5/6/2021 6:30:00 PM 17.42 63.356 0.28 7.94 2103 8.42
5/6/2021 6:45:00 PM 17.43 63.374 0.279 7.94 2115 8.38
5/6/2021 7:00:00 PM 17.42 63.356 0.278 7.93 2120 8.35
5/6/2021 7:15:00 PM 17.41 63.338 0.277 7.93 2156 8.33
5/6/2021 7:30:00 PM 17.4 63.32 0.277 7.92 2158 8.3
5/6/2021 7:45:00 PM 17.37 63.266 0.277 7.92 2167 8.27
5/6/2021 8:00:00 PM 17.33 63.194 0.277 7.91 2167 8.25
5/6/2021 8:15:00 PM 17.29 63.122 0.276 7.91 2173 8.21
5/6/2021 8:30:00 PM 17.25 63.05 0.276 7.9 2172 8.2
5/6/2021 8:45:00 PM 17.21 62.978 0.276 7.9 2174 8.17
5/6/2021 9:00:00 PM 17.17 62.906 0.276 7.9 2191 8.16
5/6/2021 9:15:00 PM 17.13 62.834 0.277 7.89 2198 8.15
5/6/2021 9:30:00 PM 17.09 62.762 0.273 7.89 2209 8.15
5/6/2021 9:45:00 PM 17.05 62.69 0.276 7.89 2217 8.15
5/6/2021 10:00:00 PM 17.01 62.618 0.277 7.89 2224 8.15
5/6/2021 10:15:00 PM 16.97 62.546 0.277 7.89 2240 8.17
5/6/2021 10:30:00 PM 16.94 62.492 0.277 7.89 2235 8.18
5/6/2021 10:45:00 PM 16.91 62.438 0.277 7.89 2236 8.17
5/6/2021 11:00:00 PM 16.87 62.366 0.277 7.89 2214 8.18
5/6/2021 11:15:00 PM 16.82 62.276 0.278 7.89 2227 8.15
5/6/2021 11:30:00 PM 16.78 62.204 0.278 7.89 2229 8.19
5/6/2021 11:45:00 PM 16.73 62.114 0.278 7.89 2222 8.19
5/7/2021 12:00:00 AM 16.69 62.042 0.278 7.89 2231 8.16
5/7/2021 12:15:00 AM 16.64 61.952 0.278 7.89 2229 8.16
5/7/2021 12:30:00 AM 16.59 61.862 0.278 7.89 2211 8.18
5/7/2021 12:45:00 AM 16.54 61.772 0.278 7.89 2216 8.15
5/7/2021 1:00:00 AM 16.48 61.664 0.278 7.89 2239 8.17
5/7/2021 1:15:00 AM 16.42 61.556 0.278 7.89 2230 8.17
5/7/2021 1:30:00 AM 16.38 61.484 0.278 7.89 2233 8.18
5/7/2021 1:45:00 AM 16.33 61.394 0.278 7.89 2219 8.18
5/7/2021 2:00:00 AM 16.27 61.286 0.278 7.88 2236 8.16
5/7/2021 2:15:00 AM 16.21 61.178 0.278 7.88 2232 8.18
5/7/2021 2:30:00 AM 16.15 61.07 0.278 7.88 2228 8.16
5/7/2021 2:45:00 AM 16.11 60.998 0.278 7.88 2237 8.15
5/7/2021 3:00:00 AM 16.05 60.89 0.278 7.88 2244 8.17
5/7/2021 3:15:00 AM 16 60.8 0.278 7.88 2253 8.16
5/7/2021 3:30:00 AM 15.96 60.728 0.278 7.88 2235 8.09
5/7/2021 3:45:00 AM 15.91 60.638 0.277 7.88 2230 8.17
5/7/2021 4:00:00 AM 15.86 60.548 0.277 7.88 2256 8.14
5/7/2021 4:15:00 AM 15.8 60.44 0.277 7.88 2260 8.16
5/7/2021 4:30:00 AM 15.75 60.35 0.277 7.88 2238 8.15
5/7/2021 4:45:00 AM 15.7 60.26 0.277 7.88 2240 8.16
5/7/2021 5:00:00 AM 15.64 60.152 0.277 7.88 2210 8.2
5/7/2021 5:15:00 AM 15.59 60.062 0.277 7.88 2207 8.19
5/7/2021 5:30:00 AM 15.53 59.954 0.277 7.88 2237 8.22
5/7/2021 5:45:00 AM 15.48 59.864 0.277 7.88 2228 8.2
5/7/2021 6:00:00 AM 15.43 59.774 0.276 7.88 2228 8.2
5/7/2021 6:15:00 AM 15.38 59.684 0.276 7.88 2239 8.21
5/7/2021 6:30:00 AM 15.34 59.612 0.276 7.88 2241 8.23
5/7/2021 6:45:00 AM 15.31 59.558 0.276 7.88 2230 8.23
5/7/2021 7:00:00 AM 15.28 59.504 0.276 7.88 2243 8.17
5/7/2021 7:15:00 AM 15.26 59.468 0.276 7.89 2231 8.24
5/7/2021 7:30:00 AM 15.23 59.414 0.276 7.89 2225 8.31
5/7/2021 7:45:00 AM 15.21 59.378 0.276 7.89 2093 8.29
5/7/2021 8:00:00 AM 15.2 59.36 0.276 7.9 2226 8.36
5/7/2021 8:15:00 AM 15.17 59.306 0.276 7.9 2228 8.39
5/7/2021 8:30:00 AM 15.16 59.288 0.276 7.91 2228 8.46
5/7/2021 8:45:00 AM 15.17 59.306 0.276 7.92 2228 8.53
5/7/2021 9:00:00 AM 15.18 59.324 0.276 7.92 2245 8.53
5/7/2021 9:15:00 AM 15.19 59.342 0.277 7.93 2261 8.47
5/7/2021 9:30:00 AM 15.19 59.342 0.277 7.94 2258 8.65
5/7/2021 9:45:00 AM 15.16 59.288 0.277 7.95 2258 8.7
5/7/2021 10:00:00 AM 15.14 59.252 0.277 7.96 2261 8.7
5/7/2021 10:15:00 AM 15.16 59.288 0.278 7.97 2248 8.83
5/7/2021 10:30:00 AM 15.22 59.396 0.278 7.97 2213 8.85
5/7/2021 10:45:00 AM 15.26 59.468 0.279 7.98 2210 8.82
5/7/2021 11:00:00 AM 15.31 59.558 0.279 7.99 2219 8.94
5/7/2021 11:15:00 AM 15.35 59.63 0.279 8 2208 9.01
5/7/2021 11:30:00 AM 15.38 59.684 0.28 8.01 2215 9.06
5/7/2021 11:45:00 AM 15.39 59.702 0.28 8.02 2211 9.13
5/7/2021 12:00:00 PM 15.37 59.666 0.281 8.02 2247 9.05
5/7/2021 12:15:00 PM 15.34 59.612 0.281 8.02 2238 9.08
5/7/2021 12:30:00 PM 15.31 59.558 0.282 8.03 2248 9.06
5/7/2021 12:45:00 PM 15.28 59.504 0.282 8.02 2243 9.04
5/7/2021 1:00:00 PM 15.29 59.522 0.283 8.02 2241 9
5/7/2021 1:15:00 PM 15.27 59.486 0.283 8.02 2921 8.93
5/7/2021 1:30:00 PM 15.25 59.45 0.284 8.01 2174 8.93
5/7/2021 1:45:00 PM 15.25 59.45 0.284 8.01 2063 8.92
5/7/2021 2:00:00 PM 15.25 59.45 0.285 8.02 2067 8.92
5/7/2021 2:15:00 PM 15.25 59.45 0.285 8.02 2379 8.97
5/7/2021 2:30:00 PM 15.25 59.45 0.286 8.02 2160 8.94
5/7/2021 2:45:00 PM 15.24 59.432 0.287 8.02 1932 8.98
5/7/2021 3:00:00 PM 15.25 59.45 0.287 8.03 1969 8.96
5/7/2021 3:15:00 PM 15.26 59.468 0.288 8.03 2014 8.98
5/7/2021 3:30:00 PM 15.29 59.522 0.289 8.04 2066 9.05
5/7/2021 3:45:00 PM 15.31 59.558 0.289 8.05 2072 9.08
5/7/2021 4:00:00 PM 15.32 59.576 0.29 8.05 1930 9.12
5/7/2021 4:15:00 PM 15.33 59.594 0.29 8.06 2068 9.11
5/7/2021 4:30:00 PM 15.31 59.558 0.291 8.06 2085 9.11
5/7/2021 4:45:00 PM 15.27 59.486 0.292 8.06 2117 9.07
5/7/2021 5:00:00 PM 15.24 59.432 0.292 8.06 2127 9
5/7/2021 5:15:00 PM 15.2 59.36 0.292 8.06 2065 8.95
5/7/2021 5:30:00 PM 15.16 59.288 0.293 8.05 2059 8.85
5/7/2021 5:45:00 PM 15.13 59.234 0.293 8.04 2080 8.8
5/7/2021 6:00:00 PM 15.11 59.198 0.294 8.04 2065 8.7
5/7/2021 6:15:00 PM 15.08 59.144 0.295 8.03 2125 8.74
5/7/2021 6:30:00 PM 15.06 59.108 0.295 8.03 2098 8.73
5/7/2021 6:45:00 PM 15.02 59.036 0.295 8.03 2165 8.71
5/7/2021 7:00:00 PM 15.01 59.018 0.296 8.03 1714 8.76
5/7/2021 7:15:00 PM 14.99 58.982 0.296 8.03 1714 8.77
5/7/2021 7:30:00 PM 14.97 58.946 0.297 8.04 1734 8.79
5/7/2021 7:45:00 PM 14.95 58.91 0.298 8.04 1747 8.8
5/7/2021 8:00:00 PM 14.93 58.874 0.298 8.04 1760 8.76
5/7/2021 8:15:00 PM 14.9 58.82 0.299 8.04 1770 8.77
5/7/2021 8:30:00 PM 14.87 58.766 0.3 8.05 1786 8.8
5/7/2021 8:45:00 PM 14.84 58.712 0.301 8.05 1797 8.75
5/7/2021 9:00:00 PM 14.81 58.658 0.301 8.05 1834 8.75
5/7/2021 9:15:00 PM 14.78 58.604 0.302 8.05 1839 8.76
5/7/2021 9:30:00 PM 14.74 58.532 0.303 8.05 1853 8.74
5/7/2021 9:45:00 PM 14.71 58.478 0.303 8.05 1875 8.71
5/7/2021 10:00:00 PM 14.67 58.406 0.304 8.05 1877 8.75
5/7/2021 10:15:00 PM 14.63 58.334 0.305 8.06 1884 8.79
5/7/2021 10:30:00 PM 14.59 58.262 0.305 8.06 1915 8.82
5/7/2021 10:45:00 PM 14.55 58.19 0.306 8.06 1923 8.82
5/7/2021 11:00:00 PM 14.51 58.118 0.306 8.06 1924 8.83
5/7/2021 11:15:00 PM 14.46 58.028 0.307 8.06 1931 8.83
5/7/2021 11:30:00 PM 14.4 57.92 0.307 8.06 1953 8.81
5/7/2021 11:45:00 PM 14.34 57.812 0.308 8.06 1947 8.46
5/8/2021 12:00:00 AM 14.3 57.74 0.309 8.06 1954 8.08
5/8/2021 12:15:00 AM 14.25 57.65 0.309 8.06 1947 8.67
5/8/2021 12:30:00 AM 14.19 57.542 0.31 8.06 1969 8.82
5/8/2021 12:45:00 AM 14.13 57.434 0.311 8.05 1979 8.82
5/8/2021 1:00:00 AM 14.07 57.326 0.311 8.06 2062 8.84
5/8/2021 1:15:00 AM 14.02 57.236 0.312 8.05 2055 8.84
5/8/2021 1:30:00 AM 13.96 57.128 0.312 8.05 2074 8.81
5/8/2021 1:45:00 AM 13.89 57.002 0.313 8.05 2069 8.8
5/8/2021 2:00:00 AM 13.83 56.894 0.313 8.04 2074 8.8
5/8/2021 2:15:00 AM 13.78 56.804 0.314 8.04 2050 8.82
5/8/2021 2:30:00 AM 13.72 56.696 0.315 8.04 2071 8.83
5/8/2021 2:45:00 AM 13.66 56.588 0.315 8.04 2083 8.83
5/8/2021 3:00:00 AM 13.6 56.48 0.315 8.03 2088 8.82
5/8/2021 3:15:00 AM 13.54 56.372 0.316 8.03 2092 8.79
5/8/2021 3:30:00 AM 13.48 56.264 0.316 8.02 2091 8.5
5/8/2021 3:45:00 AM 13.42 56.156 0.317 8.03 2091 8.81
5/8/2021 4:00:00 AM 13.37 56.066 0.317 8.02 2098 8.79
5/8/2021 4:15:00 AM 13.31 55.958 0.318 8.02 2093 8.84
5/8/2021 4:30:00 AM 13.25 55.85 0.319 8.01 2093 8.79
5/8/2021 4:45:00 AM 13.21 55.778 0.319 8.01 2091 8.82
5/8/2021 5:00:00 AM 13.15 55.67 0.32 8.01 2110 8.83
5/8/2021 5:15:00 AM 13.11 55.598 0.32 8.01 2119 8.82
5/8/2021 5:30:00 AM 13.06 55.508 0.32 8 2119 8.78
5/8/2021 5:45:00 AM 13 55.4 0.321 8 2105 8.82
5/8/2021 6:00:00 AM 12.97 55.346 0.321 8 2104 8.83
5/8/2021 6:15:00 AM 12.92 55.256 0.322 8 2098 8.33
5/8/2021 6:30:00 AM 12.89 55.202 0.322 8 2078 8.6
5/8/2021 6:45:00 AM 12.86 55.148 0.322 8 2049 8.85
5/8/2021 7:00:00 AM 12.83 55.094 0.323 8 2039 8.89
5/8/2021 7:15:00 AM 12.79 55.022 0.323 8 2082 8.89
5/8/2021 7:30:00 AM 12.76 54.968 0.323 8 2208 8.89
5/8/2021 7:45:00 AM 12.73 54.914 0.324 8 2181 8.96
5/8/2021 8:00:00 AM 12.7 54.86 0.324 8 2186 8.98
5/8/2021 8:15:00 AM 12.67 54.806 0.324 8 2194 9.03
5/8/2021 8:30:00 AM 12.66 54.788 0.325 8.01 2132 9.06
5/8/2021 8:45:00 AM 12.65 54.77 0.325 8.01 2129 9.09
5/8/2021 9:00:00 AM 12.64 54.752 0.326 8.02 2147 9.18
5/8/2021 9:15:00 AM 12.64 54.752 0.326 8.03 2166 9.25
5/8/2021 9:30:00 AM 12.64 54.752 0.326 8.04 2185 9.35
5/8/2021 9:45:00 AM 12.63 54.734 0.326 8.05 2189 9.42
5/8/2021 10:00:00 AM 12.65 54.77 0.327 8.05 2191 9.46
5/8/2021 10:15:00 AM 12.65 54.77 0.327 8.06 2188 9.47
5/8/2021 10:30:00 AM 12.68 54.824 0.328 8.07 2185 9.55
5/8/2021 10:45:00 AM 12.68 54.824 0.328 8.08 2207 9.56
5/8/2021 11:00:00 AM 12.69 54.842 0.328 8.09 2185 9.64
5/8/2021 11:15:00 AM 12.73 54.914 0.328 8.09 2177 9.68
5/8/2021 11:30:00 AM 12.75 54.95 0.329 8.1 2164 9.6
5/8/2021 11:45:00 AM 12.8 55.04 0.329 8.1 2177 9.7
5/8/2021 12:00:00 PM 12.78 55.004 0.329 8.1 2191 9.7
5/8/2021 12:15:00 PM 12.79 55.022 0.329 8.11 2199 9.77
5/8/2021 12:30:00 PM 12.79 55.022 0.33 8.11 2198 9.74
5/8/2021 12:45:00 PM 12.77 54.986 0.33 8.11 2198 9.71
5/8/2021 1:00:00 PM 12.8 55.04 0.33 8.11 2177 9.67
5/8/2021 1:15:00 PM 12.79 55.022 0.33 8.11 2194 9.73
5/8/2021 1:30:00 PM 12.95 55.31 0.331 8.11 2195 9.74
5/8/2021 1:45:00 PM 13.12 55.616 0.331 8.12 2202 9.83
5/8/2021 2:00:00 PM 13.22 55.796 0.331 8.13 2214 9.73
5/8/2021 2:15:00 PM 13.37 56.066 0.331 8.14 2213 9.93
5/8/2021 2:30:00 PM 13.6 56.48 0.331 8.15 2158 10.01
5/8/2021 2:45:00 PM 13.62 56.516 0.332 8.15 2138 10.03
5/8/2021 3:00:00 PM 13.59 56.462 0.332 8.16 2204 10
5/8/2021 3:15:00 PM 13.58 56.444 0.332 8.17 2188 10
5/8/2021 3:30:00 PM 13.53 56.354 0.332 8.17 2163 10.03
5/8/2021 3:45:00 PM 13.5 56.3 0.333 8.18 2162 10.02
5/8/2021 4:00:00 PM 13.59 56.462 0.333 8.19 2162 9.98
5/8/2021 4:15:00 PM 13.69 56.642 0.333 8.2 2151 10.02
5/8/2021 4:30:00 PM 13.77 56.786 0.333 8.21 2145 9.99
5/8/2021 4:45:00 PM 13.78 56.804 0.333 8.21 2135 9.96
5/8/2021 5:00:00 PM 13.81 56.858 0.333 8.21 2154 10.02
5/8/2021 5:15:00 PM 13.78 56.804 0.333 8.21 2163 10
5/8/2021 5:30:00 PM 13.75 56.75 0.333 8.21 2142 9.87
5/8/2021 5:45:00 PM 13.84 56.912 0.333 8.22 2124 9.99
5/8/2021 6:00:00 PM 13.83 56.894 0.333 8.22 2128 9.97
5/8/2021 6:15:00 PM 13.79 56.822 0.333 8.23 2144 9.93
5/8/2021 6:30:00 PM 13.75 56.75 0.333 8.22 2184 9.93
5/8/2021 6:45:00 PM 13.69 56.642 0.333 8.22 2175 9.91
5/8/2021 7:00:00 PM 13.62 56.516 0.333 8.21 2156 9.8
5/8/2021 7:15:00 PM 13.57 56.426 0.333 8.21 2195 9.75
5/8/2021 7:30:00 PM 13.52 56.336 0.334 8.2 2222 9.7
5/8/2021 7:45:00 PM 13.49 56.282 0.334 8.19 2227 9.56
5/8/2021 8:00:00 PM 13.45 56.21 0.335 8.18 2234 9.53
5/8/2021 8:15:00 PM 13.43 56.174 0.335 8.18 2232 9.49
5/8/2021 8:30:00 PM 13.41 56.138 0.335 8.18 2235 9.44
5/8/2021 8:45:00 PM 13.39 56.102 0.334 8.17 2233 9.41
5/8/2021 9:00:00 PM 13.37 56.066 0.334 8.17 2224 9.39
5/8/2021 9:15:00 PM 13.35 56.03 0.335 8.17 2232 9.39
5/8/2021 9:30:00 PM 13.34 56.012 0.335 8.16 2243 9.33
5/8/2021 9:45:00 PM 13.33 55.994 0.335 8.16 2237 9.34
5/8/2021 10:00:00 PM 13.32 55.976 0.335 8.16 2247 9.32
5/8/2021 10:15:00 PM 13.32 55.976 0.335 8.16 2112 9.34
5/8/2021 10:30:00 PM 13.31 55.958 0.335 8.16 2073 9.33
5/8/2021 10:45:00 PM 13.3 55.94 0.335 8.16 2164 9.31
5/8/2021 11:00:00 PM 13.31 55.958 0.334 8.16 2244 9.33
5/8/2021 11:15:00 PM 13.28 55.904 0.334 8.17 2181 9.35
5/8/2021 11:30:00 PM 13.28 55.904 0.334 8.17 2157 9.36
5/8/2021 11:45:00 PM 13.25 55.85 0.333 8.17 2222 9.36
5/9/2021 12:00:00 AM 13.2 55.76 0.333 8.17 2232 9.37
5/9/2021 12:15:00 AM 13.17 55.706 0.333 8.18 2267 9.39
5/9/2021 12:30:00 AM 13.12 55.616 0.333 8.18 2243 9.28
5/9/2021 12:45:00 AM 13.08 55.544 0.333 8.18 2251 9.31
5/9/2021 1:00:00 AM 13.04 55.472 0.334 8.17 2261 9.37
5/9/2021 1:15:00 AM 13.01 55.418 0.334 8.17 2254 9.3
5/9/2021 1:30:00 AM 12.98 55.364 0.333 8.17 2252 9.33
5/9/2021 1:45:00 AM 12.94 55.292 0.333 8.17 2262 9.33
5/9/2021 2:00:00 AM 12.9 55.22 0.333 8.17 2278 9.28
5/9/2021 2:15:00 AM 12.86 55.148 0.333 8.16 2216 9.37
5/9/2021 2:30:00 AM 12.83 55.094 0.333 8.16 2215 9.38
5/9/2021 2:45:00 AM 12.79 55.022 0.333 8.15 2200 9.33
5/9/2021 3:00:00 AM 12.75 54.95 0.333 8.14 2188 9.33
5/9/2021 3:15:00 AM 12.72 54.896 0.333 8.14 2235 9.29
5/9/2021 3:30:00 AM 12.69 54.842 0.333 8.14 2235 9.26
5/9/2021 3:45:00 AM 12.65 54.77 0.333 8.13 2188 9.29
5/9/2021 4:00:00 AM 12.62 54.716 0.333 8.12 2226 9.23
5/9/2021 4:15:00 AM 12.57 54.626 0.333 8.12 2236 9.27
5/9/2021 4:30:00 AM 12.54 54.572 0.333 8.11 2245 9.22
5/9/2021 4:45:00 AM 12.48 54.464 0.333 8.1 2249 9.18
5/9/2021 5:00:00 AM 12.44 54.392 0.333 8.1 2264 9.21
5/9/2021 5:15:00 AM 12.39 54.302 0.333 8.1 2249 9.18
5/9/2021 5:30:00 AM 12.34 54.212 0.333 8.09 2223 9.18
5/9/2021 5:45:00 AM 12.29 54.122 0.333 8.08 2246 9.16
5/9/2021 6:00:00 AM 12.24 54.032 0.333 8.08 2549 9.14
5/9/2021 6:15:00 AM 12.2 53.96 0.334 8.08 2540 9.19
5/9/2021 6:30:00 AM 12.15 53.87 0.334 8.07 2510 9.23
5/9/2021 6:45:00 AM 12.12 53.816 0.334 8.07 2501 9.23
5/9/2021 7:00:00 AM 12.08 53.744 0.334 8.06 2516 9.26
5/9/2021 7:15:00 AM 12.05 53.69 0.335 8.06 2536 9.26
5/9/2021 7:30:00 AM 12.03 53.654 0.335 8.06 2527 9.27
5/9/2021 7:45:00 AM 12.01 53.618 0.335 8.06 2530 9.32
5/9/2021 8:00:00 AM 12.01 53.618 0.336 8.06 2533 9.37
5/9/2021 8:15:00 AM 12 53.6 0.336 8.07 2516 9.39
5/9/2021 8:30:00 AM 11.99 53.582 0.337 8.07 2522 9.44
5/9/2021 8:45:00 AM 11.98 53.564 0.338 8.07 2512 9.51
5/9/2021 9:00:00 AM 11.98 53.564 0.338 8.08 2506 9.59
5/9/2021 9:15:00 AM 11.97 53.546 0.339 8.09 2497 9.61
5/9/2021 9:30:00 AM 11.95 53.51 0.34 8.09 2499 9.62
5/9/2021 9:45:00 AM 11.95 53.51 0.341 8.09 2487 9.68
5/9/2021 10:00:00 AM 11.94 53.492 0.342 8.1 2499 9.66
5/9/2021 10:15:00 AM 11.96 53.528 0.343 8.1 2492 9.69
5/9/2021 10:30:00 AM 11.97 53.546 0.343 8.1 2488 9.72
5/9/2021 10:45:00 AM 11.95 53.51 0.344 8.1 2505 9.76
5/9/2021 11:00:00 AM 11.95 53.51 0.345 8.1 2498 9.76
5/9/2021 11:15:00 AM 11.94 53.492 0.345 8.11 2509 9.81
5/9/2021 11:30:00 AM 11.92 53.456 0.346 8.11 2532 9.7
5/9/2021 11:45:00 AM 11.9 53.42 0.346 8.11 2525 9.8
5/9/2021 12:00:00 PM 11.87 53.366 0.346 8.11 2516 9.74
5/9/2021 12:15:00 PM 11.85 53.33 0.347 8.11 2518 9.73
5/9/2021 12:30:00 PM 11.83 53.294 0.347 8.1 2529 9.68
5/9/2021 12:45:00 PM 11.82 53.276 0.348 8.1 2513 9.68
5/9/2021 1:00:00 PM 11.83 53.294 0.348 8.1 2531 9.67
5/9/2021 1:15:00 PM 11.81 53.258 0.348 8.1 2546 9.69
5/9/2021 1:30:00 PM 11.82 53.276 0.348 8.1 2531 9.67
5/9/2021 1:45:00 PM 11.84 53.312 0.348 8.1 2528 9.74
5/9/2021 2:00:00 PM 11.82 53.276 0.348 8.11 2538 9.77
5/9/2021 2:15:00 PM 11.81 53.258 0.348 8.11 2536 9.76
5/9/2021 2:30:00 PM 11.83 53.294 0.348 8.11 2529 9.79
5/9/2021 2:45:00 PM 11.84 53.312 0.347 8.12 2532 9.81
5/9/2021 3:00:00 PM 11.82 53.276 0.347 8.12 2513 9.8
5/9/2021 3:15:00 PM 11.86 53.348 0.347 8.12 2515 9.82
5/9/2021 3:30:00 PM 11.91 53.438 0.346 8.13 2533 9.93
5/9/2021 3:45:00 PM 11.93 53.474 0.346 8.14 2504 9.94
5/9/2021 4:00:00 PM 11.94 53.492 0.346 8.14 2496 9.97
5/9/2021 4:15:00 PM 11.98 53.564 0.345 8.15 2504 10.03
5/9/2021 4:30:00 PM 12.03 53.654 0.345 8.16 2507 10.12
5/9/2021 4:45:00 PM 12.04 53.672 0.345 8.17 2520 10.14
5/9/2021 5:00:00 PM 12.04 53.672 0.345 8.18 2527 10.13
5/9/2021 5:15:00 PM 12.04 53.672 0.345 8.18 2538 10.15
5/9/2021 5:30:00 PM 12.03 53.654 0.344 8.19 2537 10.15
5/9/2021 5:45:00 PM 12.01 53.618 0.344 8.19 2543 10.08
5/9/2021 6:00:00 PM 12 53.6 0.344 8.18 2542 10.01
5/9/2021 6:15:00 PM 11.99 53.582 0.344 8.18 2534 9.9
5/9/2021 6:30:00 PM 11.99 53.582 0.344 8.18 2544 9.95
5/9/2021 6:45:00 PM 11.99 53.582 0.343 8.17 2576 9.86
5/9/2021 7:00:00 PM 11.98 53.564 0.343 8.17 2552 9.89
5/9/2021 7:15:00 PM 11.97 53.546 0.343 8.17 2548 9.8
5/9/2021 7:30:00 PM 11.96 53.528 0.343 8.17 2555 9.86
5/9/2021 7:45:00 PM 11.94 53.492 0.344 8.17 2563 9.82
5/9/2021 8:00:00 PM 11.92 53.456 0.344 8.16 2555 9.79
5/9/2021 8:15:00 PM 11.89 53.402 0.344 8.16 2564 9.7
5/9/2021 8:30:00 PM 11.86 53.348 0.345 8.15 2564 9.63
5/9/2021 8:45:00 PM 11.84 53.312 0.344 8.14 2532 9.63
5/9/2021 9:00:00 PM 11.82 53.276 0.345 8.14 2551 9.57
5/9/2021 9:15:00 PM 11.8 53.24 0.345 8.13 2555 9.51
5/9/2021 9:30:00 PM 11.79 53.222 0.345 8.12 2553 9.49
5/9/2021 9:45:00 PM 11.77 53.186 0.345 8.12 2556 9.51
5/9/2021 10:00:00 PM 11.77 53.186 0.345 8.12 2526 9.48
5/9/2021 10:15:00 PM 11.76 53.168 0.346 8.12 2571 9.49
5/9/2021 10:30:00 PM 11.76 53.168 0.346 8.12 2572 9.51
5/9/2021 10:45:00 PM 11.74 53.132 0.346 8.12 2560 9.54
5/9/2021 11:00:00 PM 11.74 53.132 0.346 8.13 2566 9.55
5/9/2021 11:15:00 PM 11.73 53.114 0.347 8.13 2571 9.53
5/9/2021 11:30:00 PM 11.73 53.114 0.347 8.13 2575 9.54
5/9/2021 11:45:00 PM 11.72 53.096 0.347 8.13 2556 9.55
5/10/2021 12:00:00 AM 11.71 53.078 0.347 8.13 2541 9.51
5/10/2021 12:15:00 AM 11.71 53.078 0.347 8.14 2560 9.57
5/10/2021 12:30:00 AM 11.7 53.06 0.348 8.14 2537 9.6
5/10/2021 12:45:00 AM 11.69 53.042 0.348 8.14 2543 9.55
5/10/2021 1:00:00 AM 11.68 53.024 0.348 8.14 2536 9.59
5/10/2021 1:15:00 AM 11.67 53.006 0.348 8.14 2534 9.57
5/10/2021 1:30:00 AM 11.66 52.988 0.348 8.14 2524 9.6
5/10/2021 1:45:00 AM 11.65 52.97 0.348 8.14 2523 9.6
5/10/2021 2:00:00 AM 11.64 52.952 0.349 8.14 2541 9.58
5/10/2021 2:15:00 AM 11.63 52.934 0.349 8.14 2529 9.62
5/10/2021 2:30:00 AM 11.61 52.898 0.349 8.14 2532 9.63
5/10/2021 2:45:00 AM 11.59 52.862 0.349 8.14 2526 9.62
5/10/2021 3:00:00 AM 11.57 52.826 0.349 8.14 2541 9.57
5/10/2021 3:15:00 AM 11.55 52.79 0.35 8.14 2534 9.59
5/10/2021 3:30:00 AM 11.53 52.754 0.349 8.14 2541 9.6
5/10/2021 3:45:00 AM 11.5 52.7 0.35 8.14 2534 9.59
5/10/2021 4:00:00 AM 11.48 52.664 0.35 8.13 2541 9.58
5/10/2021 4:15:00 AM 11.46 52.628 0.35 8.13 2545 9.57
5/10/2021 4:30:00 AM 11.44 52.592 0.35 8.12 2534 9.56
5/10/2021 4:45:00 AM 11.42 52.556 0.35 8.12 2550 9.52
5/10/2021 5:00:00 AM 11.4 52.52 0.35 8.12 2540 9.53
5/10/2021 5:15:00 AM 11.36 52.448 0.35 8.11 2528 9.5
5/10/2021 5:30:00 AM 11.34 52.412 0.35 8.11 2519 9.54
5/10/2021 5:45:00 AM 11.3 52.34 0.35 8.11 2530 9.53
5/10/2021 6:00:00 AM 11.26 52.268 0.351 8.11 2525 9.51
5/10/2021 6:15:00 AM 11.22 52.196 0.351 8.1 2528 9.52
5/10/2021 6:30:00 AM 11.18 52.124 0.351 8.1 2512 9.5
5/10/2021 6:45:00 AM 11.16 52.088 0.351 8.1 2520 9.54
5/10/2021 7:00:00 AM 11.14 52.052 0.351 8.1 2535 9.58
5/10/2021 7:15:00 AM 11.11 51.998 0.351 8.1 2537 9.6
5/10/2021 7:30:00 AM 11.11 51.998 0.351 8.1 2541 9.64
5/10/2021 7:45:00 AM 11.11 51.998 0.351 8.1 2545 9.64
5/10/2021 8:00:00 AM 11.09 51.962 0.351 8.1 2530 9.64
5/10/2021 8:15:00 AM 11.09 51.962 0.351 8.11 2527 9.76
5/10/2021 8:30:00 AM 11.12 52.016 0.351 8.11 2528 9.75
5/10/2021 8:45:00 AM 11.14 52.052 0.351 8.12 2532 9.83
5/10/2021 9:00:00 AM 11.17 52.106 0.351 8.12 2519 9.86
5/10/2021 9:15:00 AM 11.17 52.106 0.351 8.12 2543 9.85
5/10/2021 9:30:00 AM 11.18 52.124 0.352 8.13 2519 9.92
5/10/2021 9:45:00 AM 11.26 52.268 0.352 8.14 2476 10.02
5/10/2021 10:00:00 AM 11.3 52.34 0.352 8.15 2501 10.01
5/10/2021 10:15:00 AM 11.33 52.394 0.351 8.15 2506 9.99
5/10/2021 10:30:00 AM 11.38 52.484 0.352 8.16 2522 10.03
5/10/2021 10:45:00 AM 11.51 52.718 0.351 8.16 2534 10.11
5/10/2021 11:00:00 AM 11.61 52.898 0.351 8.18 2546 10.23
5/10/2021 11:15:00 AM 11.73 53.114 0.351 8.18 2536 10.28
5/10/2021 11:30:00 AM 11.8 53.24 0.351 8.19 2539 10.31
5/10/2021 11:45:00 AM 11.83 53.294 0.351 8.19 2517 10.23
5/10/2021 12:00:00 PM 11.85 53.33 0.351 8.19 2538 10.31
5/10/2021 12:15:00 PM 11.88 53.384 0.352 8.2 2540 10.35
5/10/2021 12:30:00 PM 11.93 53.474 0.352 8.2 2540 10.23
5/10/2021 12:45:00 PM 12.05 53.69 0.352 8.21 2542 10.34
5/10/2021 1:00:00 PM 12.17 53.906 0.352 8.21 2551 10.34
5/10/2021 1:15:00 PM 12.35 54.23 0.351 8.21 2510 10.32
5/10/2021 1:30:00 PM 12.61 54.698 0.351 8.22 2523 10.47
5/10/2021 1:45:00 PM 12.87 55.166 0.351 8.22 2522 10.53
5/10/2021 2:00:00 PM 12.92 55.256 0.351 8.23 2510 10.49
5/10/2021 2:15:00 PM 13.1 55.58 0.351 8.23 2508 10.5
5/10/2021 2:30:00 PM 13.27 55.886 0.352 8.23 2515 10.49
5/10/2021 2:45:00 PM 13.49 56.282 0.352 8.24 2505 10.4
5/10/2021 3:00:00 PM 13.47 56.246 0.353 8.24 2511 10.53
5/10/2021 3:15:00 PM 13.44 56.192 0.353 8.24 2419 10.41
5/10/2021 3:30:00 PM 13.5 56.3 0.353 8.25 2463 10.56
5/10/2021 3:45:00 PM 13.46 56.228 0.353 8.26 2498 10.54
5/10/2021 4:00:00 PM 13.5 56.3 0.352 8.26 2485 10.47
5/10/2021 4:15:00 PM 13.59 56.462 0.352 8.27 2490 10.34
5/10/2021 4:30:00 PM 13.6 56.48 0.352 8.28 2464 10.48
5/10/2021 4:45:00 PM 13.67 56.606 0.352 8.28 2436 10.45
5/10/2021 5:00:00 PM 13.77 56.786 0.352 8.3 2443 10.48
5/10/2021 5:15:00 PM 13.8 56.84 0.352 8.3 2420 10.36
5/10/2021 5:30:00 PM 13.82 56.876 0.351 8.3 2425 10.16
5/10/2021 5:45:00 PM 13.87 56.966 0.352 8.3 2397 10.43
5/10/2021 6:00:00 PM 13.88 56.984 0.352 8.31 2402 10.4
5/10/2021 6:15:00 PM 13.89 57.002 0.352 8.31 2413 10.25
5/10/2021 6:30:00 PM 13.84 56.912 0.352 8.31 2404 10.3
5/10/2021 6:45:00 PM 13.77 56.786 0.352 8.3 2417 10.17
5/10/2021 7:00:00 PM 13.71 56.678 0.352 8.29 2416 10.08
5/10/2021 7:15:00 PM 13.64 56.552 0.351 8.29 2428 10.03
5/10/2021 7:30:00 PM 13.6 56.48 0.351 8.28 2418 9.91
5/10/2021 7:45:00 PM 13.56 56.408 0.352 8.28 2437 9.83
5/10/2021 8:00:00 PM 13.54 56.372 0.351 8.27 2467 9.59
5/10/2021 8:15:00 PM 13.55 56.39 0.351 8.26 2447 9.63
5/10/2021 8:30:00 PM 13.56 56.408 0.351 8.25 2430 9.56
5/10/2021 8:45:00 PM 13.58 56.444 0.351 8.24 2431 9.48
5/10/2021 9:00:00 PM 13.61 56.498 0.351 8.24 2431 9.32
5/10/2021 9:15:00 PM 13.64 56.552 0.351 8.24 2424 9.4
5/10/2021 9:30:00 PM 13.68 56.624 0.35 8.23 2424 9.43
5/10/2021 9:45:00 PM 13.72 56.696 0.35 8.24 2411 9.41
5/10/2021 10:00:00 PM 13.75 56.75 0.349 8.24 2409 9.39
5/10/2021 10:15:00 PM 13.77 56.786 0.349 8.24 2420 9.31
5/10/2021 10:30:00 PM 13.78 56.804 0.349 8.23 2421 9.31
5/10/2021 10:45:00 PM 13.79 56.822 0.349 8.23 2420 9.31
5/10/2021 11:00:00 PM 13.81 56.858 0.349 8.24 2420 9.37
5/10/2021 11:15:00 PM 13.82 56.876 0.349 8.25 2416 9.36
5/10/2021 11:30:00 PM 13.82 56.876 0.349 8.24 2408 9.34
5/10/2021 11:45:00 PM 13.82 56.876 0.349 8.25 2412 9.38
5/11/2021 12:00:00 AM 13.8 56.84 0.348 8.25 2425 9.37
5/11/2021 12:15:00 AM 13.8 56.84 0.348 8.25 2399 9.38
5/11/2021 12:30:00 AM 13.78 56.804 0.348 8.25 2414 9.37
5/11/2021 12:45:00 AM 13.75 56.75 0.347 8.24 2414 9.4
5/11/2021 1:00:00 AM 13.72 56.696 0.347 8.24 2430 9.39
5/11/2021 1:15:00 AM 13.68 56.624 0.347 8.24 2425 9.39
5/11/2021 1:30:00 AM 13.65 56.57 0.348 8.24 2426 9.31
5/11/2021 1:45:00 AM 13.61 56.498 0.348 8.24 2422 9.35
5/11/2021 2:00:00 AM 13.57 56.426 0.348 8.23 2434 9.34
5/11/2021 2:15:00 AM 13.53 56.354 0.348 8.23 2418 9.37
5/11/2021 2:30:00 AM 13.49 56.282 0.348 8.22 2428 9.33
5/11/2021 2:45:00 AM 13.44 56.192 0.349 8.22 2422 9.34
5/11/2021 3:00:00 AM 13.4 56.12 0.349 8.21 2423 9.31
5/11/2021 3:15:00 AM 13.36 56.048 0.349 8.21 2413 9.35
5/11/2021 3:30:00 AM 13.32 55.976 0.349 8.2 2441 9.26
5/11/2021 3:45:00 AM 13.28 55.904 0.349 8.2 2460 9.3
5/11/2021 4:00:00 AM 13.24 55.832 0.349 8.19 2454 9.26
5/11/2021 4:15:00 AM 13.21 55.778 0.349 8.18 2448 9.26
5/11/2021 4:30:00 AM 13.17 55.706 0.348 8.17 2464 9.19
5/11/2021 4:45:00 AM 13.13 55.634 0.348 8.16 2456 9.21
5/11/2021 5:00:00 AM 13.1 55.58 0.349 8.16 2464 9.19
5/11/2021 5:15:00 AM 13.05 55.49 0.348 8.15 2475 9.17
5/11/2021 5:30:00 AM 13.01 55.418 0.348 8.15 2484 9.15
5/11/2021 5:45:00 AM 12.97 55.346 0.348 8.14 2483 9.14
5/11/2021 6:00:00 AM 12.92 55.256 0.348 8.13 2491 9.11
5/11/2021 6:15:00 AM 12.86 55.148 0.348 8.12 2491 9.09
5/11/2021 6:30:00 AM 12.82 55.076 0.349 8.12 2506 9.09
5/11/2021 6:45:00 AM 12.79 55.022 0.349 8.11 2505 9.11
5/11/2021 7:00:00 AM 12.76 54.968 0.349 8.11 2516 9.15
5/11/2021 7:15:00 AM 12.73 54.914 0.349 8.1 2538 9.12
5/11/2021 7:30:00 AM 12.73 54.914 0.349 8.1 2532 9.21
5/11/2021 7:45:00 AM 12.74 54.932 0.349 8.1 2543 9.25
5/11/2021 8:00:00 AM 12.75 54.95 0.349 8.1 2561 9.26
5/11/2021 8:15:00 AM 12.76 54.968 0.349 8.1 2563 9.29
5/11/2021 8:30:00 AM 12.79 55.022 0.35 8.11 2562 9.35
5/11/2021 8:45:00 AM 12.81 55.058 0.349 8.11 2573 9.4
5/11/2021 9:00:00 AM 12.84 55.112 0.349 8.12 2571 9.45
5/11/2021 9:15:00 AM 12.87 55.166 0.35 8.12 2555 9.47
5/11/2021 9:30:00 AM 12.9 55.22 0.35 8.12 2560 9.13
5/11/2021 9:45:00 AM 12.94 55.292 0.35 8.13 2554 9.52
5/11/2021 10:00:00 AM 12.99 55.382 0.35 8.13 2565 9.64
5/11/2021 10:15:00 AM 13 55.4 0.35 8.14 2555 9.63
5/11/2021 10:30:00 AM 13.06 55.508 0.35 8.14 2557 9.74
5/11/2021 10:45:00 AM 13.15 55.67 0.35 8.15 2560 9.84
5/11/2021 11:00:00 AM 13.24 55.832 0.351 8.15 2577 9.92
5/11/2021 11:15:00 AM 13.34 56.012 0.351 8.17 2550 9.94
5/11/2021 11:30:00 AM 13.43 56.174 0.351 8.18 2550 9.87
5/11/2021 11:45:00 AM 13.45 56.21 0.351 8.18 2538 10.01
5/11/2021 12:00:00 PM 13.5 56.3 0.351 8.19 2534 10.1
5/11/2021 12:15:00 PM 13.56 56.408 0.351 8.2 2536 10.13
5/11/2021 12:30:00 PM 13.65 56.57 0.351 8.21 2531 10.1
5/11/2021 12:45:00 PM 13.71 56.678 0.352 8.21 2503 10.15
5/11/2021 1:00:00 PM 13.73 56.714 0.352 8.22 2510 10.2
5/11/2021 1:15:00 PM 13.77 56.786 0.352 8.22 2516 10.26
5/11/2021 1:30:00 PM 13.8 56.84 0.352 8.22 2493 10.23
5/11/2021 1:45:00 PM 13.8 56.84 0.352 8.22 2503 10.15
5/11/2021 2:00:00 PM 13.8 56.84 0.353 8.22 2538 10.17
5/11/2021 2:15:00 PM 13.79 56.822 0.353 8.23 2516 10.16
5/11/2021 2:30:00 PM 13.85 56.93 0.354 8.22 2526 10.12
5/11/2021 2:45:00 PM 14.06 57.308 0.354 8.23 2517 10.07
5/11/2021 3:00:00 PM 14.26 57.668 0.354 8.23 2507 9.94
5/11/2021 3:15:00 PM 14.34 57.812 0.354 8.23 2469 10.11
5/11/2021 3:30:00 PM 14.41 57.938 0.354 8.24 2469 10.22
5/11/2021 3:45:00 PM 14.44 57.992 0.354 8.24 2462 10.26
5/11/2021 4:00:00 PM 14.43 57.974 0.354 8.25 2468 10.26
5/11/2021 4:15:00 PM 14.42 57.956 0.355 8.26 2480 10.21
5/11/2021 4:30:00 PM 14.48 58.064 0.356 8.27 2457 10.21
5/11/2021 4:45:00 PM 14.57 58.226 0.356 8.27 2465 10.06
5/11/2021 5:00:00 PM 14.7 58.46 0.356 8.28 2463 10.17
5/11/2021 5:15:00 PM 14.82 58.676 0.357 8.29 2443 10.25
5/11/2021 5:30:00 PM 14.86 58.748 0.357 8.28 2389 10.14
5/11/2021 5:45:00 PM 14.9 58.82 0.357 8.28 2354 10.21
5/11/2021 6:00:00 PM 14.92 58.856 0.357 8.29 2327 10.17
5/11/2021 6:15:00 PM 14.84 58.712 0.357 8.28 2318 10.01
5/11/2021 6:30:00 PM 14.73 58.514 0.358 8.28 2293 9.99
5/11/2021 6:45:00 PM 14.67 58.406 0.358 8.28 2330 9.92
5/11/2021 7:00:00 PM 14.61 58.298 0.358 8.27 2334 9.86
5/11/2021 7:15:00 PM 14.55 58.19 0.358 8.27 2330 9.67
5/11/2021 7:30:00 PM 14.51 58.118 0.359 8.26 2338 9.56
5/11/2021 7:45:00 PM 14.46 58.028 0.359 8.25 2347 9.45
5/11/2021 8:00:00 PM 14.42 57.956 0.359 8.24 2333 9.41
5/11/2021 8:15:00 PM 14.38 57.884 0.359 8.24 2344 9.36
5/11/2021 8:30:00 PM 14.35 57.83 0.359 8.23 2339 9.28
5/11/2021 8:45:00 PM 14.32 57.776 0.359 8.23 2345 9.22
5/11/2021 9:00:00 PM 14.3 57.74 0.359 8.22 2334 9.09
5/11/2021 9:15:00 PM 14.29 57.722 0.359 8.22 2306 9.14
5/11/2021 9:30:00 PM 14.28 57.704 0.359 8.22 2331 8.9
5/11/2021 9:45:00 PM 14.28 57.704 0.359 8.22 2334 9.02
5/11/2021 10:00:00 PM 14.27 57.686 0.359 8.21 2327 8.99
5/11/2021 10:15:00 PM 14.27 57.686 0.359 8.22 2349 9.04
5/11/2021 10:30:00 PM 14.25 57.65 0.359 8.22 2389 9.06
5/11/2021 10:45:00 PM 14.23 57.614 0.359 8.23 2332 9.06
5/11/2021 11:00:00 PM 14.21 57.578 0.359 8.23 2490 9.08
5/11/2021 11:15:00 PM 14.21 57.578 0.359 8.24 2361 9.11
5/11/2021 11:30:00 PM 14.19 57.542 0.36 8.24 2372 9.13
5/11/2021 11:45:00 PM 14.19 57.542 0.36 8.25 2353 9.14
5/12/2021 12:00:00 AM 14.18 57.524 0.36 8.25 2357 9.11
5/12/2021 12:15:00 AM 14.16 57.488 0.36 8.25 2328 9.09
5/12/2021 12:30:00 AM 14.14 57.452 0.359 8.26 2357 9.1
5/12/2021 12:45:00 AM 14.11 57.398 0.359 8.27 2362 9.14
5/12/2021 1:00:00 AM 14.07 57.326 0.359 8.27 2360 9.12
5/12/2021 1:15:00 AM 14.04 57.272 0.356 8.28 2383 9.06
5/12/2021 1:30:00 AM 14.02 57.236 0.359 8.27 2387 9.06
5/12/2021 1:45:00 AM 13.98 57.164 0.36 8.27 2383 9.13
5/12/2021 2:00:00 AM 13.96 57.128 0.36 8.27 2366 9.16
5/12/2021 2:15:00 AM 13.94 57.092 0.36 8.27 2404 9.17
5/12/2021 2:30:00 AM 13.9 57.02 0.361 8.27 2346 9.18
5/12/2021 2:45:00 AM 13.86 56.948 0.361 8.27 2361 9.15
5/12/2021 3:00:00 AM 13.83 56.894 0.362 8.26 2366 9.15
5/12/2021 3:15:00 AM 13.78 56.804 0.362 8.27 2386 9.15
5/12/2021 3:30:00 AM 13.73 56.714 0.363 8.26 2352 9.07
5/12/2021 3:45:00 AM 13.69 56.642 0.363 8.25 2351 9.15
5/12/2021 4:00:00 AM 13.65 56.57 0.363 8.26 2429 9.13
5/12/2021 4:15:00 AM 13.61 56.498 0.364 8.25 2353 9.12
5/12/2021 4:30:00 AM 13.54 56.372 0.363 8.24 2332 9.1
5/12/2021 4:45:00 AM 13.49 56.282 0.363 8.23 2323 9.19
5/12/2021 5:00:00 AM 13.43 56.174 0.364 8.22 2357 9.11
5/12/2021 5:15:00 AM 13.36 56.048 0.364 8.22 2357 9.1
5/12/2021 5:30:00 AM 13.29 55.922 0.365 8.21 2350 9.11
5/12/2021 5:45:00 AM 13.23 55.814 0.365 8.2 2354 9.07
5/12/2021 6:00:00 AM 13.16 55.688 0.365 8.18 2377 9.03
5/12/2021 6:15:00 AM 13.1 55.58 0.365 8.18 2396 9.02
5/12/2021 6:30:00 AM 13.04 55.472 0.365 8.18 2402 9.1
5/12/2021 6:45:00 AM 12.99 55.382 0.365 8.17 2426 9.02
5/12/2021 7:00:00 AM 12.96 55.328 0.365 8.17 2463 9.09
5/12/2021 7:15:00 AM 12.92 55.256 0.365 8.17 2452 8.95
5/12/2021 7:30:00 AM 12.88 55.184 0.365 8.17 2469 9
5/12/2021 7:45:00 AM 12.85 55.13 0.365 8.16 2479 8.96
5/12/2021 8:00:00 AM 12.84 55.112 0.365 8.16 2479 8.89
5/12/2021 8:15:00 AM 12.82 55.076 0.365 8.16 2475 9.1
5/12/2021 8:30:00 AM 12.8 55.04 0.365 8.17 2470 9.33
5/12/2021 8:45:00 AM 12.78 55.004 0.365 8.17 2489 9.41
5/12/2021 9:00:00 AM 12.78 55.004 0.366 8.17 2510 9.39
5/12/2021 9:15:00 AM 12.79 55.022 0.365 8.17 2500 9.3
5/12/2021 9:30:00 AM 12.8 55.04 0.365 8.16 2499 9.45
5/12/2021 9:45:00 AM 12.82 55.076 0.365 8.18 2508 9.52
5/12/2021 10:00:00 AM 12.85 55.13 0.365 8.18 2496 9.58
5/12/2021 10:15:00 AM 12.89 55.202 0.365 8.18 2506 9.72
5/12/2021 10:30:00 AM 12.93 55.274 0.366 8.18 2503 9.67
5/12/2021 10:45:00 AM 12.99 55.382 0.365 8.19 2500 9.74
5/12/2021 11:00:00 AM 13.05 55.49 0.365 8.2 2375 9.88
5/12/2021 11:15:00 AM 13.14 55.652 0.366 8.2 2486 9.96
5/12/2021 11:30:00 AM 13.26 55.868 0.365 8.19 2477 9.9
5/12/2021 11:45:00 AM 13.38 56.084 0.366 8.2 2489 9.85
5/12/2021 12:00:00 PM 13.51 56.318 0.366 8.21 2448 10.02
5/12/2021 12:15:00 PM 13.63 56.534 0.366 8.22 2462 10.03
5/12/2021 12:30:00 PM 13.74 56.732 0.365 8.23 2446 10.24
5/12/2021 12:45:00 PM 13.81 56.858 0.365 8.23 2460 10.09
5/12/2021 1:00:00 PM 13.93 57.074 0.365 8.24 2457 10.29
5/12/2021 1:15:00 PM 14.14 57.452 0.365 8.25 2428 10.21
5/12/2021 1:30:00 PM 14.28 57.704 0.365 8.24 2390 10.07
5/12/2021 1:45:00 PM 14.23 57.614 0.366 8.25 2396 10.12
5/12/2021 2:00:00 PM 14.34 57.812 0.366 8.25 2374 10.02
5/12/2021 2:15:00 PM 14.42 57.956 0.366 8.25 2393 10.27
5/12/2021 2:30:00 PM 14.37 57.866 0.367 8.25 2400 10.3
5/12/2021 2:45:00 PM 14.35 57.83 0.367 8.26 2399 10.08
5/12/2021 3:00:00 PM 14.37 57.866 0.367 8.25 2363 10.24
5/12/2021 3:15:00 PM 14.57 58.226 0.367 8.25 2390 10.22
5/12/2021 3:30:00 PM 14.68 58.424 0.368 8.26 2391 10.25
5/12/2021 3:45:00 PM 14.6 58.28 0.368 8.26 2385 10.34
5/12/2021 4:00:00 PM 14.86 58.748 0.368 8.28 2381 10.3
5/12/2021 4:15:00 PM 14.92 58.856 0.369 8.29 2368 10.5
5/12/2021 4:30:00 PM 15.04 59.072 0.369 8.3 2367 10.43
5/12/2021 4:45:00 PM 14.9 58.82 0.37 8.28 2314 10.03
5/12/2021 5:00:00 PM 14.88 58.784 0.37 8.29 2345 10.23
5/12/2021 5:15:00 PM 14.94 58.892 0.37 8.29 2390 10.26
5/12/2021 5:30:00 PM 14.75 58.55 0.371 8.28 2285 10.22
5/12/2021 5:45:00 PM 14.75 58.55 0.371 8.28 2362 10.06
5/12/2021 6:00:00 PM 14.77 58.586 0.371 8.29 2362 10.15
5/12/2021 6:15:00 PM 14.75 58.55 0.371 8.3 2327 10.09
5/12/2021 6:30:00 PM 14.68 58.424 0.371 8.29 2289 9.9
5/12/2021 6:45:00 PM 14.58 58.244 0.371 8.28 2267 9.94
5/12/2021 7:00:00 PM 14.52 58.136 0.371 8.28 2261 9.95
5/12/2021 7:15:00 PM 14.49 58.082 0.371 8.28 2277 9.82
5/12/2021 7:30:00 PM 14.47 58.046 0.372 8.27 2257 9.81
5/12/2021 7:45:00 PM 14.44 57.992 0.372 8.26 2214 9.68
5/12/2021 8:00:00 PM 14.41 57.938 0.372 8.25 2292 9.45
5/12/2021 8:15:00 PM 14.42 57.956 0.372 8.24 2243 9.31
5/12/2021 8:30:00 PM 14.43 57.974 0.372 8.23 2233 9.27
5/12/2021 8:45:00 PM 14.42 57.956 0.372 8.23 2247 9.27
5/12/2021 9:00:00 PM 14.44 57.992 0.372 8.22 2232 9.06
5/12/2021 9:15:00 PM 14.46 58.028 0.373 8.22 2232 9.01
5/12/2021 9:30:00 PM 14.47 58.046 0.373 8.22 2249 8.99
5/12/2021 9:45:00 PM 14.49 58.082 0.372 8.22 2228 8.9
5/12/2021 10:00:00 PM 14.5 58.1 0.373 8.22 2212 8.95
5/12/2021 10:15:00 PM 14.53 58.154 0.372 8.21 2210 8.92
5/12/2021 10:30:00 PM 14.56 58.208 0.373 8.22 2193 8.99
5/12/2021 10:45:00 PM 14.56 58.208 0.373 8.23 2203 8.96
5/12/2021 11:00:00 PM 14.58 58.244 0.373 8.24 2208 8.97
5/12/2021 11:15:00 PM 14.59 58.262 0.373 8.25 2197 8.95
5/12/2021 11:30:00 PM 14.59 58.262 0.373 8.24 2233 8.88
5/12/2021 11:45:00 PM 14.6 58.28 0.373 8.24 2230 8.69
5/13/2021 12:00:00 AM 14.61 58.298 0.373 8.24 2224 8.62
5/13/2021 12:15:00 AM 14.61 58.298 0.373 8.25 2222 8.97
5/13/2021 12:30:00 AM 14.6 58.28 0.373 8.26 2227 8.9
5/13/2021 12:45:00 AM 14.59 58.262 0.373 8.27 2236 9.08
5/13/2021 1:00:00 AM 14.59 58.262 0.373 8.28 2249 9.08
5/13/2021 1:15:00 AM 14.6 58.28 0.373 8.28 2268 9.1
5/13/2021 1:30:00 AM 14.6 58.28 0.373 8.28 2279 9
5/13/2021 1:45:00 AM 14.61 58.298 0.373 8.28 2273 9.06
5/13/2021 2:00:00 AM 14.61 58.298 0.373 8.29 2275 9.07
5/13/2021 2:15:00 AM 14.61 58.298 0.373 8.29 2292 9.09
5/13/2021 2:30:00 AM 14.59 58.262 0.373 8.29 2245 9.08
5/13/2021 2:45:00 AM 14.6 58.28 0.373 8.3 2314 9.08
5/13/2021 3:00:00 AM 14.58 58.244 0.373 8.31 2251 9.1
5/13/2021 3:15:00 AM 14.56 58.208 0.374 8.31 2246 9.11
5/13/2021 3:30:00 AM 14.56 58.208 0.374 8.3 2240 8.87
5/13/2021 3:45:00 AM 14.54 58.172 0.374 8.3 2240 8.65
5/13/2021 4:00:00 AM 14.52 58.136 0.375 8.3 2240 8.79
5/13/2021 4:15:00 AM 14.5 58.1 0.375 8.3 2227 8.84
5/13/2021 4:30:00 AM 14.48 58.064 0.375 8.3 2220 8.84
5/13/2021 4:45:00 AM 14.45 58.01 0.376 8.29 2209 8.76
5/13/2021 5:00:00 AM 14.41 57.938 0.376 8.28 2219 8.69
5/13/2021 5:15:00 AM 14.38 57.884 0.376 8.28 2218 8.86
5/13/2021 5:30:00 AM 14.34 57.812 0.377 8.27 2215 8.83
5/13/2021 5:45:00 AM 14.29 57.722 0.377 8.26 2218 8.53
5/13/2021 6:00:00 AM 14.24 57.632 0.376 8.24 2229 8.73
5/13/2021 6:15:00 AM 14.19 57.542 0.376 8.23 2233 8.72
5/13/2021 6:30:00 AM 14.14 57.452 0.376 8.23 2216 8.5
5/13/2021 6:45:00 AM 14.09 57.362 0.377 8.23 2232 8.63
5/13/2021 7:00:00 AM 14.05 57.29 0.376 8.22 2255 8.63
5/13/2021 7:15:00 AM 14.02 57.236 0.376 8.21 2264 8.7
5/13/2021 7:30:00 AM 14 57.2 0.377 8.2 2295 8.79
5/13/2021 7:45:00 AM 13.98 57.164 0.377 8.19 2308 8.8
5/13/2021 8:00:00 AM 13.97 57.146 0.377 8.2 2314 8.94
5/13/2021 8:15:00 AM 13.97 57.146 0.377 8.2 2334 8.9
5/13/2021 8:30:00 AM 13.97 57.146 0.378 8.19 2338 8.97
5/13/2021 8:45:00 AM 13.98 57.164 0.378 8.2 2330 9.01
5/13/2021 9:00:00 AM 13.99 57.182 0.379 8.2 2346 9.2
5/13/2021 9:15:00 AM 13.99 57.182 0.379 8.21 2332 9.3
5/13/2021 9:30:00 AM 14.01 57.218 0.379 8.21 2338 9.25
5/13/2021 9:45:00 AM 14.01 57.218 0.38 8.21 2340 9.12
5/13/2021 10:00:00 AM 14.03 57.254 0.38 8.22 2327 9.4
5/13/2021 10:15:00 AM 14.05 57.29 0.38 8.22 2335 9.39
5/13/2021 10:30:00 AM 14.08 57.344 0.381 8.23 2333 9.37
5/13/2021 10:45:00 AM 14.12 57.416 0.381 8.23 2339 9.44
5/13/2021 11:00:00 AM 14.18 57.524 0.381 8.24 2334 9.15
5/13/2021 11:15:00 AM 14.28 57.704 0.381 8.25 2333 9.34
5/13/2021 11:30:00 AM 14.37 57.866 0.382 8.25 2301 9.42
5/13/2021 11:45:00 AM 14.48 58.064 0.382 8.27 2285 9.55
5/13/2021 12:00:00 PM 14.6 58.28 0.382 8.27 961.9 9.74
5/13/2021 12:15:00 PM 14.69 58.442 0.381 8.28 954.8 9.97
5/13/2021 12:30:00 PM 14.88 58.784 0.381 8.28 935.2 10.04
5/13/2021 12:45:00 PM 15.04 59.072 0.383 8.28 1641 9.94
5/13/2021 1:00:00 PM 15.23 59.414 0.382 8.29 1469 10.13
5/13/2021 1:15:00 PM 15.37 59.666 0.383 8.3 1309 10.3
5/13/2021 1:30:00 PM 15.56 60.008 0.383 8.31 1396 10.22
5/13/2021 1:45:00 PM 15.48 59.864 0.383 8.31 2109 10.19
5/13/2021 2:00:00 PM 15.49 59.882 0.383 8.31 2373 10.09
5/13/2021 2:15:00 PM 15.47 59.846 0.384 8.32 2402 10.29
5/13/2021 2:30:00 PM 15.67 60.206 0.383 8.32 2363 10.42
5/13/2021 2:45:00 PM 15.8 60.44 0.383 8.32 2409 10.34
5/13/2021 3:00:00 PM 15.97 60.746 0.383 8.31 2407 10.34
5/13/2021 3:15:00 PM 15.77 60.386 0.383 8.31 2374 10.41
5/13/2021 3:30:00 PM 15.99 60.782 0.383 8.32 2436 10.05
5/13/2021 3:45:00 PM 16.17 61.106 0.383 8.33 2372 10.2
5/13/2021 4:00:00 PM 16.32 61.376 0.384 8.34 2430 10.17
5/13/2021 4:15:00 PM 16.15 61.07 0.385 8.32 2515 10.1
5/13/2021 4:30:00 PM 16.21 61.178 0.385 8.34 2763 10.3
5/13/2021 4:45:00 PM 16.25 61.25 0.385 8.32 2700 10.09
5/13/2021 5:00:00 PM 16.14 61.052 0.385 8.32 2757 10.29
5/13/2021 5:15:00 PM 16.23 61.214 0.385 8.33 2941 10.18
5/13/2021 5:30:00 PM 16.17 61.106 0.386 8.32 2850 10.07
5/13/2021 5:45:00 PM 16.19 61.142 0.386 8.32 2708 10.19
5/13/2021 6:00:00 PM 16.19 61.142 0.385 8.32 2586 10.06
5/13/2021 6:15:00 PM 16.06 60.908 0.385 8.32 2513 9.92
5/13/2021 6:30:00 PM 15.96 60.728 0.385 8.32 2442 10.11
5/13/2021 6:45:00 PM 15.86 60.548 0.385 8.31 2349 10.09
5/13/2021 7:00:00 PM 15.77 60.386 0.386 8.31 2392 10.01
5/13/2021 7:15:00 PM 15.69 60.242 0.386 8.3 2376 9.35
5/13/2021 7:30:00 PM 15.6 60.08 0.387 8.29 2336 9.44
5/13/2021 7:45:00 PM 15.54 59.972 0.387 8.27 2323 9.38
5/13/2021 8:00:00 PM 15.47 59.846 0.387 8.25 2348 9.12
5/13/2021 8:15:00 PM 15.44 59.792 0.387 8.23 2347 9.11
5/13/2021 8:30:00 PM 15.41 59.738 0.388 8.16 2303 8.98
5/13/2021 8:45:00 PM 15.41 59.738 0.387 8.2 2367 8.89
5/13/2021 9:00:00 PM 15.4 59.72 0.388 8.2 1930 8.77
5/13/2021 9:15:00 PM 15.41 59.738 0.388 8.18 2557 8.78
5/13/2021 9:30:00 PM 15.43 59.774 0.387 8.18 2559 8.7
5/13/2021 9:45:00 PM 15.45 59.81 0.387 8.2 2562 8.61
5/13/2021 10:00:00 PM 15.46 59.828 0.387 8.19 2662 8.65
5/13/2021 10:15:00 PM 15.48 59.864 0.387 8.2 2661 8.72
5/13/2021 10:30:00 PM 15.48 59.864 0.387 8.2 2616 8.72
5/13/2021 10:45:00 PM 15.53 59.954 0.386 8.21 2630 8.71
5/13/2021 11:00:00 PM 15.55 59.99 0.386 8.23 2656 8.72
5/13/2021 11:15:00 PM 15.59 60.062 0.386 8.24 2656 8.74
5/13/2021 11:30:00 PM 15.62 60.116 0.387 8.24 2617 8.65
5/13/2021 11:45:00 PM 15.63 60.134 0.387 8.26 2635 8.76
5/14/2021 12:00:00 AM 15.65 60.17 0.387 8.26 2662 8.59
5/14/2021 12:15:00 AM 15.66 60.188 0.387 8.27 2639 8.66
5/14/2021 12:30:00 AM 15.68 60.224 0.385 8.26 2622 8.72
5/14/2021 12:45:00 AM 15.69 60.242 0.387 8.27 2636 8.48
5/14/2021 1:00:00 AM 15.67 60.206 0.387 8.28 2589 8.64
5/14/2021 1:15:00 AM 15.69 60.242 0.387 8.29 2590 8.72
5/14/2021 1:30:00 AM 15.71 60.278 0.387 8.29 2603 8.79
5/14/2021 1:45:00 AM 15.69 60.242 0.387 8.31 2637 8.74
5/14/2021 2:00:00 AM 15.7 60.26 0.387 8.31 2618 8.62
5/14/2021 2:15:00 AM 15.71 60.278 0.387 8.31 2631 8.55
5/14/2021 2:30:00 AM 15.71 60.278 0.386 8.32 2619 8.55
5/14/2021 2:45:00 AM 15.7 60.26 0.386 8.32 2610 8.67
5/14/2021 3:00:00 AM 15.68 60.224 0.385 8.32 2641 8.72
5/14/2021 3:15:00 AM 15.65 60.17 0.385 8.33 2610 8.66
5/14/2021 3:30:00 AM 15.61 60.098 0.385 8.32 2619 8.51
5/14/2021 3:45:00 AM 15.58 60.044 0.385 8.33 2639 8.59
5/14/2021 4:00:00 AM 15.54 59.972 0.385 8.33 2647 8.49
5/14/2021 4:15:00 AM 15.5 59.9 0.386 8.33 2688 8.69
5/14/2021 4:30:00 AM 15.47 59.846 0.386 8.32 2628 8.53
5/14/2021 4:45:00 AM 15.43 59.774 0.387 8.33 2632 8.7
5/14/2021 5:00:00 AM 15.39 59.702 0.388 8.32 2533 8.65
5/14/2021 5:15:00 AM 15.35 59.63 0.388 8.31 2542 8.41
5/14/2021 5:30:00 AM 15.3 59.54 0.388 8.31 2578 8.68
5/14/2021 5:45:00 AM 15.27 59.486 0.388 8.31 2603 8.66
5/14/2021 6:00:00 AM 15.22 59.396 0.389 8.31 2575 8.72
5/14/2021 6:15:00 AM 15.17 59.306 0.388 8.3 2616 8.75
5/14/2021 6:30:00 AM 15.13 59.234 0.389 8.29 2639 8.63
5/14/2021 6:45:00 AM 15.08 59.144 0.389 8.27 2657 8.48
5/14/2021 7:00:00 AM 15.05 59.09 0.389 8.28 2671 8.65
5/14/2021 7:15:00 AM 15.03 59.054 0.389 8.26 2716 8.61
5/14/2021 7:30:00 AM 15.03 59.054 0.389 8.26 2720 8.67
5/14/2021 7:45:00 AM 15.02 59.036 0.39 8.26 2749 8.66
5/14/2021 8:00:00 AM 15.04 59.072 0.39 8.27 2758 8.84
5/14/2021 8:15:00 AM 15.05 59.09 0.39 8.26 2765 8.81
5/14/2021 8:30:00 AM 15.07 59.126 0.391 8.25 2783 8.85
5/14/2021 8:45:00 AM 15.1 59.18 0.391 8.25 2810 8.92
5/14/2021 9:00:00 AM 15.13 59.234 0.391 8.26 2776 8.96
5/14/2021 9:15:00 AM 15.15 59.27 0.391 8.27 2737 9.1
5/14/2021 9:30:00 AM 15.17 59.306 0.391 8.26 2767 9.06
5/14/2021 9:45:00 AM 15.19 59.342 0.391 8.27 2744 9.13
5/14/2021 10:00:00 AM 15.22 59.396 0.391 8.27 2719 9.15
5/14/2021 10:15:00 AM 15.26 59.468 0.391 8.28 2794 9.23
5/14/2021 10:30:00 AM 15.3 59.54 0.391 8.29 2811 9.44
5/14/2021 10:45:00 AM 15.35 59.63 0.392 8.29 2777 9.35
5/14/2021 11:00:00 AM 15.44 59.792 0.392 8.3 2823 9.41
5/14/2021 11:15:00 AM 15.53 59.954 0.392 8.31 2798 9.43
5/14/2021 11:30:00 AM 15.63 60.134 0.392 8.31 2735 9.43
5/14/2021 11:45:00 AM 15.78 60.404 0.392 8.32 2788 9.35
5/14/2021 12:00:00 PM 15.88 60.584 0.393 8.32 2748 9.52
5/14/2021 12:15:00 PM 16.05 60.89 0.393 8.33 2768 9.9
5/14/2021 12:30:00 PM 16.2 61.16 0.393 8.35 2767 9.99
5/14/2021 12:45:00 PM 16.36 61.448 0.394 8.36 2763 9.76
5/14/2021 1:00:00 PM 16.53 61.754 0.394 8.35 871.2 9.83
5/14/2021 1:15:00 PM 16.72 62.096 0.394 8.36 2726 10.24
5/14/2021 1:30:00 PM 16.9 62.42 0.394 8.37 2720 10.12
5/14/2021 1:45:00 PM 17.08 62.744 0.394 8.38 2697 10.25
5/14/2021 2:00:00 PM 17.24 63.032 0.394 8.38 2759 10.22
5/14/2021 2:15:00 PM 17.39 63.302 0.394 8.36 2732 10.29
5/14/2021 2:30:00 PM 17.56 63.608 0.394 8.38 2704 10.43
5/14/2021 2:45:00 PM 17.66 63.788 0.395 8.37 2724 10.21
5/14/2021 3:00:00 PM 17.79 64.022 0.395 8.37 2758 10.3
5/14/2021 3:15:00 PM 17.86 64.148 0.395 8.38 2829 10.47
5/14/2021 3:30:00 PM 17.9 64.22 0.395 8.38 1422 10.27
5/14/2021 3:45:00 PM 17.77 63.986 0.396 8.37 2783 10.28
5/14/2021 4:00:00 PM 17.88 64.184 0.396 8.41 2814 10.38
5/14/2021 4:15:00 PM 17.93 64.274 0.397 8.43 2859 10.39
5/14/2021 4:30:00 PM 17.98 64.364 0.397 8.42 3054 10.31
5/14/2021 4:45:00 PM 17.99 64.382 0.398 8.41 3080 10.57
5/14/2021 5:00:00 PM 17.82 64.076 0.399 8.39 3016 10.18
5/14/2021 5:15:00 PM 17.83 64.094 0.399 8.41 2988 10.18
5/14/2021 5:30:00 PM 17.82 64.076 0.399 8.38 2878 10.31
5/14/2021 5:45:00 PM 17.75 63.95 0.4 8.39 2829 10.4
5/14/2021 6:00:00 PM 17.62 63.716 0.4 8.38 2735 10.14
5/14/2021 6:15:00 PM 17.44 63.392 0.399 8.36 2696 10.11
5/14/2021 6:30:00 PM 17.25 63.05 0.4 8.36 2671 9.7
5/14/2021 6:45:00 PM 17.09 62.762 0.4 8.35 2674 9.25
5/14/2021 7:00:00 PM 16.94 62.492 0.4 8.32 2663 8.99
5/14/2021 7:15:00 PM 16.81 62.258 0.4 8.31 2667 9.02
5/14/2021 7:30:00 PM 16.77 62.186 0.4 8.3 2678 8.87
5/14/2021 7:45:00 PM 16.66 61.988 0.4 8.28 2649 8.62
5/14/2021 8:00:00 PM 16.63 61.934 0.4 8.26 2651 8.7
5/14/2021 8:15:00 PM 16.59 61.862 0.4 8.26 2702 8.58
5/14/2021 8:30:00 PM 16.56 61.808 0.399 8.24 2678 8.37
5/14/2021 8:45:00 PM 16.55 61.79 0.4 8.24 2678 8.5
5/14/2021 9:00:00 PM 16.53 61.754 0.4 8.24 2678 8.54
5/14/2021 9:15:00 PM 16.53 61.754 0.4 8.23 2702 8.44
5/14/2021 9:30:00 PM 16.54 61.772 0.4 8.22 2668 8.36
5/14/2021 9:45:00 PM 16.55 61.79 0.4 8.21 2721 8.4
5/14/2021 10:00:00 PM 16.58 61.844 0.4 8.22 2715 8.39
5/14/2021 10:15:00 PM 16.61 61.898 0.4 8.21 2719 8.33
5/14/2021 10:30:00 PM 16.65 61.97 0.399 8.23 2688 8.31
5/14/2021 10:45:00 PM 16.67 62.006 0.399 8.22 2712 8.31
5/14/2021 11:00:00 PM 16.7 62.06 0.398 8.23 2716 8.18
5/14/2021 11:15:00 PM 16.73 62.114 0.398 8.24 2738 8.15
5/14/2021 11:30:00 PM 16.78 62.204 0.397 8.26 2697 8.33
5/14/2021 11:45:00 PM 16.79 62.222 0.397 8.26 2730 8.25
5/15/2021 12:00:00 AM 16.83 62.294 0.396 8.26 2710 8.23
5/15/2021 12:15:00 AM 16.87 62.366 0.396 8.28 2716 8.43
5/15/2021 12:30:00 AM 16.89 62.402 0.396 8.29 2686 8.28
5/15/2021 12:45:00 AM 16.96 62.528 0.396 8.3 2649 8.32
5/15/2021 1:00:00 AM 16.96 62.528 0.396 8.3 2670 8.28
5/15/2021 1:15:00 AM 16.98 62.564 0.396 8.3 2694 8.23
5/15/2021 1:30:00 AM 17 62.6 0.397 8.3 2701 8.36
5/15/2021 1:45:00 AM 17.02 62.636 0.397 8.32 2659 8.42
5/15/2021 2:00:00 AM 17.04 62.672 0.397 8.33 2663 8.49
5/15/2021 2:15:00 AM 17.04 62.672 0.397 8.33 2701 8.36
5/15/2021 2:30:00 AM 17.04 62.672 0.396 8.33 2658 8.27
5/15/2021 2:45:00 AM 17.04 62.672 0.396 8.34 2661 8.34
5/15/2021 3:00:00 AM 17.04 62.672 0.396 8.36 2696 8.44
5/15/2021 3:15:00 AM 17.03 62.654 0.395 8.37 2669 8.35
5/15/2021 3:30:00 AM 17.01 62.618 0.395 8.37 2692 8.3
5/15/2021 3:45:00 AM 16.98 62.564 0.396 8.38 2696 8.44
5/15/2021 4:00:00 AM 16.95 62.51 0.396 8.38 2728 8.4
5/15/2021 4:15:00 AM 16.91 62.438 0.397 8.38 2740 8.34
5/15/2021 4:30:00 AM 16.9 62.42 0.397 8.36 2719 8.12
5/15/2021 4:45:00 AM 16.86 62.348 0.398 8.38 2721 8.35
5/15/2021 5:00:00 AM 16.82 62.276 0.399 8.37 2715 8.22
5/15/2021 5:15:00 AM 16.78 62.204 0.399 8.37 2709 8.34
5/15/2021 5:30:00 AM 16.75 62.15 0.399 8.37 2706 8.31
5/15/2021 5:45:00 AM 16.7 62.06 0.399 8.36 2677 8.2
5/15/2021 6:00:00 AM 16.66 61.988 0.4 8.36 2708 8.25
5/15/2021 6:15:00 AM 16.62 61.916 0.4 8.36 2692 8.13
5/15/2021 6:30:00 AM 16.57 61.826 0.4 8.35 2668 8.34
5/15/2021 6:45:00 AM 16.53 61.754 0.4 8.34 2696 8.24
5/15/2021 7:00:00 AM 16.49 61.682 0.4 8.35 2709 8.36
5/15/2021 7:15:00 AM 16.47 61.646 0.4 8.34 2740 8.36
5/15/2021 7:30:00 AM 16.45 61.61 0.399 8.34 2781 8.49
5/15/2021 7:45:00 AM 16.46 61.628 0.399 8.35 2786 8.54
5/15/2021 8:00:00 AM 16.46 61.628 0.4 8.35 2825 8.39
5/15/2021 8:15:00 AM 16.48 61.664 0.4 8.34 2819 8.65
5/15/2021 8:30:00 AM 16.5 61.7 0.4 8.34 2530 8.62
5/15/2021 8:45:00 AM 16.52 61.736 0.4 8.35 2798 8.72
5/15/2021 9:00:00 AM 16.54 61.772 0.4 8.34 2813 8.69
5/15/2021 9:15:00 AM 16.57 61.826 0.401 8.33 2815 8.61
5/15/2021 9:30:00 AM 16.59 61.862 0.401 8.34 2836 8.6
5/15/2021 9:45:00 AM 16.61 61.898 0.401 8.35 2833 8.82
5/15/2021 10:00:00 AM 16.64 61.952 0.401 8.35 2832 8.94
5/15/2021 10:15:00 AM 16.66 61.988 0.402 8.35 2857 9.11
5/15/2021 10:30:00 AM 16.72 62.096 0.402 8.35 2853 8.87
5/15/2021 10:45:00 AM 16.77 62.186 0.402 8.36 2852 8.9
5/15/2021 11:00:00 AM 16.85 62.33 0.402 8.37 2836 9.43
5/15/2021 11:15:00 AM 16.95 62.51 0.402 8.38 760 9.64
5/15/2021 11:30:00 AM 17.08 62.744 0.402 8.38 2825 9.7
5/15/2021 11:45:00 AM 17.21 62.978 0.403 8.38 2817 9.58
5/15/2021 12:00:00 PM 17.35 63.23 0.403 8.4 1283 9.84
5/15/2021 12:15:00 PM 17.5 63.5 0.403 8.41 2832 10.05
5/15/2021 12:30:00 PM 17.67 63.806 0.403 8.41 2818 9.88
5/15/2021 12:45:00 PM 17.89 64.202 0.403 8.4 1520 9.86
5/15/2021 1:00:00 PM 18.09 64.562 0.404 8.43 2804 10.17
5/15/2021 1:15:00 PM 18.1 64.58 0.404 8.42 2817 10.38
5/15/2021 1:30:00 PM 17.98 64.364 0.404 8.41 2828 10.34
5/15/2021 1:45:00 PM 17.94 64.292 0.404 8.43 2835 10.18
5/15/2021 2:00:00 PM 17.83 64.094 0.405 8.41 2850 10.07
5/15/2021 2:15:00 PM 17.76 63.968 0.405 8.4 2864 10
5/15/2021 2:30:00 PM 17.67 63.806 0.405 8.37 2841 9.8
5/15/2021 2:45:00 PM 17.67 63.806 0.406 8.35 2871 9.68
5/15/2021 3:00:00 PM 17.74 63.932 0.406 8.35 2880 9.71
5/15/2021 3:15:00 PM 17.92 64.256 0.406 8.36 2879 9.72
5/15/2021 3:30:00 PM 18.13 64.634 0.406 8.37 2867 9.94
5/15/2021 3:45:00 PM 18.29 64.922 0.405 8.39 2845 10.13
5/15/2021 4:00:00 PM 18.47 65.246 0.405 8.42 2774 10.36
5/15/2021 4:15:00 PM 18.55 65.39 0.405 8.43 2808 10.51
5/15/2021 4:30:00 PM 18.58 65.444 0.405 8.44 2864 10.39
5/15/2021 4:45:00 PM 18.58 65.444 0.405 8.44 2922 10.34
5/15/2021 5:00:00 PM 18.63 65.534 0.405 8.46 2984 10.46
5/15/2021 5:15:00 PM 18.53 65.354 0.406 8.45 3001 10.56
5/15/2021 5:30:00 PM 18.51 65.318 0.407 8.42 3014 10.4
5/15/2021 5:45:00 PM 18.41 65.138 0.407 8.4 2889 10.28
5/15/2021 6:00:00 PM 18.29 64.922 0.407 8.39 2804 10.11
5/15/2021 6:15:00 PM 18.12 64.616 0.407 8.38 2911 10.04
5/15/2021 6:30:00 PM 17.96 64.328 0.407 8.36 2904 9.81
5/15/2021 6:45:00 PM 17.84 64.112 0.407 8.34 2906 9.59
5/15/2021 7:00:00 PM 17.71 63.878 0.407 8.33 2910 9.37
5/15/2021 7:15:00 PM 17.6 63.68 0.408 8.3 3037 9.19
5/15/2021 7:30:00 PM 17.52 63.536 0.408 8.27 3432 9.01
5/15/2021 7:45:00 PM 17.42 63.356 0.408 8.25 3407 8.87
5/15/2021 8:00:00 PM 17.34 63.212 0.408 8.23 3387 8.73
5/15/2021 8:15:00 PM 17.27 63.086 0.408 8.21 3348 8.51
5/15/2021 8:30:00 PM 17.23 63.014 0.409 8.19 3375 8.39
5/15/2021 8:45:00 PM 17.19 62.942 0.41 8.18 3383 8.27
5/15/2021 9:00:00 PM 17.16 62.888 0.41 8.16 3394 8.12
5/15/2021 9:15:00 PM 17.15 62.87 0.41 8.15 3363 8.13
5/15/2021 9:30:00 PM 17.16 62.888 0.41 8.16 3361 8.04
5/15/2021 9:45:00 PM 17.15 62.87 0.41 8.15 3331 8.04
5/15/2021 10:00:00 PM 17.17 62.906 0.41 8.15 3350 8.01
5/15/2021 10:15:00 PM 17.19 62.942 0.409 8.15 3359 8.04
5/15/2021 10:30:00 PM 17.2 62.96 0.409 8.16 3142 7.98
5/15/2021 10:45:00 PM 17.22 62.996 0.408 8.16 2712 7.95
5/15/2021 11:00:00 PM 17.27 63.086 0.407 8.17 2695 8.04
5/15/2021 11:15:00 PM 17.27 63.086 0.407 8.18 2769 8.04
5/15/2021 11:30:00 PM 17.31 63.158 0.406 8.2 2744 8.09
5/15/2021 11:45:00 PM 17.34 63.212 0.406 8.2 2723 8.09
5/16/2021 12:00:00 AM 17.36 63.248 0.406 8.21 2710 8.1
5/16/2021 12:15:00 AM 17.38 63.284 0.406 8.22 2738 8.05
5/16/2021 12:30:00 AM 17.4 63.32 0.406 8.22 2668 8.03
5/16/2021 12:45:00 AM 17.42 63.356 0.405 8.23 2699 8.15
5/16/2021 1:00:00 AM 17.44 63.392 0.405 8.25 2720 8.19
5/16/2021 1:15:00 AM 17.45 63.41 0.404 8.25 2696 8.11
5/16/2021 1:30:00 AM 17.44 63.392 0.404 8.26 2692 8.13
5/16/2021 1:45:00 AM 17.43 63.374 0.403 8.28 2702 8.19
5/16/2021 2:00:00 AM 17.41 63.338 0.403 8.28 2738 8.15
5/16/2021 2:15:00 AM 17.41 63.338 0.403 8.3 2706 8.24
5/16/2021 2:30:00 AM 17.4 63.32 0.403 8.29 2690 8.22
5/16/2021 2:45:00 AM 17.4 63.32 0.402 8.31 2705 8.25
5/16/2021 3:00:00 AM 17.39 63.302 0.403 8.32 2695 8.27
5/16/2021 3:15:00 AM 17.38 63.284 0.402 8.32 2733 8.26
5/16/2021 3:30:00 AM 17.37 63.266 0.403 8.33 2718 8.28
5/16/2021 3:45:00 AM 17.34 63.212 0.402 8.34 2724 8.14
5/16/2021 4:00:00 AM 17.33 63.194 0.402 8.34 2741 8.29
5/16/2021 4:15:00 AM 17.32 63.176 0.402 8.36 2756 8.21
5/16/2021 4:30:00 AM 17.29 63.122 0.402 8.36 2752 8.29
5/16/2021 4:45:00 AM 17.28 63.104 0.402 8.37 2764 8.3
5/16/2021 5:00:00 AM 17.26 63.068 0.403 8.37 2756 8.18
5/16/2021 5:15:00 AM 17.23 63.014 0.403 8.37 2754 8.3
5/16/2021 5:30:00 AM 17.2 62.96 0.403 8.38 2729 8.24
5/16/2021 5:45:00 AM 17.19 62.942 0.403 8.38 2726 8.34
5/16/2021 6:00:00 AM 17.15 62.87 0.404 8.37 2730 8.33
5/16/2021 6:15:00 AM 17.12 62.816 0.404 8.37 2755 8.3
5/16/2021 6:30:00 AM 17.1 62.78 0.404 8.37 2750 8.3
5/16/2021 6:45:00 AM 17.08 62.744 0.404 8.37 2723 8.32
5/16/2021 7:00:00 AM 17.06 62.708 0.404 8.37 2709 8.35
5/16/2021 7:15:00 AM 17.05 62.69 0.404 8.37 2725 8.4
5/16/2021 7:30:00 AM 17.05 62.69 0.405 8.37 2738 8.48
5/16/2021 7:45:00 AM 17.05 62.69 0.404 8.38 2807 8.53
5/16/2021 8:00:00 AM 17.06 62.708 0.405 8.39 2800 8.65
5/16/2021 8:15:00 AM 17.07 62.726 0.405 8.39 2769 8.73
5/16/2021 8:30:00 AM 17.07 62.726 0.405 8.4 2787 8.85
5/16/2021 8:45:00 AM 17.09 62.762 0.405 8.41 2786 8.91
5/16/2021 9:00:00 AM 17.09 62.762 0.406 8.42 2828 9.01
5/16/2021 9:15:00 AM 17.1 62.78 0.405 8.41 2842 9.14
5/16/2021 9:30:00 AM 17.11 62.798 0.406 8.42 2846 9.22
5/16/2021 9:45:00 AM 17.11 62.798 0.406 8.42 2828 9.24
5/16/2021 10:00:00 AM 17.13 62.834 0.407 8.42 2821 9.44
5/16/2021 10:15:00 AM 17.15 62.87 0.406 8.43 2858 9.5
5/16/2021 10:30:00 AM 17.18 62.924 0.407 8.42 2853 9.58
5/16/2021 10:45:00 AM 17.19 62.942 0.407 8.43 2825 9.7
5/16/2021 11:00:00 AM 17.21 62.978 0.407 8.43 2845 9.77
5/16/2021 11:15:00 AM 17.21 62.978 0.407 8.44 2844 9.91
5/16/2021 11:30:00 AM 17.23 63.014 0.407 8.44 2843 9.96
5/16/2021 11:45:00 AM 17.24 63.032 0.407 8.44 2845 10.06
5/16/2021 12:00:00 PM 17.24 63.032 0.407 8.45 2841 9.73
5/16/2021 12:15:00 PM 17.27 63.086 0.408 8.44 2866 10.01
5/16/2021 12:30:00 PM 17.25 63.05 0.408 8.44 2881 10.01
5/16/2021 12:45:00 PM 17.23 63.014 0.409 8.43 2878 10.08
5/16/2021 1:00:00 PM 17.23 63.014 0.409 8.43 2884 10.14
5/16/2021 1:15:00 PM 17.26 63.068 0.41 8.43 2949 10.18
5/16/2021 1:30:00 PM 17.31 63.158 0.41 8.42 2922 10.18
5/16/2021 1:45:00 PM 17.34 63.212 0.411 8.41 2919 10.15
5/16/2021 2:00:00 PM 17.33 63.194 0.411 8.41 2930 10.21
5/16/2021 2:15:00 PM 17.4 63.32 0.411 8.41 2881 10.31
5/16/2021 2:30:00 PM 17.36 63.248 0.412 8.42 2825 10.36
5/16/2021 2:45:00 PM 17.33 63.194 0.412 8.42 2823 10.37
5/16/2021 3:00:00 PM 17.29 63.122 0.412 8.42 2787 10.31
5/16/2021 3:15:00 PM 17.25 63.05 0.412 8.4 2773 10.05
5/16/2021 3:30:00 PM 17.21 62.978 0.413 8.38 2776 9.84
5/16/2021 3:45:00 PM 17.18 62.924 0.413 8.35 2777 9.92
5/16/2021 4:00:00 PM 17.12 62.816 0.413 8.35 2764 9.73
5/16/2021 4:15:00 PM 17.01 62.618 0.413 8.32 2769 9.73
5/16/2021 4:30:00 PM 16.96 62.528 0.414 8.32 2734 9.6
5/16/2021 4:45:00 PM 16.91 62.438 0.414 8.31 2757 9.56
5/16/2021 5:00:00 PM 16.87 62.366 0.414 8.3 2798 9.46
5/16/2021 5:15:00 PM 16.82 62.276 0.415 8.31 2796 9.47
5/16/2021 5:30:00 PM 16.78 62.204 0.415 8.3 2799 9.34
5/16/2021 5:45:00 PM 16.72 62.096 0.416 8.27 2803 9.3
5/16/2021 6:00:00 PM 16.65 61.97 0.415 8.26 2636 9.05
5/16/2021 6:15:00 PM 16.59 61.862 0.416 8.26 2705 9.1
5/16/2021 6:30:00 PM 16.54 61.772 0.416 8.24 2695 8.9
5/16/2021 6:45:00 PM 16.48 61.664 0.416 8.22 2689 8.75
5/16/2021 7:00:00 PM 16.45 61.61 0.416 8.2 2699 8.62
5/16/2021 7:15:00 PM 16.39 61.502 0.417 8.17 2711 8.43
5/16/2021 7:30:00 PM 16.35 61.43 0.417 8.15 2684 8.32
5/16/2021 7:45:00 PM 16.32 61.376 0.417 8.15 2683 8.27
5/16/2021 8:00:00 PM 16.31 61.358 0.417 8.14 2684 8.21
5/16/2021 8:15:00 PM 16.29 61.322 0.417 8.12 2701 8
5/16/2021 8:30:00 PM 16.27 61.286 0.417 8.11 2697 8.04
5/16/2021 8:45:00 PM 16.24 61.232 0.417 8.11 2682 8.04
5/16/2021 9:00:00 PM 16.23 61.214 0.417 8.1 2709 8.07
5/16/2021 9:15:00 PM 16.21 61.178 0.417 8.12 2710 8.03
5/16/2021 9:30:00 PM 16.19 61.142 0.417 8.12 2607 7.95
5/16/2021 9:45:00 PM 16.18 61.124 0.416 8.13 2639 8.08
5/16/2021 10:00:00 PM 16.17 61.106 0.416 8.13 2631 8.02
5/16/2021 10:15:00 PM 16.17 61.106 0.416 8.13 2671 8.1
5/16/2021 10:30:00 PM 16.15 61.07 0.416 8.14 2628 7.98
5/16/2021 10:45:00 PM 16.14 61.052 0.415 8.15 2653 8.11
5/16/2021 11:00:00 PM 16.12 61.016 0.415 8.15 2645 8.1
5/16/2021 11:15:00 PM 16.11 60.998 0.415 8.17 2638 8.16
5/16/2021 11:30:00 PM 16.1 60.98 0.415 8.16 2495 8.19
5/16/2021 11:45:00 PM 16.09 60.962 0.414 8.18 2579 8.23
5/17/2021 12:00:00 AM 16.07 60.926 0.414 8.18 2584 8.22
5/17/2021 12:15:00 AM 16.04 60.872 0.414 8.2 2601 8.31
5/17/2021 12:30:00 AM 16.02 60.836 0.414 8.2 2607 8.29
5/17/2021 12:45:00 AM 16 60.8 0.414 8.21 2568 8.32
5/17/2021 1:00:00 AM 15.98 60.764 0.414 8.23 2548 8.39
5/17/2021 1:15:00 AM 15.96 60.728 0.413 8.23 2520 8.36
5/17/2021 1:30:00 AM 15.94 60.692 0.414 8.23 2459 8.42
5/17/2021 1:45:00 AM 15.9 60.62 0.413 8.25 2273 8.45
5/17/2021 2:00:00 AM 15.88 60.584 0.413 8.27 2104 8.48
5/17/2021 2:15:00 AM 15.86 60.548 0.413 8.27 2062 8.45
5/17/2021 2:30:00 AM 15.83 60.494 0.413 8.28 2059 8.52
5/17/2021 2:45:00 AM 15.81 60.458 0.413 8.29 1913 8.46
5/17/2021 3:00:00 AM 15.78 60.404 0.413 8.3 1910 8.57
5/17/2021 3:15:00 AM 15.75 60.35 0.413 8.31 1911 8.29
5/17/2021 3:30:00 AM 15.72 60.296 0.412 8.33 1927 8.55
5/17/2021 3:45:00 AM 15.69 60.242 0.413 8.34 1918 8.61
5/17/2021 4:00:00 AM 15.65 60.17 0.412 8.34 1920 8.61
5/17/2021 4:15:00 AM 15.62 60.116 0.412 8.35 1918 8.6
5/17/2021 4:30:00 AM 15.58 60.044 0.412 8.35 1901 8.63
5/17/2021 4:45:00 AM 15.54 59.972 0.412 8.35 1906 8.59
5/17/2021 5:00:00 AM 15.51 59.918 0.412 8.36 1914 8.65
5/17/2021 5:15:00 AM 15.47 59.846 0.412 8.35 1903 8.49
5/17/2021 5:30:00 AM 15.44 59.792 0.411 8.35 1910 8.55
5/17/2021 5:45:00 AM 15.38 59.684 0.411 8.36 1926 8.61
5/17/2021 6:00:00 AM 15.35 59.63 0.411 8.36 1929 8.59
5/17/2021 6:15:00 AM 15.33 59.594 0.411 8.36 1919 8.58
5/17/2021 6:30:00 AM 15.29 59.522 0.411 8.36 1933 8.63
5/17/2021 6:45:00 AM 15.29 59.522 0.411 8.37 1966 8.63
5/17/2021 7:00:00 AM 15.27 59.486 0.411 8.37 1958 8.75
5/17/2021 7:15:00 AM 15.26 59.468 0.411 8.37 1928 8.83
5/17/2021 7:30:00 AM 15.27 59.486 0.411 8.38 2052 8.93
5/17/2021 7:45:00 AM 15.29 59.522 0.411 8.38 1998 8.97
5/17/2021 8:00:00 AM 15.3 59.54 0.411 8.39 1999 9.06
5/17/2021 8:15:00 AM 15.34 59.612 0.411 8.4 2029 9.19
5/17/2021 8:30:00 AM 15.39 59.702 0.411 8.42 2030 9.33
5/17/2021 8:45:00 AM 15.42 59.756 0.411 8.42 2029 9.42
5/17/2021 9:00:00 AM 15.45 59.81 0.411 8.42 2043 9.51
5/17/2021 9:15:00 AM 15.51 59.918 0.411 8.43 2047 9.61
5/17/2021 9:30:00 AM 15.55 59.99 0.411 8.44 2048 9.7
5/17/2021 9:45:00 AM 15.61 60.098 0.411 8.44 2050 9.87
5/17/2021 10:00:00 AM 15.66 60.188 0.411 8.44 2038 9.97
5/17/2021 10:15:00 AM 15.72 60.296 0.411 8.44 2041 10.05
5/17/2021 10:30:00 AM 15.79 60.422 0.411 8.44 2030 10.12
5/17/2021 10:45:00 AM 15.85 60.53 0.411 8.43 2031 10.27
5/17/2021 11:00:00 AM 15.92 60.656 0.411 8.44 2024 10.31
5/17/2021 11:15:00 AM 16.01 60.818 0.412 8.45 2027 10.42
5/17/2021 11:30:00 AM 16.09 60.962 0.412 8.45 2032 10.49
5/17/2021 11:45:00 AM 16.19 61.142 0.412 8.46 2034 10.59
5/17/2021 12:00:00 PM 16.3 61.34 0.412 8.46 2028 10.68
5/17/2021 12:15:00 PM 16.46 61.628 0.412 8.46 2016 10.75
5/17/2021 12:30:00 PM 16.62 61.916 0.413 8.46 2022 10.81
5/17/2021 12:45:00 PM 16.79 62.222 0.413 8.46 2004 10.85
5/17/2021 1:00:00 PM 16.95 62.51 0.414 8.46 1989 10.88
5/17/2021 1:15:00 PM 17.12 62.816 0.414 8.46 1998 10.96
5/17/2021 1:30:00 PM 17.23 63.014 0.415 8.46 1975 11
5/17/2021 1:45:00 PM 17.36 63.248 0.414 8.46 1970 11
5/17/2021 2:00:00 PM 17.51 63.518 0.415 8.46 2018 11.01
5/17/2021 2:15:00 PM 17.6 63.68 0.415 8.47 2012 11.06
5/17/2021 2:30:00 PM 17.68 63.824 0.416 8.46 2001 11.04
5/17/2021 2:45:00 PM 17.77 63.986 0.416 8.46 1993 11
5/17/2021 3:00:00 PM 17.79 64.022 0.416 8.45 1979 10.98
5/17/2021 3:15:00 PM 17.84 64.112 0.416 8.45 2011 10.93
5/17/2021 3:30:00 PM 17.87 64.166 0.417 8.44 2034 10.87
5/17/2021 3:45:00 PM 17.9 64.22 0.418 8.42 2034 10.79
5/17/2021 4:00:00 PM 18.04 64.472 0.418 8.43 2008 10.73
5/17/2021 4:15:00 PM 18.12 64.616 0.418 8.42 1998 10.66
5/17/2021 4:30:00 PM 18.03 64.454 0.419 8.41 2098 10.61
5/17/2021 4:45:00 PM 18.02 64.436 0.419 8.4 2122 10.61
5/17/2021 5:00:00 PM 17.91 64.238 0.419 8.38 2147 10.51
5/17/2021 5:15:00 PM 17.82 64.076 0.42 8.38 2173 10.51
5/17/2021 5:30:00 PM 17.68 63.824 0.42 8.37 2167 10.37
5/17/2021 5:45:00 PM 17.58 63.644 0.421 8.36 2183 10.33
5/17/2021 6:00:00 PM 17.43 63.374 0.422 8.35 2164 10.2
5/17/2021 6:15:00 PM 17.3 63.14 0.423 8.33 2118 10.02
5/17/2021 6:30:00 PM 17.15 62.87 0.423 8.32 2118 9.75
5/17/2021 6:45:00 PM 17.04 62.672 0.424 8.3 2120 9.62
5/17/2021 7:00:00 PM 16.94 62.492 0.425 8.28 2133 9.35
5/17/2021 7:15:00 PM 16.85 62.33 0.425 8.26 2170 9.25
5/17/2021 7:30:00 PM 16.74 62.132 0.425 8.24 2151 9.11
5/17/2021 7:45:00 PM 16.66 61.988 0.426 8.23 2100 8.99
5/17/2021 8:00:00 PM 16.58 61.844 0.426 8.22 2097 8.84
5/17/2021 8:15:00 PM 16.5 61.7 0.426 8.2 2075 8.75
5/17/2021 8:30:00 PM 16.42 61.556 0.426 8.19 1995 8.59
5/17/2021 8:45:00 PM 16.35 61.43 0.426 8.18 2005 8.55
5/17/2021 9:00:00 PM 16.3 61.34 0.426 8.16 1970 8.41
5/17/2021 9:15:00 PM 16.24 61.232 0.426 8.15 1830 8.36
5/17/2021 9:30:00 PM 16.21 61.178 0.425 8.14 1850 8.18
5/17/2021 9:45:00 PM 16.18 61.124 0.425 8.14 1921 8.23
5/17/2021 10:00:00 PM 16.16 61.088 0.425 8.14 1968 8.21
5/17/2021 10:15:00 PM 16.15 61.07 0.425 8.15 1963 8.24
5/17/2021 10:30:00 PM 16.14 61.052 0.424 8.15 1963 8.21
5/17/2021 10:45:00 PM 16.14 61.052 0.424 8.15 1969 8.18
5/17/2021 11:00:00 PM 16.13 61.034 0.424 8.16 1940 8.22
5/17/2021 11:15:00 PM 16.14 61.052 0.423 8.17 1950 8.24
5/17/2021 11:30:00 PM 16.15 61.07 0.422 8.17 1994 8.22
5/17/2021 11:45:00 PM 16.15 61.07 0.423 8.18 2082 8.25
5/18/2021 12:00:00 AM 16.17 61.106 0.422 8.2 2028 8.33
5/18/2021 12:15:00 AM 16.19 61.142 0.418 8.2 2042 8.32
5/18/2021 12:30:00 AM 16.2 61.16 0.422 8.21 2049 8.39
5/18/2021 12:45:00 AM 16.22 61.196 0.422 8.23 2046 8.42
5/18/2021 1:00:00 AM 16.24 61.232 0.421 8.24 2083 8.41
5/18/2021 1:15:00 AM 16.24 61.232 0.421 8.24 1883 8.43
5/18/2021 1:30:00 AM 16.27 61.286 0.421 8.25 2053 8.43
5/18/2021 1:45:00 AM 16.27 61.286 0.421 8.26 2009 8.45
5/18/2021 2:00:00 AM 16.3 61.34 0.42 8.28 2053 8.46
5/18/2021 2:15:00 AM 16.31 61.358 0.42 8.28 2044 8.46
5/18/2021 2:30:00 AM 16.34 61.412 0.42 8.29 1951 8.5
5/18/2021 2:45:00 AM 16.36 61.448 0.417 8.31 1819 8.52
5/18/2021 3:00:00 AM 16.35 61.43 0.419 8.32 1774 8.53
5/18/2021 3:15:00 AM 16.36 61.448 0.419 8.33 1998 8.54
5/18/2021 3:30:00 AM 16.35 61.43 0.418 8.34 1998 8.54
5/18/2021 3:45:00 AM 16.34 61.412 0.418 8.36 2122 8.55
5/18/2021 4:00:00 AM 16.34 61.412 0.417 8.36 2137 8.53
5/18/2021 4:15:00 AM 16.32 61.376 0.417 8.37 2040 8.56
5/18/2021 4:30:00 AM 16.3 61.34 0.417 8.37 2138 8.49
5/18/2021 4:45:00 AM 16.29 61.322 0.417 8.37 2124 8.55
5/18/2021 5:00:00 AM 16.27 61.286 0.417 8.38 2142 8.58
5/18/2021 5:15:00 AM 16.25 61.25 0.417 8.39 2135 8.53
5/18/2021 5:30:00 AM 16.24 61.232 0.418 8.38 2133 8.53
5/18/2021 5:45:00 AM 16.21 61.178 0.418 8.39 2120 8.54
5/18/2021 6:00:00 AM 16.2 61.16 0.419 8.39 2137 8.56
5/18/2021 6:15:00 AM 16.18 61.124 0.419 8.39 2138 8.55
5/18/2021 6:30:00 AM 16.15 61.07 0.42 8.4 2150 8.59
5/18/2021 6:45:00 AM 16.14 61.052 0.419 8.4 2161 8.59
5/18/2021 7:00:00 AM 16.14 61.052 0.42 8.4 2117 8.6
5/18/2021 7:15:00 AM 16.14 61.052 0.42 8.41 2195 8.62
5/18/2021 7:30:00 AM 16.14 61.052 0.419 8.41 2222 8.66
5/18/2021 7:45:00 AM 16.16 61.088 0.419 8.42 2254 8.75
5/18/2021 8:00:00 AM 16.19 61.142 0.419 8.43 2246 8.8
5/18/2021 8:15:00 AM 16.22 61.196 0.419 8.44 2256 8.9
5/18/2021 8:30:00 AM 16.26 61.268 0.419 8.43 2249 8.86
5/18/2021 8:45:00 AM 16.3 61.34 0.419 8.44 2266 9.04
5/18/2021 9:00:00 AM 16.34 61.412 0.419 8.44 2283 9.09
5/18/2021 9:15:00 AM 16.4 61.52 0.419 8.44 2295 9.13
5/18/2021 9:30:00 AM 16.44 61.592 0.419 8.43 2291 9.16
5/18/2021 9:45:00 AM 16.48 61.664 0.419 8.44 2310 9.18
5/18/2021 10:00:00 AM 16.55 61.79 0.419 8.43 2283 9.32
5/18/2021 10:15:00 AM 16.62 61.916 0.419 8.44 2265 9.42
5/18/2021 10:30:00 AM 16.68 62.024 0.419 8.43 2265 9.48
5/18/2021 10:45:00 AM 16.77 62.186 0.419 8.43 2260 9.56
5/18/2021 11:00:00 AM 16.87 62.366 0.419 8.44 2215 9.71
5/18/2021 11:15:00 AM 16.99 62.582 0.42 8.45 2246 9.77
5/18/2021 11:30:00 AM 17.12 62.816 0.42 8.41 2258 9.88
5/18/2021 11:45:00 AM 17.3 63.14 0.42 8.41 2218 9.94
5/18/2021 12:00:00 PM 17.44 63.392 0.42 8.42 2239 10.08
5/18/2021 12:15:00 PM 17.65 63.77 0.42 8.42 2187 10.21
5/18/2021 12:30:00 PM 17.82 64.076 0.421 8.43 2202 10.28
5/18/2021 12:45:00 PM 18.03 64.454 0.421 8.44 2215 10.34
5/18/2021 1:00:00 PM 18.24 64.832 0.421 8.44 2166 10.38
5/18/2021 1:15:00 PM 18.46 65.228 0.422 8.45 2170 10.52
5/18/2021 1:30:00 PM 18.62 65.516 0.422 8.45 2160 10.6
5/18/2021 1:45:00 PM 18.84 65.912 0.422 8.44 2180 10.51
5/18/2021 2:00:00 PM 19 66.2 0.423 8.44 2144 10.54
5/18/2021 2:15:00 PM 19.17 66.506 0.423 8.43 2152 10.6
5/18/2021 2:30:00 PM 19.36 66.848 0.424 8.43 2181 10.57
5/18/2021 2:45:00 PM 19.49 67.082 0.424 8.43 2148 10.62
5/18/2021 3:00:00 PM 19.59 67.262 0.425 8.42 2151 10.58
5/18/2021 3:15:00 PM 19.69 67.442 0.425 8.42 2153 10.59
5/18/2021 3:30:00 PM 19.86 67.748 0.425 8.42 2131 10.63
5/18/2021 3:45:00 PM 19.87 67.766 0.425 8.41 2224 10.58
5/18/2021 4:00:00 PM 19.94 67.892 0.426 8.4 2144 10.55
5/18/2021 4:15:00 PM 19.88 67.784 0.426 8.41 2215 10.67
5/18/2021 4:30:00 PM 19.88 67.784 0.426 8.4 2341 10.63
5/18/2021 4:45:00 PM 19.84 67.712 0.427 8.38 2332 10.6
5/18/2021 5:00:00 PM 19.79 67.622 0.428 8.38 2412 10.5
5/18/2021 5:15:00 PM 19.72 67.496 0.428 8.35 2513 10.41
5/18/2021 5:30:00 PM 19.64 67.352 0.43 8.32 2398 10.23
5/18/2021 5:45:00 PM 19.61 67.298 0.431 8.31 2261 10.07
5/18/2021 6:00:00 PM 19.48 67.064 0.432 8.29 2246 9.92
5/18/2021 6:15:00 PM 19.35 66.83 0.432 8.29 2264 9.67
5/18/2021 6:30:00 PM 19.18 66.524 0.432 8.27 2223 9.38
5/18/2021 6:45:00 PM 18.94 66.092 0.433 8.24 2167 9.31
5/18/2021 7:00:00 PM 18.78 65.804 0.432 8.22 2190 9.1
5/18/2021 7:15:00 PM 18.59 65.462 0.432 8.2 2165 8.94
5/18/2021 7:30:00 PM 18.43 65.174 0.432 8.18 2098 8.68
5/18/2021 7:45:00 PM 18.33 64.994 0.431 8.16 2090 8.52
5/18/2021 8:00:00 PM 18.23 64.814 0.432 8.15 2069 8.43
5/18/2021 8:15:00 PM 18.13 64.634 0.431 8.13 2056 8.26
5/18/2021 8:30:00 PM 18.05 64.49 0.431 8.12 2048 8.11
5/18/2021 8:45:00 PM 17.98 64.364 0.431 8.1 2031 7.97
5/18/2021 9:00:00 PM 17.92 64.256 0.431 8.09 2049 7.9
5/18/2021 9:15:00 PM 17.88 64.184 0.431 8.08 2050 7.81
5/18/2021 9:30:00 PM 17.85 64.13 0.43 8.09 2046 7.79
5/18/2021 9:45:00 PM 17.82 64.076 0.43 8.08 2087 7.73
5/18/2021 10:00:00 PM 17.81 64.058 0.43 8.08 2100 7.69
5/18/2021 10:15:00 PM 17.81 64.058 0.43 8.08 2097 7.69
5/18/2021 10:30:00 PM 17.81 64.058 0.429 8.08 2087 7.69
5/18/2021 10:45:00 PM 17.81 64.058 0.429 8.08 2055 7.65
5/18/2021 11:00:00 PM 17.81 64.058 0.429 8.09 2029 7.7
5/18/2021 11:15:00 PM 17.84 64.112 0.429 8.1 2047 7.64
5/18/2021 11:30:00 PM 17.86 64.148 0.428 8.1 2132 7.7
5/18/2021 11:45:00 PM 17.87 64.166 0.428 8.11 2122 7.73
5/19/2021 12:00:00 AM 17.92 64.256 0.427 8.12 2124 7.77
5/19/2021 12:15:00 AM 17.93 64.274 0.427 8.12 2120 7.76
5/19/2021 12:30:00 AM 17.97 64.346 0.427 8.13 2192 7.77
5/19/2021 12:45:00 AM 17.99 64.382 0.426 8.13 2194 7.76
5/19/2021 1:00:00 AM 18.03 64.454 0.425 8.14 2185 7.8
5/19/2021 1:15:00 AM 18.06 64.508 0.424 8.15 2190 7.78
5/19/2021 1:30:00 AM 18.09 64.562 0.424 8.16 2186 7.72
5/19/2021 1:45:00 AM 18.13 64.634 0.423 8.17 2101 7.79
5/19/2021 2:00:00 AM 18.16 64.688 0.423 8.18 2088 7.79
5/19/2021 2:15:00 AM 18.18 64.724 0.422 8.18 2116 7.75
5/19/2021 2:30:00 AM 18.23 64.814 0.422 8.19 2136 7.77
5/19/2021 2:45:00 AM 18.25 64.85 0.421 8.19 2143 7.78
5/19/2021 3:00:00 AM 18.27 64.886 0.421 8.2 2148 7.79
5/19/2021 3:15:00 AM 18.3 64.94 0.421 8.21 2171 7.78
5/19/2021 3:30:00 AM 18.32 64.976 0.421 8.21 2141 7.8
5/19/2021 3:45:00 AM 18.33 64.994 0.421 8.22 2148 7.77
5/19/2021 4:00:00 AM 18.35 65.03 0.421 8.23 2140 7.78
5/19/2021 4:15:00 AM 18.35 65.03 0.421 8.24 2148 7.79
5/19/2021 4:30:00 AM 18.36 65.048 0.422 8.24 2141 7.77
5/19/2021 4:45:00 AM 18.36 65.048 0.422 8.24 2099 7.76
5/19/2021 5:00:00 AM 18.34 65.012 0.422 8.25 2091 7.77
5/19/2021 5:15:00 AM 18.34 65.012 0.422 8.26 2111 7.82
5/19/2021 5:30:00 AM 18.33 64.994 0.422 8.26 2107 7.8
5/19/2021 5:45:00 AM 18.3 64.94 0.422 8.26 2102 7.77
5/19/2021 6:00:00 AM 18.29 64.922 0.422 8.27 2108 7.81
5/19/2021 6:15:00 AM 18.28 64.904 0.422 8.27 2106 7.78
5/19/2021 6:30:00 AM 18.26 64.868 0.422 8.27 2121 7.85
5/19/2021 6:45:00 AM 18.25 64.85 0.422 8.28 2140 7.88
5/19/2021 7:00:00 AM 18.26 64.868 0.422 8.29 2163 7.87
5/19/2021 7:15:00 AM 18.25 64.85 0.422 8.29 2191 7.95
5/19/2021 7:30:00 AM 18.26 64.868 0.422 8.3 2195 8.01
5/19/2021 7:45:00 AM 18.28 64.904 0.422 8.3 2206 8.05
5/19/2021 8:00:00 AM 18.32 64.976 0.422 8.31 2238 8.12
5/19/2021 8:15:00 AM 18.36 65.048 0.422 8.32 2243 8.18
5/19/2021 8:30:00 AM 18.4 65.12 0.422 8.32 2250 8.26
5/19/2021 8:45:00 AM 18.45 65.21 0.422 8.33 2254 8.31
5/19/2021 9:00:00 AM 18.49 65.282 0.422 8.33 2226 8.31
5/19/2021 9:15:00 AM 18.53 65.354 0.422 8.34 2224 8.45
5/19/2021 9:30:00 AM 18.6 65.48 0.422 8.34 2210 8.48
5/19/2021 9:45:00 AM 18.66 65.588 0.422 8.33 2212 8.53
5/19/2021 10:00:00 AM 18.71 65.67799 0.422 8.33 2216 8.57
5/19/2021 10:15:00 AM 18.77 65.786 0.422 8.33 2229 8.69
5/19/2021 10:30:00 AM 18.92 66.056 7.82 426.6 9.4 14.54
5/19/2021 10:45:00 AM 18.97 66.146 7.93 426.7 9.68 4.28
5/19/2021 11:00:00 AM 19.07 66.326 7.92 426.6 9.84 3.69
5/19/2021 11:15:00 AM 19.21 66.578 7.97 426.8 9.94 2.56
5/19/2021 11:30:00 AM 19.36 66.848 7.99 427.1 10.05 3.79
5/19/2021 11:45:00 AM 19.52 67.136 8.01 427.8 10.18 2.61
5/19/2021 12:00:00 PM 19.71 67.478 8.03 427.6 10.29 2.14
5/19/2021 12:15:00 PM 19.88 67.784 8.04 427.8 10.36 1.52
5/19/2021 12:30:00 PM 20.09 68.162 8.05 428 10.45 2.95
5/19/2021 12:45:00 PM 20.3 68.54 8.07 428.5 10.54 2.14
5/19/2021 1:00:00 PM 20.5 68.9 8.08 429 10.62 1.82
5/19/2021 1:15:00 PM 20.72 69.296 8.09 429.4 10.68 2.17
5/19/2021 1:30:00 PM 20.9 69.62 8.08 430.7 10.73 1.63
5/19/2021 1:45:00 PM 21.05 69.89 8.09 431.7 10.77 1.87
5/19/2021 2:00:00 PM 21.23 70.214 8.09 431.3 10.79 2.08
5/19/2021 2:15:00 PM 21.45 70.61 8.09 431.1 10.84 4.51
5/19/2021 2:30:00 PM 21.59 70.862 8.09 432.5 10.82 2.92
5/19/2021 2:45:00 PM 21.72 71.096 8.07 433.5 10.8 2.21
5/19/2021 3:00:00 PM 21.84 71.312 8.06 433.1 10.81 2.42
5/19/2021 3:15:00 PM 21.96 71.528 8.07 432.3 10.76 1.19
5/19/2021 3:30:00 PM 22 71.6 8.06 433.2 10.76 2.7
5/19/2021 3:45:00 PM 22.04 71.672 8.07 433.6 10.77 1.75
5/19/2021 4:00:00 PM 22.11 71.798 8.06 434.2 10.73 1.96
5/19/2021 4:15:00 PM 22.01 71.618 8.05 435.1 10.69 4.97
5/19/2021 4:30:00 PM 22.05 71.69 8.06 433.6 10.63 3.81
5/19/2021 4:45:00 PM 22.15 71.87 8.05 435 10.55 1.8
5/19/2021 5:00:00 PM 22.12 71.816 8.04 435.8 10.44 1.81
5/19/2021 5:15:00 PM 22.05 71.69 8.03 436.8 10.34 2
5/19/2021 5:30:00 PM 21.89 71.402 8.01 436.5 10.2 1.42
5/19/2021 5:45:00 PM 21.79 71.222 8 437.7 10.06 1.77
5/19/2021 6:00:00 PM 21.6 70.88 7.98 438.7 9.91 2.23
5/19/2021 6:15:00 PM 21.34 70.412 7.98 439.4 9.76 1.8
5/19/2021 6:30:00 PM 21.13 70.034 7.97 439.7 9.63 1.49
5/19/2021 6:45:00 PM 20.87 69.566 7.94 440 9.42 1.67
5/19/2021 7:00:00 PM 20.67 69.206 7.93 440.1 9.25 1.44
5/19/2021 7:15:00 PM 20.56 69.008 7.92 440.3 9.06 2.98
5/19/2021 7:30:00 PM 20.47 68.846 7.89 440.8 8.85 1.92
5/19/2021 7:45:00 PM 20.42 68.756 7.88 441.1 8.67 1.86
5/19/2021 8:00:00 PM 20.35 68.63 7.86 441.3 8.49 1.51
5/19/2021 8:15:00 PM 20.27 68.486 7.83 441.5 8.35 2.54
5/19/2021 8:30:00 PM 20.18 68.324 7.83 441.7 8.24 1.23
5/19/2021 8:45:00 PM 20.09 68.162 7.82 441.8 8.11 1.38
5/19/2021 9:00:00 PM 20.01 68.018 7.79 441.9 8.03 0.91
5/19/2021 9:15:00 PM 19.93 67.874 7.77 442 7.95 1.63
5/19/2021 9:30:00 PM 19.86 67.748 7.65 442.6 7.87 1.71
5/19/2021 9:45:00 PM 19.8 67.64 7.68 442.5 7.83 2.11
5/19/2021 10:00:00 PM 19.74 67.532 7.54 442.3 7.8 2.17
5/19/2021 10:15:00 PM 19.7 67.46 7.72 442.5 7.79 1.39
5/19/2021 10:30:00 PM 19.68 67.424 7.75 442.4 7.78 2.65
5/19/2021 10:45:00 PM 19.66 67.388 7.76 442.2 7.77 1.31
5/19/2021 11:00:00 PM 19.65 67.37 7.76 441.8 7.77 1.33
5/19/2021 11:15:00 PM 19.65 67.37 7.76 441.6 7.77 2.49
5/19/2021 11:30:00 PM 19.64 67.352 7.77 441.4 7.79 2.52
5/19/2021 11:45:00 PM 19.65 67.37 7.78 441.1 7.78 2.67
5/20/2021 12:00:00 AM 19.67 67.406 7.79 440.8 7.83 1.3
5/20/2021 12:15:00 AM 19.68 67.424 7.8 440.2 7.82 2.65
5/20/2021 12:30:00 AM 19.71 67.478 7.79 439.6 7.84 1.23
5/20/2021 12:45:00 AM 19.72 67.496 7.8 439 7.85 1.92
5/20/2021 1:00:00 AM 19.75 67.55 7.81 438.2 7.87 1.73
5/20/2021 1:15:00 AM 19.78 67.604 7.82 437.6 7.88 1.17
5/20/2021 1:30:00 AM 19.79 67.622 7.82 437.2 7.87 2.22
5/20/2021 1:45:00 AM 19.82 67.676 7.82 436.6 7.91 2.51
5/20/2021 2:00:00 AM 19.86 67.748 7.83 435.9 7.93 2.23
5/20/2021 2:15:00 AM 19.88 67.784 7.84 435.5 7.94 1.79
5/20/2021 2:30:00 AM 19.91 67.838 7.84 435 7.96 1.73
5/20/2021 2:45:00 AM 19.93 67.874 7.84 434.7 7.94 2.05
5/20/2021 3:00:00 AM 19.95 67.91 7.85 434.4 7.97 2.11
5/20/2021 3:15:00 AM 19.97 67.946 7.85 434.2 7.98 4.7
5/20/2021 3:30:00 AM 19.98 67.964 7.84 433.9 7.97 1.83
5/20/2021 3:45:00 AM 20 68 7.85 433.7 7.98 2.06
5/20/2021 4:00:00 AM 20.02 68.036 7.85 433.5 8 1.54
5/20/2021 4:15:00 AM 20.02 68.036 7.85 433.4 7.99 1.76
5/20/2021 4:30:00 AM 20.03 68.054 7.84 433.3 7.98 1.64
5/20/2021 4:45:00 AM 20.05 68.09 7.86 433.4 8 1.67
5/20/2021 5:00:00 AM 20.03 68.054 7.86 433.5 7.96 2.36
5/20/2021 5:15:00 AM 20.03 68.054 7.86 433.6 8 2.91
5/20/2021 5:30:00 AM 20.02 68.036 7.87 434 7.97 2.31
5/20/2021 5:45:00 AM 20.02 68.036 7.86 434.3 7.99 2.67
5/20/2021 6:00:00 AM 20 68 7.87 434.7 7.98 1.85
5/20/2021 6:15:00 AM 20 68 7.87 435.1 8 1.64
5/20/2021 6:30:00 AM 20.01 68.018 7.88 435.5 8.03 1.76
5/20/2021 6:45:00 AM 20.02 68.036 7.88 435.5 8.05 1.88
5/20/2021 7:00:00 AM 20.01 68.018 7.88 435.6 8.08 1.27
5/20/2021 7:15:00 AM 20.03 68.054 7.85 435.5 8.09 2.56
5/20/2021 7:30:00 AM 20.06 68.108 7.89 435.4 8.18 2.23
5/20/2021 7:45:00 AM 20.08 68.144 7.89 435.4 8.26 1.7
5/20/2021 8:00:00 AM 20.12 68.216 7.89 435.3 8.32 1.01
5/20/2021 8:15:00 AM 20.17 68.306 7.92 435.1 8.39 2.11
5/20/2021 8:30:00 AM 20.22 68.396 7.93 435.1 8.46 1.6
5/20/2021 8:45:00 AM 20.28 68.504 7.93 435 8.53 1.63
5/20/2021 9:00:00 AM 20.35 68.63 7.94 434.7 8.6 1.2
5/20/2021 9:15:00 AM 20.39 68.702 7.95 434.9 8.66 1.7
5/20/2021 9:30:00 AM 20.45 68.81 7.96 434.5 8.77 1.51
5/20/2021 9:45:00 AM 20.5 68.9 7.95 434.5 8.82 1.47
5/20/2021 10:00:00 AM 20.57 69.026 7.96 434.3 8.9 2.33
5/20/2021 10:15:00 AM 20.64 69.152 7.97 434.3 9 1.63
5/20/2021 10:30:00 AM 20.73 69.314 7.99 434.2 9.08 1.67
5/20/2021 10:45:00 AM 20.8 69.44 7.99 434.2 9.15 2.55
5/20/2021 11:00:00 AM 20.92 69.656 8 434.3 9.25 1.54
5/20/2021 11:15:00 AM 21.05 69.89 7.99 434.3 9.3 2.47
5/20/2021 11:30:00 AM 21.2 70.16 8 434.4 9.38 1.84
5/20/2021 11:45:00 AM 21.38 70.484 8.01 434.6 9.48 2.15
5/20/2021 12:00:00 PM 21.55 70.79 8.01 434.9 9.55 0.98
5/20/2021 12:15:00 PM 21.73 71.114 7.98 435 9.61 1.58
5/20/2021 12:30:00 PM 21.91 71.438 8.03 435.3 9.68 1.86
5/20/2021 12:45:00 PM 22.16 71.888 8.02 435.2 9.75 2.43
5/20/2021 1:00:00 PM 22.35 72.23 8.03 435.3 9.8 1.63
5/20/2021 1:15:00 PM 22.58 72.644 8.03 435.5 9.85 1.47
5/20/2021 1:30:00 PM 22.77 72.986 8.03 435.8 9.87 2.49
5/20/2021 1:45:00 PM 22.91 73.238 8.02 436.2 9.92 1.59
5/20/2021 2:00:00 PM 23.07 73.526 8.02 436.4 9.95 2.01
5/20/2021 2:15:00 PM 23.24 73.832 8.01 436.8 9.96 1.96
5/20/2021 2:30:00 PM 23.41 74.138 8 436.9 9.97 1.62
5/20/2021 2:45:00 PM 23.51 74.318 8.01 437.3 9.96 2.55
5/20/2021 3:00:00 PM 23.64 74.552 8 437.7 9.9 1.64
5/20/2021 3:15:00 PM 23.72 74.696 8.01 438.2 9.92 2.2
5/20/2021 3:30:00 PM 23.8 74.84 7.98 438.5 9.86 2.78
5/20/2021 3:45:00 PM 23.81 74.858 8 439 9.84 1.65
5/20/2021 4:00:00 PM 23.79 74.82201 7.99 439.5 9.77 2.31
5/20/2021 4:15:00 PM 23.73 74.714 7.97 439.9 9.74 1.21
5/20/2021 4:30:00 PM 23.7 74.66 7.98 440.5 9.69 2.63
5/20/2021 4:45:00 PM 23.67 74.606 7.97 441 9.63 1.55
5/20/2021 5:00:00 PM 23.58 74.444 7.96 441.5 9.58 1.86
5/20/2021 5:15:00 PM 23.31 73.958 7.94 442.3 9.36 47.97
5/20/2021 5:30:00 PM 23.15 73.67 7.94 442.6 9.22 3.38
5/20/2021 5:45:00 PM 23.04 73.472 7.93 443.1 9.15 2.29
5/20/2021 6:00:00 PM 22.86 73.148 7.92 443.6 8.97 3.61
5/20/2021 6:15:00 PM 22.74 72.932 7.88 444.1 8.87 7.53
5/20/2021 6:30:00 PM 22.59 72.662 7.89 444.6 8.69 2.81
5/20/2021 6:45:00 PM 22.45 72.41 7.88 444.9 8.59 1.5
5/20/2021 7:00:00 PM 22.27 72.086 7.85 445.2 8.42 1.85
5/20/2021 7:15:00 PM 22.09 71.762 7.84 445.4 8.28 2.42
5/20/2021 7:30:00 PM 21.94 71.492 7.83 445.6 8.14 162.8
5/20/2021 7:45:00 PM 21.77 71.186 7.82 446.1 7.99 3.81
5/20/2021 8:00:00 PM 21.64 70.952 7.79 446.4 7.89 1.24
5/20/2021 8:15:00 PM 21.5 70.7 7.8 446.8 7.77 1.14
5/20/2021 8:30:00 PM 21.4 70.52 7.79 447.2 7.68 1.56
5/20/2021 8:45:00 PM 21.33 70.394 7.78 447.4 7.58 1.53
5/20/2021 9:00:00 PM 21.28 70.304 7.77 447.5 7.48 1.5
5/20/2021 9:15:00 PM 21.22 70.196 7.76 447.7 7.42 2.34
5/20/2021 9:30:00 PM 21.17 70.106 7.76 448 7.35 1.5
5/20/2021 9:45:00 PM 21.11 69.998 7.75 448.2 7.3 1.78
5/20/2021 10:00:00 PM 21.07 69.926 7.75 448.1 7.29 2.15
5/20/2021 10:15:00 PM 21.04 69.872 7.74 448.5 7.27 1.87
5/20/2021 10:30:00 PM 21.02 69.836 7.74 449.1 7.27 4.88
5/20/2021 10:45:00 PM 21 69.8 7.74 449.3 7.28 2.25
5/20/2021 11:00:00 PM 20.97 69.746 7.75 449.8 7.24 2.15
5/20/2021 11:15:00 PM 20.95 69.71 7.75 450.1 7.28 2.13
5/20/2021 11:30:00 PM 20.92 69.656 7.75 450.1 7.27 3.14
5/20/2021 11:45:00 PM 20.89 69.602 7.75 450.1 7.32 1.68
5/21/2021 12:00:00 AM 20.88 69.584 7.76 450.1 7.33 1.99
5/21/2021 12:15:00 AM 20.87 69.566 7.76 449.9 7.35 3.3
5/21/2021 12:30:00 AM 20.87 69.566 7.76 450 7.38 1.64
5/21/2021 12:45:00 AM 20.87 69.566 7.77 449.6 7.41 1.76
5/21/2021 1:00:00 AM 20.87 69.566 7.77 449.1 7.4 2.1
5/21/2021 1:15:00 AM 20.89 69.602 7.75 448.5 7.46 1.83
5/21/2021 1:30:00 AM 20.89 69.602 7.78 448.2 7.47 2.04
5/21/2021 1:45:00 AM 20.91 69.638 7.76 447.6 7.45 1.95
5/21/2021 2:00:00 AM 20.92 69.656 7.77 447.3 7.49 1.77
5/21/2021 2:15:00 AM 20.92 69.656 7.8 446.9 7.51 2.57
5/21/2021 2:30:00 AM 20.94 69.692 7.78 446.5 7.53 2.46
5/21/2021 2:45:00 AM 20.99 69.782 7.8 446.1 7.54 1.04
5/21/2021 3:00:00 AM 20.98 69.764 7.8 445.8 7.55 1.83
5/21/2021 3:15:00 AM 21.01 69.818 7.82 445.4 7.55 2.34
5/21/2021 3:30:00 AM 21 69.8 7.82 445 7.53 3.26
5/21/2021 3:45:00 AM 21.04 69.872 7.83 444.6 7.59 1.8
5/21/2021 4:00:00 AM 21.03 69.854 7.82 444.4 7.55 3.11
5/21/2021 4:15:00 AM 21.04 69.872 7.83 444.2 7.57 2.34
5/21/2021 4:30:00 AM 21.03 69.854 7.83 444.1 7.58 2.5
5/21/2021 4:45:00 AM 21.03 69.854 7.84 443.9 7.59 2.83
5/21/2021 5:00:00 AM 21.03 69.854 7.84 443.8 7.6 2.29
5/21/2021 5:15:00 AM 21.03 69.854 7.83 443.9 7.57 3.15
5/21/2021 5:30:00 AM 21.03 69.854 7.84 443.9 7.59 2.19
5/21/2021 5:45:00 AM 21.01 69.818 7.85 444 7.61 2.81
5/21/2021 6:00:00 AM 20.99 69.782 7.84 444.1 7.59 1.86
5/21/2021 6:15:00 AM 20.97 69.746 7.84 444.3 7.59 3.21
5/21/2021 6:30:00 AM 20.98 69.764 7.84 444.6 7.61 4.71
5/21/2021 6:45:00 AM 20.99 69.782 7.85 444.7 7.64 1.93
5/21/2021 7:00:00 AM 20.98 69.764 7.85 444.7 7.68 2.05
5/21/2021 7:15:00 AM 20.98 69.764 7.85 444.9 7.69 5.15
5/21/2021 7:30:00 AM 21 69.8 7.86 444.6 7.78 0.92
5/21/2021 7:45:00 AM 21.02 69.836 7.84 444.9 7.86 1.9
5/21/2021 8:00:00 AM 21.05 69.89 7.89 445 7.93 1.29
5/21/2021 8:15:00 AM 21.08 69.944 7.88 445 7.97 2.08
5/21/2021 8:30:00 AM 21.14 70.052 7.9 444.8 8.05 4.84
5/21/2021 8:45:00 AM 21.18 70.124 7.89 444.9 8.09 4.83
5/21/2021 9:00:00 AM 21.22 70.196 7.92 444.8 8.13 1.47
5/21/2021 9:15:00 AM 21.25 70.25 7.89 444.6 8.2 1.95
5/21/2021 9:30:00 AM 21.28 70.304 7.91 444.8 8.22 1.84
5/21/2021 9:45:00 AM 21.32 70.376 7.9 444.8 8.31 1.71
5/21/2021 10:00:00 AM 21.37 70.466 7.92 444.7 8.39 1.96
5/21/2021 10:15:00 AM 21.42 70.556 7.93 444.7 8.45 1.71
5/21/2021 10:30:00 AM 21.49 70.682 7.93 444.7 8.53 1.39
5/21/2021 10:45:00 AM 21.57 70.826 7.94 444.6 8.61 1.75
5/21/2021 11:00:00 AM 21.66 70.988 7.92 444.6 8.67 1.63
5/21/2021 11:15:00 AM 21.76 71.168 7.95 444.8 8.76 2.04
5/21/2021 11:30:00 AM 21.9 71.42 7.97 444.8 8.85 1.25
5/21/2021 11:45:00 AM 22.06 71.708 7.97 445 8.97 2.47
5/21/2021 12:00:00 PM 22.25 72.05 7.97 445 9.04 1.87
5/21/2021 12:15:00 PM 22.43 72.374 7.97 445.4 9.09 1.86
5/21/2021 12:30:00 PM 22.65 72.77 7.97 445.6 9.18 1.62
5/21/2021 12:45:00 PM 22.84 73.112 7.98 445.5 9.25 2.19
5/21/2021 1:00:00 PM 23.06 73.508 7.98 445.6 9.24 4.78
5/21/2021 1:15:00 PM 23.22 73.796 7.97 446.1 9.24 3.46
5/21/2021 1:30:00 PM 23.38 74.084 7.97 446.1 9.28 2.92
5/21/2021 1:45:00 PM 23.54 74.372 7.96 446.5 9.28 3.08
5/21/2021 2:00:00 PM 23.75 74.75 7.96 446.5 9.28 3.6
5/21/2021 2:15:00 PM 23.98 75.164 7.97 446.5 9.32 1.97
5/21/2021 2:30:00 PM 24.15 75.47 7.96 446.6 9.32 2.33
5/21/2021 2:45:00 PM 24.34 75.812 7.96 447.2 9.32 1.84
5/21/2021 3:00:00 PM 24.44 75.992 7.95 447.4 9.31 2
5/21/2021 3:15:00 PM 24.57 76.226 7.96 447.6 9.31 2.5
5/21/2021 3:30:00 PM 24.71 76.478 7.96 447.9 9.31 1.43
5/21/2021 3:45:00 PM 24.81 76.658 7.95 448.3 9.26 1.79
5/21/2021 4:00:00 PM 24.86 76.748 7.96 448.6 9.24 1.5
5/21/2021 4:15:00 PM 24.88 76.784 7.97 448.9 9.19 1.33
5/21/2021 4:30:00 PM 24.88 76.784 7.93 449.2 9.15 2.19
5/21/2021 4:45:00 PM 24.83 76.694 7.94 449.6 9.06 2.79
5/21/2021 5:00:00 PM 24.77 76.586 7.93 450.2 9.07 1.3
5/21/2021 5:15:00 PM 24.63 76.334 7.91 450.4 8.94 1.9
5/21/2021 5:30:00 PM 24.5 76.1 7.91 451 8.82 2.78
5/21/2021 5:45:00 PM 24.44 75.992 7.9 451.7 8.72 1.77
5/21/2021 6:00:00 PM 24.36 75.848 7.84 451.8 8.58 2.62
5/21/2021 6:15:00 PM 24.2 75.56 7.89 452.2 8.47 2.12
5/21/2021 6:30:00 PM 23.97 75.146 7.87 452.6 8.3 2.3
5/21/2021 6:45:00 PM 23.7 74.66 7.87 453.1 8.14 1.43
5/21/2021 7:00:00 PM 23.52 74.336 7.85 453.6 8 2.31
5/21/2021 7:15:00 PM 23.24 73.832 7.85 454.4 7.89 1.81
5/21/2021 7:30:00 PM 22.98 73.364 7.82 454.8 7.76 1.34
5/21/2021 7:45:00 PM 22.84 73.112 7.81 455 7.65 1.78
5/21/2021 8:00:00 PM 22.69 72.842 7.81 455 7.54 1.19
5/21/2021 8:15:00 PM 22.57 72.626 7.8 455.1 7.43 2.57
5/21/2021 8:30:00 PM 22.42 72.356 7.8 455.7 7.35 1.64
5/21/2021 8:45:00 PM 22.31 72.158 7.78 456 7.28 1.05
5/21/2021 9:00:00 PM 22.22 71.996 7.77 456.7 7.21 1.63
5/21/2021 9:15:00 PM 22.12 71.816 7.77 457.7 7.17 1.77
5/21/2021 9:30:00 PM 22.03 71.654 7.77 458.4 7.1 2.03
5/21/2021 9:45:00 PM 21.97 71.546 7.75 458.6 7.05 1.93
5/21/2021 10:00:00 PM 21.9 71.42 7.76 458.5 7.03 2.37
5/21/2021 10:15:00 PM 21.84 71.312 7.74 458.4 7 2.72
5/21/2021 10:30:00 PM 21.78 71.204 7.74 458.4 7 1.9
5/21/2021 10:45:00 PM 21.72 71.096 7.74 458.2 6.98 3.37
5/21/2021 11:00:00 PM 21.66 70.988 7.73 457.8 6.99 2.39
5/21/2021 11:15:00 PM 21.61 70.898 7.74 456.3 7 1.84
5/21/2021 11:30:00 PM 21.57 70.826 7.74 457.7 7.03 2.96
5/21/2021 11:45:00 PM 21.54 70.772 7.74 457.7 7.03 1.51
5/22/2021 12:00:00 AM 21.5 70.7 7.74 457.6 7 1.68
5/22/2021 12:15:00 AM 21.49 70.682 7.75 457.4 7.05 1.7
5/22/2021 12:30:00 AM 21.48 70.664 7.75 457.2 7.06 2.77
5/22/2021 12:45:00 AM 21.49 70.682 7.73 456.8 7.07 2.34
5/22/2021 1:00:00 AM 21.49 70.682 7.72 456.4 7.08 2.16
5/22/2021 1:15:00 AM 21.51 70.718 7.76 456.4 7.13 2.01
5/22/2021 1:30:00 AM 21.54 70.772 7.75 455.9 7.13 2.05
5/22/2021 1:45:00 AM 21.56 70.808 7.76 455.7 7.14 2.7
5/22/2021 2:00:00 AM 21.58 70.844 7.77 455.4 7.15 1.85
5/22/2021 2:15:00 AM 21.59 70.862 7.77 455.3 7.16 2.36
5/22/2021 2:30:00 AM 21.63 70.934 7.78 455 7.17 2.53
5/22/2021 2:45:00 AM 21.67 71.006 7.77 455 7.21 3.77
5/22/2021 3:00:00 AM 21.68 71.024 7.73 454.7 7.2 2.74
5/22/2021 3:15:00 AM 21.71 71.078 7.8 454.7 7.24 1.8
5/22/2021 3:30:00 AM 21.74 71.132 7.8 454.2 7.25 2.61
5/22/2021 3:45:00 AM 21.76 71.168 7.8 454.4 7.26 2.11
5/22/2021 4:00:00 AM 21.78 71.204 7.8 454.3 7.23 1.8
5/22/2021 4:15:00 AM 21.82 71.276 7.81 435.3 7.28 1.97
5/22/2021 4:30:00 AM 21.8 71.24 7.8 433.4 7.25 3.82
5/22/2021 4:45:00 AM 21.82 71.276 7.79 431.9 7.24 4.19
5/22/2021 5:00:00 AM 21.84 71.312 7.8 398 7.28 4.23
5/22/2021 5:15:00 AM 21.85 71.33 7.79 453.8 7.23 4.59
5/22/2021 5:30:00 AM 21.85 71.33 7.8 453.9 7.26 3.64
5/22/2021 5:45:00 AM 21.87 71.366 7.8 453.9 7.26 2.94
5/22/2021 6:00:00 AM 21.86 71.348 7.78 454.2 7.23 2170
5/22/2021 6:15:00 AM 21.86 71.348 7.79 454.4 7.26 3.33
5/22/2021 6:30:00 AM 21.86 71.348 7.81 454.8 7.3 1.91
5/22/2021 6:45:00 AM 21.88 71.384 7.82 455.2 7.33 3.01
5/22/2021 7:00:00 AM 21.91 71.438 7.82 455.6 7.36 2.56
5/22/2021 7:15:00 AM 21.93 71.474 7.82 455.8 7.44 2.02
5/22/2021 7:30:00 AM 21.97 71.546 7.84 456 7.5 1.8
5/22/2021 7:45:00 AM 22.01 71.618 7.85 456.1 7.57 1.3
5/22/2021 8:00:00 AM 22.05 71.69 7.84 456.3 7.64 1.67
5/22/2021 8:15:00 AM 22.11 71.798 7.86 456.4 7.75 1.49
5/22/2021 8:30:00 AM 22.17 71.906 7.86 456.3 7.83 2.07
5/22/2021 8:45:00 AM 22.2 71.96 7.88 456.5 7.89 1.59
5/22/2021 9:00:00 AM 22.27 72.086 7.88 456.5 7.97 1.42
5/22/2021 9:15:00 AM 22.33 72.194 7.88 456.5 8.07 1.23
5/22/2021 9:30:00 AM 22.4 72.32 7.91 456.5 8.15 1.47
5/22/2021 9:45:00 AM 22.49 72.482 7.9 456.5 8.25 1.44
5/22/2021 10:00:00 AM 22.56 72.608 7.94 456.6 8.37 1.15
5/22/2021 10:15:00 AM 22.62 72.716 7.94 456.7 8.46 1.36
5/22/2021 10:30:00 AM 22.73 72.914 7.94 456.5 8.54 2.03
5/22/2021 10:45:00 AM 22.79 73.022 7.95 456.3 8.65 2
5/22/2021 11:00:00 AM 22.91 73.238 7.96 456.2 8.74 1.64
5/22/2021 11:15:00 AM 22.99 73.382 7.92 456.2 8.8 2.57
5/22/2021 11:30:00 AM 23.11 73.598 7.96 456.2 8.83 2.2
5/22/2021 11:45:00 AM 23.24 73.832 7.97 456 8.94 1.63
5/22/2021 12:00:00 PM 23.41 74.138 7.98 456 8.97 1.78
5/22/2021 12:15:00 PM 23.54 74.372 7.95 456.2 9.03 1.66
5/22/2021 12:30:00 PM 23.59 74.462 7.98 456.2 9.07 1.87
5/22/2021 12:45:00 PM 23.69 74.642 7.98 456.4 9.1 1.79
5/22/2021 1:00:00 PM 23.72 74.696 7.96 456.3 9.13 1.48
5/22/2021 1:15:00 PM 23.74 74.732 7.97 456.4 9.07 3.14
5/22/2021 1:30:00 PM 23.9 75.02 7.95 456.6 9.1 1.26
5/22/2021 1:45:00 PM 23.94 75.092 7.96 456.9 9.07 3.19
5/22/2021 2:00:00 PM 23.97 75.146 7.98 456.6 9.04 1.25
5/22/2021 2:15:00 PM 23.97 75.146 7.96 456.6 9.04 1.42
5/22/2021 2:30:00 PM 23.95 75.11 7.96 456.6 8.96 1.69
5/22/2021 2:45:00 PM 23.97 75.146 7.96 456.7 8.96 1.07
5/22/2021 3:00:00 PM 23.96 75.128 7.96 456.8 8.9 1.39
5/22/2021 3:15:00 PM 23.95 75.11 7.95 457.1 8.87 1.52
5/22/2021 3:30:00 PM 24.1 75.38 7.94 456.9 8.88 1.33
5/22/2021 3:45:00 PM 24.17 75.506 7.94 456.9 8.88 1.73
5/22/2021 4:00:00 PM 24.17 75.506 7.94 457.4 8.82 1.64
5/22/2021 4:15:00 PM 24.17 75.506 7.91 458.1 8.83 1.71
5/22/2021 4:30:00 PM 24.07 75.326 7.91 458.2 8.76 1.44
5/22/2021 4:45:00 PM 23.98 75.164 7.92 458.7 8.65 1.6
5/22/2021 5:00:00 PM 23.93 75.074 7.92 458.4 8.62 1.72
5/22/2021 5:15:00 PM 23.84 74.912 7.91 459.4 8.57 1.64
5/22/2021 5:30:00 PM 23.75 74.75 7.91 459.8 8.5 2.17
5/22/2021 5:45:00 PM 23.66 74.588 7.89 459.8 8.39 2.44
5/22/2021 6:00:00 PM 23.53 74.354 7.89 460.2 8.22 3.03
5/22/2021 6:15:00 PM 23.39 74.102 7.88 460.6 8.11 1.45
5/22/2021 6:30:00 PM 23.26 73.868 7.87 461.2 7.94 2.22
5/22/2021 6:45:00 PM 23.13 73.634 7.85 461.7 7.79 1.64
5/22/2021 7:00:00 PM 22.99 73.382 7.83 462 7.66 1.62
5/22/2021 7:15:00 PM 22.89 73.202 7.83 462.5 7.51 1.82
5/22/2021 7:30:00 PM 22.75 72.95 7.81 462.9 7.35 2.8
5/22/2021 7:45:00 PM 22.64 72.752 7.78 463.5 7.25 2.46
5/22/2021 8:00:00 PM 22.55 72.59 7.75 464.1 7.1 1.56
5/22/2021 8:15:00 PM 22.46 72.42799 7.75 464.7 7.08 1.42
5/22/2021 8:30:00 PM 22.4 72.32 7.75 464.5 6.99 1.57
5/22/2021 8:45:00 PM 22.32 72.176 7.77 465.3 6.95 1.99
5/22/2021 9:00:00 PM 22.27 72.086 7.75 465.7 6.92 1.45
5/22/2021 9:15:00 PM 22.22 71.996 7.76 466.1 6.86 1.78
5/22/2021 9:30:00 PM 22.17 71.906 7.73 466.3 6.82 2.11
5/22/2021 9:45:00 PM 22.14 71.852 7.73 466.5 6.81 2.79
5/22/2021 10:00:00 PM 22.11 71.798 7.75 466.9 6.8 1.2
5/22/2021 10:15:00 PM 22.08 71.744 7.73 466.7 6.8 2.74
5/22/2021 10:30:00 PM 22.06 71.708 7.74 466.9 6.8 2.29
5/22/2021 10:45:00 PM 22.04 71.672 7.74 467.1 6.79 2.31
5/22/2021 11:00:00 PM 22.03 71.654 7.73 467.1 6.8 4.1
5/22/2021 11:15:00 PM 22.02 71.636 7.73 462.6 6.81 6.39
5/22/2021 11:30:00 PM 22 71.6 7.74 465.7 6.8 4.44
5/22/2021 11:45:00 PM 21.98 71.564 7.74 466.5 6.79 2.69
5/23/2021 12:00:00 AM 21.97 71.546 7.73 462.5 6.82 2.18
5/23/2021 12:15:00 AM 21.97 71.546 7.75 460.1 6.82 6.84
5/23/2021 12:30:00 AM 21.96 71.528 7.76 462.4 6.84 9.05
5/23/2021 12:45:00 AM 21.94 71.492 7.76 467.6 6.84 2.18
5/23/2021 1:00:00 AM 21.95 71.51 7.74 467.7 6.86 2.2
5/23/2021 1:15:00 AM 21.96 71.528 7.75 467.5 6.88 2.28
5/23/2021 1:30:00 AM 21.96 71.528 7.76 467.5 6.9 4.01
5/23/2021 1:45:00 AM 21.96 71.528 7.76 467.3 6.92 7.11
5/23/2021 2:00:00 AM 21.97 71.546 7.77 467 6.93 3.89
5/23/2021 2:15:00 AM 21.97 71.546 7.77 466.9 6.96 3.45
5/23/2021 2:30:00 AM 22 71.6 7.78 466.7 6.93 4.38
5/23/2021 2:45:00 AM 22.01 71.618 7.79 466.5 6.99 3.2
5/23/2021 3:00:00 AM 22.02 71.636 7.8 466.3 7.02 1.99
5/23/2021 3:15:00 AM 22.03 71.654 7.79 466.5 7.02 2.08
5/23/2021 3:30:00 AM 22.04 71.672 7.81 466.3 7.05 6.31
5/23/2021 3:45:00 AM 22.04 71.672 7.82 466.3 7.06 2.2
5/23/2021 4:00:00 AM 22.06 71.708 7.81 466.3 7.07 2.91
5/23/2021 4:15:00 AM 22.06 71.708 7.82 466.5 7.08 3.98
5/23/2021 4:30:00 AM 22.08 71.744 7.82 466.7 7.11 3.44
5/23/2021 4:45:00 AM 22.08 71.744 7.83 466.9 7.11 3.86
5/23/2021 5:00:00 AM 22.09 71.762 7.81 467 7.1 11.39
5/23/2021 5:15:00 AM 22.1 71.78 7.82 415.9 7.13 10.99
5/23/2021 5:30:00 AM 22.1 71.78 7.81 465.6 7.1 3.81
5/23/2021 5:45:00 AM 22.08 71.744 7.8 467.7 7.11 49.87
5/23/2021 6:00:00 AM 22.08 71.744 7.81 467.7 7.13 13.91
5/23/2021 6:15:00 AM 22.08 71.744 7.82 467.9 7.13 11.19
5/23/2021 6:30:00 AM 22.08 71.744 7.81 468.2 7.16 11.68
5/23/2021 6:45:00 AM 22.08 71.744 7.83 468.3 7.18 2.81
5/23/2021 7:00:00 AM 22.09 71.762 7.84 468.3 7.23 4.75
5/23/2021 7:15:00 AM 22.09 71.762 7.85 468.2 7.27 10.28
5/23/2021 7:30:00 AM 22.11 71.798 7.84 468.5 7.31 17.93
5/23/2021 7:45:00 AM 22.14 71.852 7.87 468 7.41 2.79
5/23/2021 8:00:00 AM 22.18 71.924 7.86 468.4 7.46 2.8
5/23/2021 8:15:00 AM 22.2 71.96 7.88 428.1 7.48 2.45
5/23/2021 8:30:00 AM 22.23 72.014 7.86 468.1 7.6 2.37
5/23/2021 8:45:00 AM 22.27 72.086 7.89 468.1 7.64 2.07
5/23/2021 9:00:00 AM 22.3 72.14 7.89 468.2 7.71 3
5/23/2021 9:15:00 AM 22.35 72.23 7.83 468.1 7.75 1.7
5/23/2021 9:30:00 AM 22.39 72.302 7.89 468.4 7.84 2.18
5/23/2021 9:45:00 AM 22.43 72.374 7.9 468.4 7.92 2.02
5/23/2021 10:00:00 AM 22.48 72.464 7.92 440.8 7.96 2.28
5/23/2021 10:15:00 AM 22.53 72.554 7.92 455 8.01 1.96
5/23/2021 10:30:00 AM 22.59 72.662 7.9 460.9 8.04 3.59
5/23/2021 10:45:00 AM 22.69 72.842 7.93 468.5 8.13 3.34
5/23/2021 11:00:00 AM 22.79 73.022 7.92 468.2 8.21 4.54
5/23/2021 11:15:00 AM 22.96 73.328 7.94 468.9 8.29 2.48
5/23/2021 11:30:00 AM 23.15 73.67 7.94 469 8.39 29.97
5/23/2021 11:45:00 AM 23.3 73.94 7.95 469.4 8.46 2.38
5/23/2021 12:00:00 PM 23.48 74.264 7.97 469.6 8.54 2.3
5/23/2021 12:15:00 PM 23.68 74.624 7.97 469.7 8.6 2.25
5/23/2021 12:30:00 PM 23.89 75.002 7.97 469.8 8.63 2.42
5/23/2021 12:45:00 PM 24.12 75.416 7.97 469.9 8.75 2.46
5/23/2021 1:00:00 PM 24.35 75.83 7.97 470.3 8.78 2.26
5/23/2021 1:15:00 PM 24.56 76.208 7.98 470.3 8.84 2.24
5/23/2021 1:30:00 PM 24.8 76.64 7.99 470.5 8.86 4.8
5/23/2021 1:45:00 PM 24.93 76.874 7.98 470.6 8.87 2.23
5/23/2021 2:00:00 PM 25.06 77.108 7.97 470.8 8.92 2.29
5/23/2021 2:15:00 PM 25.25 77.45 7.98 471 8.93 2.16
5/23/2021 2:30:00 PM 25.33 77.594 7.97 471.3 8.88 3.03
5/23/2021 2:45:00 PM 25.48 77.864 7.98 471.4 8.86 2.31
5/23/2021 3:00:00 PM 25.6 78.08 7.96 471.7 8.85 3.13
5/23/2021 3:15:00 PM 25.47 77.846 7.97 472 8.75 2.94
5/23/2021 3:30:00 PM 25.58 78.044 7.96 472 8.75 2.67
5/23/2021 3:45:00 PM 25.52 77.936 7.95 472.1 8.73 3.68
5/23/2021 4:00:00 PM 25.6 78.08 7.95 472.3 8.74 2.67
5/23/2021 4:15:00 PM 25.72 78.296 7.96 472.4 8.69 3.3
5/23/2021 4:30:00 PM 25.75 78.35 7.96 472.4 8.68 2.43
5/23/2021 4:45:00 PM 25.78 78.404 7.96 472.6 8.61 5.67
5/23/2021 5:00:00 PM 25.78 78.404 7.96 472.8 8.58 3.53
5/23/2021 5:15:00 PM 25.72 78.296 7.96 473.1 8.45 4.44
5/23/2021 5:30:00 PM 25.64 78.152 7.95 473.4 8.38 3.19
5/23/2021 5:45:00 PM 25.52 77.936 7.94 473.3 8.27 5.19
5/23/2021 6:00:00 PM 25.32 77.576 7.93 473.9 8.13 3.88
5/23/2021 6:15:00 PM 25.12 77.216 7.92 474.2 8.03 4.1
5/23/2021 6:30:00 PM 24.94 76.892 7.91 474.4 7.9 3.3
5/23/2021 6:45:00 PM 24.74 76.532 7.9 474.8 7.78 2.98
5/23/2021 7:00:00 PM 24.54 76.172 7.89 475.5 7.64 4.17
5/23/2021 7:15:00 PM 24.35 75.83 7.87 475.4 7.51 3.9
5/23/2021 7:30:00 PM 24.17 75.506 7.86 475.8 7.35 3.54
5/23/2021 7:45:00 PM 24.04 75.272 7.85 476.2 7.25 3.86
5/23/2021 8:00:00 PM 23.94 75.092 7.84 476.9 7.05 3.59
5/23/2021 8:15:00 PM 23.82 74.876 7.84 477.3 6.95 3.65
5/23/2021 8:30:00 PM 23.75 74.75 7.82 477.6 6.89 3.23
5/23/2021 8:45:00 PM 23.68 74.624 7.81 477.8 6.74 3.98
5/23/2021 9:00:00 PM 23.62 74.516 7.8 477.9 6.65 3.93
5/23/2021 9:15:00 PM 23.56 74.408 7.8 478 6.6 3.43
5/23/2021 9:30:00 PM 23.49 74.282 7.78 477.9 6.54 3.58
5/23/2021 9:45:00 PM 23.44 74.192 7.76 478.2 6.51 22.34
5/23/2021 10:00:00 PM 23.41 74.138 7.78 478.4 6.47 2.89
5/23/2021 10:15:00 PM 23.39 74.102 7.75 478.6 6.46 2.98
5/23/2021 10:30:00 PM 23.37 74.066 7.77 478.7 6.33 3.53
5/23/2021 10:45:00 PM 23.34 74.012 7.78 478.8 6.39 3.58
5/23/2021 11:00:00 PM 23.32 73.976 7.76 479 6.24 4.27
5/23/2021 11:15:00 PM 23.28 73.904 7.73 479.1 6.37 3.5
5/23/2021 11:30:00 PM 23.26 73.868 7.78 479.3 6.4 3.79
5/23/2021 11:45:00 PM 23.24 73.832 7.77 479.2 6.19 4.39
5/24/2021 12:00:00 AM 23.22 73.796 7.77 479.4 6.3 4.06
5/24/2021 12:15:00 AM 23.21 73.778 7.78 479.2 6.4 4.39
5/24/2021 12:30:00 AM 23.17 73.706 7.77 478.9 6.43 5.18
5/24/2021 12:45:00 AM 23.17 73.706 7.78 478.8 6.47 5.85
5/24/2021 1:00:00 AM 23.18 73.724 7.79 478.4 6.48 5.68
5/24/2021 1:15:00 AM 23.15 73.67 7.78 478.1 6.46 5.87
5/24/2021 1:30:00 AM 23.17 73.706 7.79 477.6 6.5 4.72
5/24/2021 1:45:00 AM 23.18 73.724 7.81 477.1 6.48 4.57
5/24/2021 2:00:00 AM 23.16 73.688 7.81 476.7 6.53 4.61
5/24/2021 2:15:00 AM 23.13 73.634 7.81 476.5 6.27 4.74
5/24/2021 2:30:00 AM 23.13 73.634 7.83 476.1 6.32 4.68
5/24/2021 2:45:00 AM 23.17 73.706 7.84 475.9 6.58 4.76
5/24/2021 3:00:00 AM 23.17 73.706 7.82 475.8 6.62 4.31
5/24/2021 3:15:00 AM 23.18 73.724 7.83 475.7 6.51 5.3
5/24/2021 3:30:00 AM 23.16 73.688 7.84 475.5 6.34 4.91
5/24/2021 3:45:00 AM 23.18 73.724 7.84 475.3 6.47 4.47
5/24/2021 4:00:00 AM 23.15 73.67 7.85 475.4 6.55 5.09
5/24/2021 4:15:00 AM 23.15 73.67 7.84 475.4 6.58 4.84
5/24/2021 4:30:00 AM 23.14 73.652 7.83 468.8 6.57 5.37
5/24/2021 4:45:00 AM 23.13 73.634 7.84 466.5 6.61 5.4
5/24/2021 5:00:00 AM 23.15 73.67 7.84 438 6.48 4.95
5/24/2021 5:15:00 AM 23.15 73.67 7.83 466.7 6.59 6.65
5/24/2021 5:30:00 AM 23.14 73.652 7.84 474.8 6.32 5.82
5/24/2021 5:45:00 AM 23.13 73.634 7.85 476 6.36 42.73
5/24/2021 6:00:00 AM 23.13 73.634 7.84 476.3 6.1 4.78
5/24/2021 6:15:00 AM 23.11 73.598 7.84 476 6.25 6.2
5/24/2021 6:30:00 AM 23.11 73.598 7.83 476.8 5.6 5.45
5/24/2021 6:45:00 AM 23.13 73.634 7.85 477.2 5.68 5.47
5/24/2021 7:00:00 AM 23.16 73.688 7.86 468.8 6.06 5.06
5/24/2021 7:15:00 AM 23.15 73.67 7.85 477.4 5.63 5.27
5/24/2021 7:30:00 AM 23.16 73.688 7.85 460 5.57 4.9
5/24/2021 7:45:00 AM 23.17 73.706 7.87 477.8 5.76 5.01
5/24/2021 8:00:00 AM 23.18 73.724 7.88 476 5.64 4.88
5/24/2021 8:15:00 AM 23.18 73.724 7.87 428.3 5.57 5.36
5/24/2021 8:30:00 AM 23.18 73.724 7.87 476.3 5.72 5.19
5/24/2021 8:45:00 AM 23.17 73.706 7.88 472.3 5.48 6.3
5/24/2021 9:00:00 AM 23.15 73.67 7.88 470.4 5.54 5.13
5/24/2021 9:15:00 AM 23.13 73.634 7.88 478.6 5.45 5.82
5/24/2021 9:30:00 AM 23.11 73.598 7.88 430.8 5.07 6.27
5/24/2021 9:45:00 AM 23.07 73.526 7.88 477.8 5.11 11.11
5/24/2021 10:00:00 AM 23.06 73.508 7.88 467.4 4.59 6.91
5/24/2021 10:15:00 AM 23.05 73.49 7.87 478.7 4.1 7.79
5/24/2021 10:30:00 AM 23.02 73.436 7.88 451.3 3.79 7.31
5/24/2021 10:45:00 AM 22.99 73.382 7.86 479.6 3.64 8.42
5/24/2021 11:00:00 AM 22.94 73.292 7.87 479.6 3.43 10.37
5/24/2021 11:15:00 AM 22.91 73.238 7.88 479.9 3.17 8.6
5/24/2021 11:30:00 AM 22.87 73.166 7.88 480 3.2 9.79
5/24/2021 11:45:00 AM 22.84 73.112 7.87 480.1 3.05 8.93
5/24/2021 12:00:00 PM 22.81 73.058 7.88 480.2 2.89 17.3
5/24/2021 12:15:00 PM 22.81 73.058 7.87 480.5 2.83 9.91
5/24/2021 12:30:00 PM 22.79 73.022 7.87 438.2 2.77 9.75
5/24/2021 12:45:00 PM 22.76 72.968 7.88 480.6 2.71 9.27
5/24/2021 1:00:00 PM 22.72 72.896 7.87 478.3 2.6 9.46
5/24/2021 1:15:00 PM 22.68 72.824 7.88 479.6 2.6 11
5/24/2021 1:30:00 PM 22.62 72.716 7.88 477.5 2.49 9.92
5/24/2021 1:45:00 PM 22.6 72.68 7.88 477.5 2.42 10.39
5/24/2021 2:00:00 PM 22.58 72.644 7.86 475.9 2.34 10.32
5/24/2021 2:15:00 PM 22.52 72.536 7.86 477.3 2.31 10.37
5/24/2021 2:30:00 PM 22.47 72.446 7.84 474.2 2.23 10.83
5/24/2021 2:45:00 PM 22.43 72.374 7.84 476.1 2.17 10.5
5/24/2021 3:00:00 PM 22.41 72.338 7.85 455 2.13 9.75
5/24/2021 3:15:00 PM 22.4 72.32 7.86 477.4 2.07 9.73
5/24/2021 3:30:00 PM 22.4 72.32 7.85 478.8 2.02 10.6
5/24/2021 3:45:00 PM 22.38 72.284 7.87 439.2 2.01 8.73
5/24/2021 4:00:00 PM 22.35 72.23 7.87 480 1.98 10.46
5/24/2021 4:15:00 PM 22.28 72.104 7.86 479.8 1.86 10.26
5/24/2021 4:30:00 PM 22.24 72.032 7.87 479 1.78 10.32
5/24/2021 4:45:00 PM 22.18 71.924 7.86 480.2 1.7 10.38
5/24/2021 5:00:00 PM 22.13 71.834 7.86 481.7 1.66 11.65
5/24/2021 5:15:00 PM 22.07 71.726 7.84 481.8 1.62 13.4
5/24/2021 5:30:00 PM 22 71.6 7.85 482.1 1.51 14.84
5/24/2021 5:45:00 PM 21.94 71.492 7.83 478 1.44 18.13
5/24/2021 6:00:00 PM 21.88 71.384 7.83 479.7 1.4 17.89
5/24/2021 6:15:00 PM 21.83 71.294 7.83 482.9 1.35 13.62
5/24/2021 6:30:00 PM 21.79 71.222 7.82 482.8 1.3 14.7
5/24/2021 6:45:00 PM 21.73 71.114 7.82 482.9 1.24 13.28
5/24/2021 7:00:00 PM 21.68 71.024 7.82 482.6 1.24 17.39
5/24/2021 7:15:00 PM 21.62 70.916 7.82 483.3 1.19 15.93
5/24/2021 7:30:00 PM 21.56 70.808 7.81 482.2 1.18 11.84
5/24/2021 7:45:00 PM 21.5 70.7 7.8 484 1.11 13.56
5/24/2021 8:00:00 PM 21.43 70.574 7.81 467.4 1.08 14.59
5/24/2021 8:15:00 PM 21.36 70.448 7.8 484.4 1.06 19.82
5/24/2021 8:30:00 PM 21.3 70.34 7.78 483.7 1.03 16.01
5/24/2021 8:45:00 PM 21.23 70.214 7.79 484.6 0.99 246.5
5/24/2021 9:00:00 PM 21.17 70.106 7.78 481.6 0.93 21.49
5/24/2021 9:15:00 PM 21.11 69.998 7.79 484.8 0.91 17
5/24/2021 9:30:00 PM 21.04 69.872 7.78 484.7 0.82 16.64
5/24/2021 9:45:00 PM 21 69.8 7.77 484.8 0.84 22.29
5/24/2021 10:00:00 PM 20.94 69.692 7.78 484.8 0.9 17.79
5/24/2021 10:15:00 PM 20.89 69.602 7.76 483.8 0.81 26.63
5/24/2021 10:30:00 PM 20.86 69.548 7.75 484.7 0.82 22.7
5/24/2021 10:45:00 PM 20.81 69.458 7.76 479.7 0.85 16.11
5/24/2021 11:00:00 PM 20.77 69.386 7.75 484.7 0.83 31.36
5/24/2021 11:15:00 PM 20.73 69.314 7.75 484.6 0.82 20.06
5/24/2021 11:30:00 PM 20.67 69.206 7.75 484.6 0.76 23
5/24/2021 11:45:00 PM 20.64 69.152 7.77 484.6 0.75 16.92
5/25/2021 12:00:00 AM 20.61 69.098 7.75 484.6 0.75 16.2
5/25/2021 12:15:00 AM 20.55 68.99 7.76 484.2 0.75 15.84
5/25/2021 12:30:00 AM 20.52 68.936 7.75 484.7 0.73 17.46
5/25/2021 12:45:00 AM 20.47 68.846 7.76 484.9 0.84 17.65
5/25/2021 1:00:00 AM 20.43 68.774 7.76 485 0.73 18.09
5/25/2021 1:15:00 AM 20.38 68.684 7.74 485.4 0.7 26.19
5/25/2021 1:30:00 AM 20.33 68.594 7.76 485.2 0.7 20.23
5/25/2021 1:45:00 AM 20.28 68.504 7.76 484.9 0.72 20.75
5/25/2021 2:00:00 AM 20.23 68.414 7.76 485.2 0.68 20.67
5/25/2021 2:15:00 AM 20.19 68.342 7.76 485.3 0.68 22.81
5/25/2021 2:30:00 AM 20.15 68.27 7.75 485.4 0.67 22.55
5/25/2021 2:45:00 AM 20.11 68.198 7.77 485.4 0.67 27.21
5/25/2021 3:00:00 AM 20.07 68.126 7.77 485.5 0.67 26.66
5/25/2021 3:15:00 AM 20.05 68.09 7.78 485.5 0.7 27.69
5/25/2021 3:30:00 AM 20.01 68.018 7.77 485.5 0.67 25.39
5/25/2021 3:45:00 AM 19.97 67.946 7.78 485.4 0.69 27.28
5/25/2021 4:00:00 AM 19.93 67.874 7.78 485.4 0.69 24.87
5/25/2021 4:15:00 AM 19.9 67.82 7.78 485.4 0.66 24.92
5/25/2021 4:30:00 AM 19.87 67.766 7.78 485.4 0.66 24.32
5/25/2021 4:45:00 AM 19.83 67.694 7.79 483.9 0.66 23.62
5/25/2021 5:00:00 AM 19.79 67.622 7.8 486.1 0.65 24.41
5/25/2021 5:15:00 AM 19.76 67.568 7.8 485.3 0.65 25.62
5/25/2021 5:30:00 AM 19.72 67.496 7.8 476.8 0.66 28.35
5/25/2021 5:45:00 AM 19.68 67.424 7.8 485.7 0.63 25.85
5/25/2021 6:00:00 AM 19.65 67.37 7.8 485.5 0.67 24.55
5/25/2021 6:15:00 AM 19.62 67.316 7.81 485.6 0.65 29.69
5/25/2021 6:30:00 AM 19.6 67.28 7.81 485.2 0.63 34.97
5/25/2021 6:45:00 AM 19.58 67.244 7.81 485.1 0.61 31
5/25/2021 7:00:00 AM 19.56 67.208 7.82 485.4 0.6 29.76
5/25/2021 7:15:00 AM 19.53 67.154 7.82 484.7 0.63 31.79
5/25/2021 7:30:00 AM 19.5 67.1 7.83 484.8 0.62 114.5
5/25/2021 7:45:00 AM 19.49 67.082 7.83 485.1 0.6 36.32
5/25/2021 8:00:00 AM 19.49 67.082 7.84 485 0.64 32.38
5/25/2021 8:15:00 AM 19.48 67.064 7.84 484.8 0.65 37.2
5/25/2021 8:30:00 AM 19.47 67.046 7.85 484.6 0.71 44.04
5/25/2021 8:45:00 AM 19.48 67.064 7.86 484.7 0.93 46.89
5/25/2021 9:00:00 AM 19.49 67.082 7.87 484.6 0.96 45.64
5/25/2021 9:15:00 AM 19.5 67.1 7.87 483.6 1.05 49.4
5/25/2021 9:30:00 AM 19.51 67.118 7.87 484.4 0.96 89.52
5/25/2021 9:45:00 AM 19.52 67.136 7.87 484.4 0.9 50.6
5/25/2021 10:00:00 AM 19.54 67.172 7.59 482.4 0.83 52.08
5/25/2021 10:15:00 AM 19.57 67.226 7.79 483.3 0.98 53.98
5/25/2021 10:30:00 AM 19.6 67.28 7.88 483 2.96 52.15
5/25/2021 10:45:00 AM 19.65 67.37 7.9 484.2 4.84 53.03
5/25/2021 11:00:00 AM 19.66 67.388 7.91 482.5 6.71 53.7
5/25/2021 11:15:00 AM 19.68 67.424 7.92 481.6 6.46 51.09
5/25/2021 11:30:00 AM 19.7 67.46 7.93 484.3 6.82 53.52
5/25/2021 11:45:00 AM 19.72 67.496 7.95 484.2 6.34 55.76
5/25/2021 12:00:00 PM 19.77 67.586 7.93 473.4 6.93 53.37
5/25/2021 12:15:00 PM 19.8 67.64 7.98 484.5 6.75 54.81
5/25/2021 12:30:00 PM 19.84 67.712 7.96 484.6 5.97 54.29
5/25/2021 12:45:00 PM 19.87 67.766 7.95 484.2 4.93 62.68
5/25/2021 1:00:00 PM 19.89 67.802 7.94 483.8 5.5 56.68
5/25/2021 1:15:00 PM 19.92 67.856 7.98 484.7 5.24 58.93
5/25/2021 1:30:00 PM 19.96 67.92799 7.95 484.8 4.87 62.39
5/25/2021 1:45:00 PM 20 68 7.95 484.8 2.77 63.11
5/25/2021 2:00:00 PM 20.07 68.126 7.93 484.9 5.06 64.08
5/25/2021 2:15:00 PM 20.11 68.198 7.94 484.9 5.93 63.36
5/25/2021 2:30:00 PM 20.2 68.36 7.92 485 5.33 60.95
5/25/2021 2:45:00 PM 20.35 68.63 7.93 485.2 4.17 63.87
5/25/2021 3:00:00 PM 20.41 68.738 7.92 484.5 4.29 62.43
5/25/2021 3:15:00 PM 20.45 68.81 7.91 485.2 2.3 67.17
5/25/2021 3:30:00 PM 20.48 68.864 7.93 476.2 1.75 65.32
5/25/2021 3:45:00 PM 20.51 68.918 7.91 474.5 1.63 64.32
5/25/2021 4:00:00 PM 20.5 68.9 7.92 485.1 2.03 75.63
5/25/2021 4:15:00 PM 20.65 69.17 7.92 481.4 1.75 174
5/25/2021 4:30:00 PM 20.68 69.224 7.92 485.4 2.25 174.1
5/25/2021 4:45:00 PM 20.63 69.134 7.91 484.7 2.4 167.6
5/25/2021 5:00:00 PM 20.68 69.224 7.92 482.7 2.54 168.6
5/25/2021 5:15:00 PM 20.71 69.278 7.91 484.4 2.57 109.5
5/25/2021 5:30:00 PM 20.6 69.08 7.9 486 2.41 69.12
5/25/2021 5:45:00 PM 20.56 69.008 7.9 482.6 2.26 64.03
5/25/2021 6:00:00 PM 20.49 68.882 7.9 486.2 2.57 76.59
5/25/2021 6:15:00 PM 20.41 68.738 7.9 486.4 1.26 85.91
5/25/2021 6:30:00 PM 20.35 68.63 7.89 486.2 0.74 79.01
5/25/2021 6:45:00 PM 20.27 68.486 7.87 486.4 1.35 75.42
5/25/2021 7:00:00 PM 20.16 68.288 7.88 486.4 0.7 72.93
5/25/2021 7:15:00 PM 20.08 68.144 7.89 486.6 1.44 82.5
5/25/2021 7:30:00 PM 19.99 67.982 7.88 486.8 0.57 81.6
5/25/2021 7:45:00 PM 19.91 67.838 7.85 486.7 0.58 84.9
5/25/2021 8:00:00 PM 19.86 67.748 7.85 481.9 1.42 88.87
5/25/2021 8:15:00 PM 19.78 67.604 7.85 487.1 0.52 86.6
5/25/2021 8:30:00 PM 19.71 67.478 7.84 487.2 1.36 79.98
5/25/2021 8:45:00 PM 19.65 67.37 7.84 487 2.07 111
5/25/2021 9:00:00 PM 19.6 67.28 7.84 487.5 1.61 91.59
5/25/2021 9:15:00 PM 19.54 67.172 7.84 487.5 1.38 94.29
5/25/2021 9:30:00 PM 19.5 67.1 7.83 487.7 1.19 96.6
5/25/2021 9:45:00 PM 19.46 67.028 7.84 487.8 1.01 109
5/25/2021 10:00:00 PM 19.43 66.974 7.82 488.1 1.18 107.9
5/25/2021 10:15:00 PM 19.39 66.902 7.82 488.1 1.22 94.21
5/25/2021 10:30:00 PM 19.37 66.866 7.83 488.2 1.26 99.73
5/25/2021 10:45:00 PM 19.35 66.83 7.82 488.3 0.95 50.61
5/25/2021 11:00:00 PM 19.34 66.812 7.86 488.4 1.37 53.59
5/25/2021 11:15:00 PM 19.32 66.776 7.85 488.4 1.38 69.04
5/25/2021 11:30:00 PM 19.32 66.776 7.85 488.4 1.49 94.63
5/25/2021 11:45:00 PM 19.31 66.758 7.83 488.5 1.65 87.18
5/26/2021 12:00:00 AM 19.3 66.74 7.84 488.4 2.06 87.99
5/26/2021 12:15:00 AM 19.3 66.74 7.84 488.3 2.23 88.79
5/26/2021 12:30:00 AM 19.29 66.722 7.87 488.1 1.8 97.42
5/26/2021 12:45:00 AM 19.29 66.722 7.86 488.2 2.12 112.2
5/26/2021 1:00:00 AM 19.29 66.722 7.86 488.2 1.9 195.3
5/26/2021 1:15:00 AM 19.29 66.722 7.88 488.2 1.8 1076
5/26/2021 1:30:00 AM 19.3 66.74 7.87 488 2.31 139.2
5/26/2021 1:45:00 AM 19.3 66.74 7.88 487.9 3.37 2439
5/26/2021 2:00:00 AM 19.3 66.74 7.89 487.7 3.52 125.1
5/26/2021 2:15:00 AM 19.3 66.74 7.86 487.7 1.98 567.3
5/26/2021 2:30:00 AM 19.31 66.758 7.91 487 2.46 155.2
5/26/2021 2:45:00 AM 19.31 66.758 7.88 486.6 2.28 771.3
5/26/2021 3:00:00 AM 19.32 66.776 7.89 487 2.04 129.1
5/26/2021 3:15:00 AM 19.32 66.776 7.88 487.1 1.98 123.9
5/26/2021 3:30:00 AM 19.32 66.776 7.9 486.3 2.06 605.2
5/26/2021 3:45:00 AM 19.32 66.776 7.9 486 2.39 111.9
5/26/2021 4:00:00 AM 19.32 66.776 7.91 485.5 2.14 112
5/26/2021 4:15:00 AM 19.31 66.758 7.92 485.1 3.07 99.48
5/26/2021 4:30:00 AM 19.31 66.758 7.92 484.8 2.77 94.14
5/26/2021 4:45:00 AM 19.3 66.74 7.92 484.6 3.26 94.01
5/26/2021 5:00:00 AM 19.29 66.722 7.93 484.6 4 34.38
5/26/2021 5:15:00 AM 19.26 66.668 7.93 484.7 7.42 29.91
5/26/2021 5:30:00 AM 19.24 66.632 7.93 484.7 7.59 27.49
5/26/2021 5:45:00 AM 19.22 66.596 7.92 484.7 7.64 29.82
5/26/2021 6:00:00 AM 19.21 66.578 7.93 484.7 7.62 26.96
5/26/2021 6:15:00 AM 19.18 66.524 7.93 484.6 7.63 32.55
5/26/2021 6:30:00 AM 19.17 66.506 7.94 484.7 7.7 36.93
5/26/2021 6:45:00 AM 19.16 66.488 7.93 484.7 7.78 35.83
5/26/2021 7:00:00 AM 19.17 66.506 7.92 484.7 7.81 44.32
5/26/2021 7:15:00 AM 19.19 66.542 7.92 484.9 7.85 38.82
5/26/2021 7:30:00 AM 19.21 66.578 7.94 485.1 7.92 34.23
5/26/2021 7:45:00 AM 19.23 66.614 7.94 485 7.97 35.9
5/26/2021 8:00:00 AM 19.26 66.668 7.93 485.1 8.03 37.92
5/26/2021 8:15:00 AM 19.3 66.74 7.94 484.9 8.13 41.76
5/26/2021 8:30:00 AM 19.34 66.812 7.94 485.1 8.21 41.19
5/26/2021 8:45:00 AM 19.39 66.902 7.96 484.9 8.31 43.27
5/26/2021 9:00:00 AM 19.45 67.01 7.98 484.6 8.41 39.87
5/26/2021 9:15:00 AM 19.53 67.154 8 484.4 8.51 37.3
5/26/2021 9:30:00 AM 19.59 67.262 7.99 484.3 8.52 38.1
5/26/2021 9:45:00 AM 19.63 67.334 7.98 484.2 8.62 40.06
5/26/2021 10:00:00 AM 19.66 67.388 8 484.3 8.67 33.38
5/26/2021 10:15:00 AM 19.7 67.46 7.98 484.1 8.66 35.76
5/26/2021 10:30:00 AM 19.77 67.586 7.99 483.9 8.71 33.07
5/26/2021 10:45:00 AM 19.85 67.73 7.99 484.1 8.77 33.95
5/26/2021 11:00:00 AM 19.95 67.91 7.98 483.9 8.82 35.11
5/26/2021 11:15:00 AM 20.08 68.144 7.98 483.9 8.87 46.43
5/26/2021 11:30:00 AM 20.23 68.414 7.99 484 8.85 33.24
5/26/2021 11:45:00 AM 20.41 68.738 7.99 484 8.93 37.48
5/26/2021 12:00:00 PM 20.58 69.044 8 484 8.98 37.33
5/26/2021 12:15:00 PM 20.81 69.458 7.99 483.8 9.01 37.73
5/26/2021 12:30:00 PM 21.03 69.854 8 483.8 9.05 37.18
5/26/2021 12:45:00 PM 21.29 70.32201 8.03 483.5 9.12 36.13
5/26/2021 1:00:00 PM 21.54 70.772 8.01 483.8 9.12 40.45
5/26/2021 1:15:00 PM 21.8 71.24 8.01 483.5 9.15 39.8
5/26/2021 1:30:00 PM 22.06 71.708 8.01 483.1 9.17 38.77
5/26/2021 1:45:00 PM 22.28 72.104 8 483.2 9.16 42.35
5/26/2021 2:00:00 PM 22.46 72.42799 8 482.9 9.13 41.56
5/26/2021 2:15:00 PM 22.67 72.806 7.99 482.7 9.18 40.17
5/26/2021 2:30:00 PM 22.9 73.22 7.98 482.7 9.18 41.58
5/26/2021 2:45:00 PM 23.06 73.508 7.98 482.6 9.18 40.65
5/26/2021 3:00:00 PM 22.88 73.184 7.98 482.6 9.05 42.5
5/26/2021 3:15:00 PM 22.63 72.734 7.97 482.6 8.88 49.27
5/26/2021 3:30:00 PM 22.42 72.356 7.95 481.6 8.63 43.56
5/26/2021 3:45:00 PM 22.42 72.356 7.95 481.6 8.54 43.04
5/26/2021 4:00:00 PM 22.64 72.752 7.93 481.7 8.52 50.15
5/26/2021 4:15:00 PM 22.52 72.536 7.94 481.9 8.42 45.64
5/26/2021 4:30:00 PM 22.5 72.5 7.93 482 8.35 45.46
5/26/2021 4:45:00 PM 22.43 72.374 7.94 481.9 8.35 45.57
5/26/2021 5:00:00 PM 22.42 72.356 7.94 482.9 8.4 48.43
5/26/2021 5:15:00 PM 22.3 72.14 7.93 482.3 8.31 33.21
5/26/2021 5:30:00 PM 22.18 71.924 7.93 482.2 8.31 46.31
5/26/2021 5:45:00 PM 22.06 71.708 7.92 481.9 8.31 45.12
5/26/2021 6:00:00 PM 21.91 71.438 7.92 481.8 8.29 49
5/26/2021 6:15:00 PM 21.76 71.168 7.92 481.3 8.25 50.34
5/26/2021 6:30:00 PM 21.67 71.006 7.92 481.1 8.25 49.73
5/26/2021 6:45:00 PM 21.57 70.826 7.92 481.5 8.05 46.82
5/26/2021 7:00:00 PM 21.47 70.646 7.91 481.9 8.07 47.89
5/26/2021 7:15:00 PM 21.41 70.538 7.9 482 8.02 47.45
5/26/2021 7:30:00 PM 21.33 70.394 7.91 481.4 7.97 47.08
5/26/2021 7:45:00 PM 21.25 70.25 7.9 480.8 7.92 49.41
5/26/2021 8:00:00 PM 21.18 70.124 7.89 480.4 7.85 51.29
5/26/2021 8:15:00 PM 21.1 69.98 7.88 480.4 7.72 52.73
5/26/2021 8:30:00 PM 21.03 69.854 7.88 480.4 7.58 48.39
5/26/2021 8:45:00 PM 20.97 69.746 7.89 471.3 7.6 49.46
5/26/2021 9:00:00 PM 20.82 69.476 7.84 472.8 7.48 47.15
5/26/2021 9:15:00 PM 20.84 69.512 7.84 468.4 7.35 51.91
5/26/2021 9:30:00 PM 20.8 69.44 7.84 469.1 7.32 130.3
5/26/2021 9:45:00 PM 20.76 69.368 7.84 468.9 7.29 56.27
5/26/2021 10:00:00 PM 20.73 69.314 7.82 467.2 7.26 57.01
5/26/2021 10:15:00 PM 20.72 69.296 7.83 466.9 7.2 59.45
5/26/2021 10:30:00 PM 20.71 69.278 7.83 468.6 7.23 58.6
5/26/2021 10:45:00 PM 20.72 69.296 7.83 470 7.23 58.51
5/26/2021 11:00:00 PM 20.74 69.332 7.82 471.3 7.26 441.9
5/26/2021 11:15:00 PM 20.76 69.368 7.8 471.8 7.28 352.5
5/26/2021 11:30:00 PM 20.77 69.386 7.82 471.9 7.25 66.55
5/26/2021 11:45:00 PM 20.8 69.44 7.83 472.1 7.29 51.98
5/27/2021 12:00:00 AM 20.83 69.494 7.83 471.9 7.34 59.14
5/27/2021 12:15:00 AM 20.86 69.548 7.84 472.3 7.34 59.93
5/27/2021 12:30:00 AM 20.88 69.584 7.84 472.5 7.3 60.49
5/27/2021 12:45:00 AM 20.93 69.674 7.84 472.4 7.35 84.93
5/27/2021 1:00:00 AM 20.98 69.764 7.84 472.3 7.36 71.21
5/27/2021 1:15:00 AM 21.03 69.854 7.85 471.8 7.36 90.11
5/27/2021 1:30:00 AM 21.07 69.926 7.86 471.3 7.36 70.25
5/27/2021 1:45:00 AM 21.09 69.962 7.86 471 7.4 62.57
5/27/2021 2:00:00 AM 21.14 70.052 7.87 470.5 7.41 68.81
5/27/2021 2:15:00 AM 21.16 70.088 7.87 470.2 7.41 75.06
5/27/2021 2:30:00 AM 21.19 70.142 7.85 469.9 7.41 72.15
5/27/2021 2:45:00 AM 21.22 70.196 7.87 469.6 7.37 116.7
5/27/2021 3:00:00 AM 21.23 70.214 7.87 469.4 7.19 74.11
5/27/2021 3:15:00 AM 21.24 70.232 7.88 469.3 7.28 71.3
5/27/2021 3:30:00 AM 21.25 70.25 7.88 469.4 7.03 67.48
5/27/2021 3:45:00 AM 21.26 70.268 7.89 469.2 7.37 65.91
5/27/2021 4:00:00 AM 21.26 70.268 7.88 469.4 7.35 67.89
5/27/2021 4:15:00 AM 21.26 70.268 7.88 469.4 3.78 67.91
5/27/2021 4:30:00 AM 21.27 70.286 7.88 469.7 7.2 72.15
5/27/2021 4:45:00 AM 21.26 70.268 7.89 469.9 7.44 75.09
5/27/2021 5:00:00 AM 21.25 70.25 7.89 470.5 7.41 78.11
5/27/2021 5:15:00 AM 21.25 70.25 7.88 471.2 7.46 89.07
5/27/2021 5:30:00 AM 21.23 70.214 7.88 471.5 7.43 75.22
5/27/2021 5:45:00 AM 21.22 70.196 7.88 471.9 7.38 72.22
5/27/2021 6:00:00 AM 21.21 70.17799 7.88 472.1 7.43 78.59
5/27/2021 6:15:00 AM 21.18 70.124 7.86 472.3 7.42 81.34
5/27/2021 6:30:00 AM 21.18 70.124 7.86 472.2 7.47 80.92
5/27/2021 6:45:00 AM 21.19 70.142 7.88 472 7.37 69.96
5/27/2021 7:00:00 AM 21.18 70.124 7.88 472.4 7.48 73.25
5/27/2021 7:15:00 AM 21.2 70.16 7.89 471.8 7.54 76.94
5/27/2021 7:30:00 AM 21.22 70.196 7.89 471.8 7.56 85.17
5/27/2021 7:45:00 AM 21.23 70.214 7.92 472.2 7.63 82.71
5/27/2021 8:00:00 AM 21.25 70.25 7.91 471.8 7.68 78.83
5/27/2021 8:15:00 AM 21.31 70.358 7.92 471.6 7.71 82.9
5/27/2021 8:30:00 AM 21.37 70.466 7.92 470.7 7.77 89.46
5/27/2021 8:45:00 AM 21.41 70.538 7.88 470.6 7.8 84.14
5/27/2021 9:00:00 AM 21.43 70.574 7.9 470.2 7.8 78.42
5/27/2021 9:15:00 AM 21.42 70.556 7.91 469.6 7.88 79.21
5/27/2021 9:30:00 AM 21.46 70.628 7.9 470.2 7.89 75.49
5/27/2021 9:45:00 AM 21.5 70.7 7.9 468.9 7.92 64.49
5/27/2021 10:00:00 AM 21.51 70.718 7.9 468.3 7.92 62.07
5/27/2021 10:15:00 AM 21.53 70.754 7.9 467.7 7.99 61.19
5/27/2021 10:30:00 AM 21.55 70.79 7.88 467.4 8.01 59.39
5/27/2021 10:45:00 AM 21.58 70.844 7.87 466.5 8.04 62.89
5/27/2021 11:00:00 AM 21.67 71.006 7.89 465.9 8.09 58.99
5/27/2021 11:15:00 AM 21.76 71.168 7.89 464.8 8.12 68.5
5/27/2021 11:30:00 AM 21.84 71.312 7.92 464.4 8.18 72.8
5/27/2021 11:45:00 AM 21.96 71.528 7.9 463.3 8.24 67.7
5/27/2021 12:00:00 PM 22.09 71.762 7.9 462.3 8.29 76.85
5/27/2021 12:15:00 PM 22.24 72.032 7.9 461.4 8.3 73.48
5/27/2021 12:30:00 PM 22.38 72.284 7.91 460.2 8.4 74.07
5/27/2021 12:45:00 PM 22.54 72.57201 7.9 459 8.41 75.8
5/27/2021 1:00:00 PM 22.77 72.986 7.91 458 8.45 70.9
5/27/2021 1:15:00 PM 22.96 73.328 7.91 457.8 8.51 75.87
5/27/2021 1:30:00 PM 23.15 73.67 7.91 457.1 8.53 76.54
5/27/2021 1:45:00 PM 23.3 73.94 7.9 456.6 8.57 94.38
5/27/2021 2:00:00 PM 23.5 74.3 7.89 455.7 8.17 473.3
5/27/2021 2:15:00 PM 23.67 74.606 7.9 454.9 8.5 84.71
5/27/2021 2:30:00 PM 23.8 74.84 7.89 453.9 8.59 81.96
5/27/2021 2:45:00 PM 23.95 75.11 7.9 453.1 8.63 366.3
5/27/2021 3:00:00 PM 24.07 75.326 7.89 452.5 8.64 198.5
5/27/2021 3:15:00 PM 24.18 75.524 7.89 451.8 8.61 389.4
5/27/2021 3:30:00 PM 24.27 75.686 7.91 451.6 8.61 362.6
5/27/2021 3:45:00 PM 24.24 75.632 7.89 451 8.68 72.74
5/27/2021 4:00:00 PM 24.16 75.488 7.9 450 8.64 69.43
5/27/2021 4:15:00 PM 24.21 75.578 7.91 449.5 8.61 70.37
5/27/2021 4:30:00 PM 24.22 75.596 7.92 448.7 8.6 105.2
5/27/2021 4:45:00 PM 24.18 75.524 7.89 448.3 8.51 86.05
5/27/2021 5:00:00 PM 24.02 75.236 7.89 447.5 8.46 82.15
5/27/2021 5:15:00 PM 23.82 74.876 7.89 447.3 8.4 83
5/27/2021 5:30:00 PM 23.78 74.804 7.9 446.7 8.34 90.32
5/27/2021 5:45:00 PM 23.61 74.498 7.91 446.2 8.23 85.31
5/27/2021 6:00:00 PM 23.35 74.03 7.9 445.8 8.11 94.17
5/27/2021 6:15:00 PM 23.29 73.922 7.89 444.8 8.05 89.17
5/27/2021 6:30:00 PM 23.19 73.742 7.89 444.4 8.02 92.49
5/27/2021 6:45:00 PM 23.05 73.49 7.89 444.1 7.94 90.21
5/27/2021 7:00:00 PM 22.87 73.166 7.86 443.1 7.77 91.05
5/27/2021 7:15:00 PM 22.72 72.896 7.85 442.3 7.69 103.2
5/27/2021 7:30:00 PM 22.59 72.662 7.86 441.7 7.48 98.28
5/27/2021 7:45:00 PM 22.49 72.482 7.84 441.4 7.45 115.9
5/27/2021 8:00:00 PM 22.4 72.32 7.84 440.8 7.39 105.2
5/27/2021 8:15:00 PM 22.33 72.194 7.83 440.6 7.3 113.5
5/27/2021 8:30:00 PM 22.28 72.104 7.82 440.5 7.24 114.4
5/27/2021 8:45:00 PM 22.23 72.014 7.82 440 7.15 126.3
5/27/2021 9:00:00 PM 22.2 71.96 7.81 439.5 7.13 117.1
5/27/2021 9:15:00 PM 22.16 71.888 7.81 439.7 7.07 120.5
5/27/2021 9:30:00 PM 22.14 71.852 7.8 439.4 7.07 132.6
5/27/2021 9:45:00 PM 22.12 71.816 7.81 439.1 7.02 140.9
5/27/2021 10:00:00 PM 22.11 71.798 7.79 438.9 7.02 138.1
5/27/2021 10:15:00 PM 22.09 71.762 7.81 420.3 7 143.6
5/27/2021 10:30:00 PM 22.1 71.78 7.81 437.9 6.9 144.7
5/27/2021 10:45:00 PM 22.09 71.762 7.81 437.9 7.01 103.7
5/27/2021 11:00:00 PM 22.1 71.78 7.8 437.3 7.01 158.5
5/27/2021 11:15:00 PM 22.14 71.852 7.81 420.5 7.05 147.2
5/27/2021 11:30:00 PM 22.13 71.834 7.81 376.6 7.04 151.9
5/27/2021 11:45:00 PM 22.15 71.87 7.83 436.2 7.06 168
5/28/2021 12:00:00 AM 22.17 71.906 7.83 435.5 7.05 169.8
5/28/2021 12:15:00 AM 22.19 71.942 7.84 434.9 7.09 168.6
5/28/2021 12:30:00 AM 22.19 71.942 7.83 434.7 7.11 170.6
5/28/2021 12:45:00 AM 22.22 71.996 7.86 434 7.1 176.8
5/28/2021 1:00:00 AM 22.26 72.068 7.87 433.8 7.08 173.4
5/28/2021 1:15:00 AM 22.29 72.122 7.87 433.3 7.13 169.9
5/28/2021 1:30:00 AM 22.31 72.158 7.86 433.3 7.11 182
5/28/2021 1:45:00 AM 22.33 72.194 7.87 432.9 7.1 195.7
5/28/2021 2:00:00 AM 22.34 72.212 7.87 433 7.14 186.6
5/28/2021 2:15:00 AM 22.34 72.212 7.86 432.8 7.11 196.4
5/28/2021 2:30:00 AM 22.36 72.248 7.89 433 7.13 189.5
5/28/2021 2:45:00 AM 22.36 72.248 7.89 433.1 7.17 219.9
5/28/2021 3:00:00 AM 22.36 72.248 7.88 433.1 7.16 223.4
5/28/2021 3:15:00 AM 22.37 72.266 7.88 433 7.21 223.6
5/28/2021 3:30:00 AM 22.38 72.284 7.88 433.2 7.16 317.4
5/28/2021 3:45:00 AM 22.38 72.284 7.91 433.1 7.19 212.1
5/28/2021 4:00:00 AM 22.36 72.248 7.9 433.3 7.18 281.3
5/28/2021 4:15:00 AM 22.36 72.248 7.89 433 7.17 318.6
5/28/2021 4:30:00 AM 22.37 72.266 7.89 432.9 7.16 325.9
5/28/2021 4:45:00 AM 22.35 72.23 7.89 432.8 7.17 286.4
5/28/2021 5:00:00 AM 22.33 72.194 7.88 432.8 7.13 343.1
5/28/2021 5:15:00 AM 22.31 72.158 7.91 432.6 7.07 391.9
5/28/2021 5:30:00 AM 22.29 72.122 7.88 432.4 7.16 354.8
5/28/2021 5:45:00 AM 22.25 72.05 7.88 432.3 7.13 361
5/28/2021 6:00:00 AM 22.22 71.996 7.87 432 7.13 322.3
5/28/2021 6:15:00 AM 22.19 71.942 7.88 431.8 7.13 312.5
5/28/2021 6:30:00 AM 22.14 71.852 7.88 431.8 7.16 352.5
5/28/2021 6:45:00 AM 22.12 71.816 7.87 431.9 7.23 310.3
5/28/2021 7:00:00 AM 22.09 71.762 7.88 432.1 7.21 349.5
5/28/2021 7:15:00 AM 22.07 71.726 7.86 431.7 7.25 338.9
5/28/2021 7:30:00 AM 22.06 71.708 7.88 431.7 7.32 315.8
5/28/2021 7:45:00 AM 22.05 71.69 7.88 431.7 7.41 387.8
5/28/2021 8:00:00 AM 22.01 71.618 7.89 431.7 7.43 288.8
5/28/2021 8:15:00 AM 22 71.6 7.89 431.7 7.51 288.3
5/28/2021 8:30:00 AM 21.99 71.582 7.89 431.6 7.55 273.7
5/28/2021 8:45:00 AM 21.98 71.564 7.9 431.6 7.63 329.3
5/28/2021 9:00:00 AM 21.96 71.528 7.9 431.5 7.71 295.4
5/28/2021 9:15:00 AM 21.96 71.528 7.91 431.6 7.78 265.8
5/28/2021 9:30:00 AM 22 71.6 7.91 431.5 7.83 251.1
5/28/2021 9:45:00 AM 21.98 71.564 7.9 431.7 7.91 321.9
5/28/2021 10:00:00 AM 21.97 71.546 7.89 431.3 8 307.7
5/28/2021 10:15:00 AM 21.97 71.546 7.91 431.2 8.06 329.6
5/28/2021 10:30:00 AM 22.01